Darstellungsparameter: Aktuell verwendete Einstellungen:
Skalierung der Graphiken ... ?
xyx+y,   Skalierungsfaktor:      Skalierung: Modus: x, Faktor: 1
Darstellungszeitraum ... ?
Vom - - bis: - -   Zeitraum: 12.04.2016 - 11.05.2016
Min/Max/Avg-Anzeige ... ?
Zeige MMA aktuell
Zeige MMA Monat
Zeige MMA alles
Zeige --A aktuell
Zeige --A Monat
Zeige --A alles
Keine MMA-Anzeige
MMA:
Keine MMA-Graphiken
MMA-Basis: 12.04.2016 - 11.05.2016
Quicknavigation für Darstellung... ?
Tage:      1T, 2T, 3T, 5T -1T -2T -3T -5T +1T +2T +3T +5T
Wochen: 1W, 2W, 3W -1W -2W -3W +1W +2W +3W
Monate: 1M, 3M, 6M -1M -3M -6M +1M +3M +6M
Jahre:    1J, 3J, 5J, 10J -1J -3J -5J -10J +1J +3J +5J +10J
Nutze für die Darstellung ... ?
Originaldaten oder Mittelwerte auf ...
Stundenbasis Tagesbasis Wochenbasis
Monatsbasis Jahresbasis      Datenbasis: Original-Daten
Darstellen als:
Statistik (Auto) Statistik J:M      Darstellung:
Zur Graphik,    zurück zur Übersicht aller Sensoren.
 
Tabellarische Datenbersicht: ?
 
Sensor: Nr:Datum:Temp:Feuchte:Taupunkt:
Aussen-T/F 1 12-04-2016 00:00:00 12.5 C 71 % 7.39 C
2 12-04-2016 00:05:00 12.3 C 72 % 7.4 C
3 12-04-2016 00:10:00 12.1 C 73 % 7.41 C
4 12-04-2016 00:15:00 11.9 C 74 % 7.42 C
5 12-04-2016 00:20:00 11.7 C 75 % 7.42 C
6 12-04-2016 00:25:00 11.4 C 76 % 7.33 C
7 12-04-2016 00:30:00 11.2 C 76 % 7.13 C
8 12-04-2016 00:35:00 11 C 77 % 7.13 C
9 12-04-2016 00:40:00 10.8 C 77 % 6.94 C
10 12-04-2016 00:45:00 10.6 C 78 % 6.93 C
11 12-04-2016 00:50:00 10.4 C 79 % 6.92 C
12 12-04-2016 00:55:00 10.2 C 79 % 6.73 C
13 12-04-2016 01:00:00 10.1 C 80 % 6.81 C
14 12-04-2016 01:05:00 10 C 81 % 6.89 C
15 12-04-2016 01:10:00 9.9 C 81 % 6.8 C
16 12-04-2016 01:15:00 9.8 C 81 % 6.7 C
17 12-04-2016 01:20:00 9.7 C 82 % 6.78 C
18 12-04-2016 01:25:00 9.6 C 82 % 6.68 C
19 12-04-2016 01:30:00 9.5 C 82 % 6.59 C
20 12-04-2016 01:35:00 9.4 C 83 % 6.66 C
21 12-04-2016 01:40:00 9.4 C 84 % 6.84 C
22 12-04-2016 01:45:00 9.3 C 84 % 6.74 C
23 12-04-2016 01:50:00 9.3 C 84 % 6.74 C
24 12-04-2016 01:55:00 9.3 C 84 % 6.74 C
25 12-04-2016 02:00:00 9.3 C 84 % 6.74 C
Sensor: Nr:Datum:Temp:Feuchte:Taupunkt:
Aussen-T/F 26 12-04-2016 02:05:00 9.3 C 85 % 6.91 C
27 12-04-2016 02:10:00 9.3 C 85 % 6.91 C
28 12-04-2016 02:15:00 9.4 C 85 % 7.01 C
29 12-04-2016 02:20:00 9.3 C 84 % 6.74 C
30 12-04-2016 02:25:00 9.3 C 84 % 6.74 C
31 12-04-2016 02:30:00 9.3 C 84 % 6.74 C
32 12-04-2016 02:35:00 9.2 C 84 % 6.64 C
33 12-04-2016 02:40:00 9.1 C 84 % 6.54 C
34 12-04-2016 02:45:00 9.1 C 85 % 6.72 C
35 12-04-2016 02:50:00 9 C 85 % 6.62 C
36 12-04-2016 02:55:00 9 C 86 % 6.79 C
37 12-04-2016 03:00:00 9 C 86 % 6.79 C
38 12-04-2016 03:05:00 9 C 85 % 6.62 C
39 12-04-2016 03:10:00 9.1 C 86 % 6.89 C
40 12-04-2016 03:15:00 9.1 C 86 % 6.89 C
41 12-04-2016 03:20:00 9 C 85 % 6.62 C
42 12-04-2016 03:25:00 8.9 C 85 % 6.52 C
43 12-04-2016 03:30:00 8.8 C 84 % 6.25 C
44 12-04-2016 03:35:00 8.6 C 85 % 6.23 C
45 12-04-2016 03:40:00 8.4 C 85 % 6.03 C
46 12-04-2016 03:45:00 8.3 C 86 % 6.1 C
47 12-04-2016 03:50:00 8.2 C 87 % 6.17 C
48 12-04-2016 03:55:00 8.2 C 87 % 6.17 C
49 12-04-2016 04:00:00 8.1 C 87 % 6.07 C
50 12-04-2016 04:05:00 8 C 87 % 5.97 C
Sensor: Nr:Datum:Temp:Feuchte:Taupunkt:
Aussen-T/F 51 12-04-2016 04:10:00 7.9 C 88 % 6.04 C
52 12-04-2016 04:15:00 7.9 C 88 % 6.04 C
53 12-04-2016 04:20:00 7.8 C 88 % 5.94 C
54 12-04-2016 04:25:00 7.7 C 88 % 5.84 C
55 12-04-2016 04:30:00 7.7 C 88 % 5.84 C
56 12-04-2016 04:35:00 7.7 C 89 % 6 C
57 12-04-2016 04:40:00 7.6 C 88 % 5.74 C
58 12-04-2016 04:45:00 7.4 C 88 % 5.55 C
59 12-04-2016 04:50:00 7.3 C 89 % 5.61 C
60 12-04-2016 04:55:00 7.3 C 89 % 5.61 C
61 12-04-2016 05:00:00 7.2 C 90 % 5.67 C
62 12-04-2016 05:05:00 7.2 C 90 % 5.67 C
63 12-04-2016 05:10:00 7.1 C 90 % 5.57 C
64 12-04-2016 05:15:00 7.2 C 91 % 5.83 C
65 12-04-2016 05:20:00 7.2 C 91 % 5.83 C
66 12-04-2016 05:25:00 7.2 C 91 % 5.83 C
67 12-04-2016 05:30:00 7.1 C 91 % 5.73 C
68 12-04-2016 05:35:00 7.1 C 91 % 5.73 C
69 12-04-2016 05:40:00 7 C 91 % 5.63 C
70 12-04-2016 05:45:00 6.8 C 91 % 5.44 C
71 12-04-2016 05:50:00 6.8 C 91 % 5.44 C
72 12-04-2016 05:55:00 6.7 C 91 % 5.34 C
73 12-04-2016 06:00:00 6.7 C 92 % 5.49 C
74 12-04-2016 06:05:00 6.7 C 92 % 5.49 C
75 12-04-2016 06:10:00 6.7 C 92 % 5.49 C
Sensor: Nr:Datum:Temp:Feuchte:Taupunkt:
Aussen-T/F 76 12-04-2016 06:15:00 6.7 C 92 % 5.49 C
77 12-04-2016 06:20:00 6.8 C 93 % 5.75 C
78 12-04-2016 06:25:00 6.7 C 92 % 5.49 C
79 12-04-2016 06:30:00 6.7 C 92 % 5.49 C
80 12-04-2016 06:35:00 6.7 C 92 % 5.49 C
81 12-04-2016 06:40:00 6.7 C 92 % 5.49 C
82 12-04-2016 06:45:00 6.7 C 92 % 5.49 C
83 12-04-2016 06:50:00 6.7 C 93 % 5.65 C
84 12-04-2016 06:55:00 6.7 C 93 % 5.65 C
85 12-04-2016 07:00:00 6.7 C 93 % 5.65 C
86 12-04-2016 07:05:00 6.8 C 93 % 5.75 C
87 12-04-2016 07:10:00 6.8 C 93 % 5.75 C
88 12-04-2016 07:15:00 6.9 C 93 % 5.85 C
89 12-04-2016 07:20:00 6.9 C 93 % 5.85 C
90 12-04-2016 07:25:00 7 C 93 % 5.95 C
91 12-04-2016 07:30:00 7.1 C 94 % 6.2 C
92 12-04-2016 07:35:00 7.2 C 94 % 6.3 C
93 12-04-2016 07:40:00 7.3 C 93 % 6.25 C
94 12-04-2016 07:45:00 7.3 C 93 % 6.25 C
95 12-04-2016 07:50:00 7.4 C 93 % 6.34 C
96 12-04-2016 07:55:00 7.5 C 93 % 6.44 C
97 12-04-2016 08:00:00 7.6 C 94 % 6.7 C
98 12-04-2016 08:05:00 7.7 C 93 % 6.64 C
99 12-04-2016 08:10:00 7.8 C 93 % 6.74 C
100 12-04-2016 08:15:00 7.8 C 93 % 6.74 C
Sensor: Nr:Datum:Temp:Feuchte:Taupunkt:
Aussen-T/F 101 12-04-2016 08:20:00 7.9 C 93 % 6.84 C
102 12-04-2016 08:25:00 7.9 C 93 % 6.84 C
103 12-04-2016 08:30:00 8.1 C 93 % 7.04 C
104 12-04-2016 08:35:00 8.1 C 93 % 7.04 C
105 12-04-2016 08:40:00 8.2 C 92 % 6.98 C
106 12-04-2016 08:45:00 8.3 C 92 % 7.08 C
107 12-04-2016 08:50:00 8.5 C 91 % 7.12 C
108 12-04-2016 08:55:00 8.6 C 91 % 7.22 C
109 12-04-2016 09:00:00 8.7 C 91 % 7.32 C
110 12-04-2016 09:05:00 8.8 C 90 % 7.25 C
111 12-04-2016 09:10:00 8.9 C 90 % 7.35 C
112 12-04-2016 09:15:00 9.1 C 90 % 7.55 C
113 12-04-2016 09:20:00 9.2 C 89 % 7.48 C
114 12-04-2016 09:25:00 9.3 C 89 % 7.58 C
115 12-04-2016 09:30:00 9.4 C 90 % 7.85 C
116 12-04-2016 09:35:00 9.6 C 90 % 8.04 C
117 12-04-2016 09:40:00 9.7 C 90 % 8.14 C
118 12-04-2016 09:45:00 9.9 C 89 % 8.17 C
119 12-04-2016 09:50:00 10.1 C 89 % 8.37 C
120 12-04-2016 09:55:00 10.3 C 88 % 8.4 C
121 12-04-2016 10:00:00 10.4 C 88 % 8.5 C
122 12-04-2016 10:05:00 10.6 C 88 % 8.7 C
123 12-04-2016 10:10:00 10.8 C 88 % 8.89 C
124 12-04-2016 10:15:00 10.9 C 87 % 8.82 C
125 12-04-2016 10:20:00 11.2 C 86 % 8.95 C
Sensor: Nr:Datum:Temp:Feuchte:Taupunkt:
Aussen-T/F 126 12-04-2016 10:25:00 11.4 C 85 % 8.97 C
127 12-04-2016 10:30:00 11.7 C 84 % 9.09 C
128 12-04-2016 10:35:00 11.9 C 84 % 9.29 C
129 12-04-2016 10:40:00 12.1 C 82 % 9.12 C
130 12-04-2016 10:45:00 12.4 C 81 % 9.23 C
131 12-04-2016 10:50:00 12.7 C 80 % 9.34 C
132 12-04-2016 10:55:00 13.1 C 79 % 9.54 C
133 12-04-2016 11:00:00 13.4 C 76 % 9.26 C
134 12-04-2016 11:05:00 13.8 C 74 % 9.25 C
135 12-04-2016 11:10:00 14.1 C 73 % 9.34 C
136 12-04-2016 11:15:00 14.2 C 73 % 9.43 C
137 12-04-2016 11:20:00 14.4 C 71 % 9.21 C
138 12-04-2016 11:25:00 14.6 C 72 % 9.61 C
139 12-04-2016 11:30:00 14.6 C 70 % 9.2 C
140 12-04-2016 11:35:00 14.6 C 72 % 9.61 C
141 12-04-2016 11:40:00 14.4 C 71 % 9.21 C
142 12-04-2016 11:45:00 14.3 C 71 % 9.12 C
143 12-04-2016 11:50:00 14.5 C 70 % 9.1 C
144 12-04-2016 11:55:00 14.8 C 68 % 8.96 C
145 12-04-2016 12:00:00 15.1 C 67 % 9.02 C
146 12-04-2016 12:05:00 15.3 C 66 % 8.99 C
147 12-04-2016 12:10:00 15.4 C 67 % 9.31 C
148 12-04-2016 12:15:00 15.3 C 65 % 8.77 C
149 12-04-2016 12:20:00 15.4 C 64 % 8.63 C
150 12-04-2016 12:25:00 15.6 C 64 % 8.82 C
Sensor: Nr:Datum:Temp:Feuchte:Taupunkt:
Aussen-T/F 151 12-04-2016 12:30:00 15.8 C 61 % 8.3 C
152 12-04-2016 12:35:00 15.9 C 61 % 8.4 C
153 12-04-2016 12:40:00 16 C 60 % 8.25 C
154 12-04-2016 12:45:00 16.2 C 59 % 8.19 C
155 12-04-2016 12:50:00 16.3 C 58 % 8.03 C
156 12-04-2016 12:55:00 16.4 C 58 % 8.12 C
157 12-04-2016 13:00:00 16.6 C 57 % 8.06 C
158 12-04-2016 13:05:00 16.8 C 56 % 7.98 C
159 12-04-2016 13:10:00 16.9 C 49 % 6.13 C
160 12-04-2016 13:15:00 17 C 47 % 5.62 C
161 12-04-2016 13:20:00 17.2 C 47 % 5.8 C
162 12-04-2016 13:25:00 17.3 C 49 % 6.5 C
163 12-04-2016 13:30:00 17.3 C 49 % 6.5 C
164 12-04-2016 13:35:00 17.4 C 48 % 6.29 C
165 12-04-2016 13:40:00 17.4 C 48 % 6.29 C
166 12-04-2016 13:45:00 17.3 C 49 % 6.5 C
167 12-04-2016 13:50:00 17.4 C 48 % 6.29 C
168 12-04-2016 13:55:00 17.5 C 44 % 5.13 C
169 12-04-2016 14:00:00 17.5 C 46 % 5.76 C
170 12-04-2016 14:05:00 17.6 C 48 % 6.47 C
171 12-04-2016 14:10:00 17.7 C 45 % 5.63 C
172 12-04-2016 14:15:00 17.9 C 43 % 5.16 C
173 12-04-2016 14:20:00 18.1 C 43 % 5.34 C
174 12-04-2016 14:25:00 18.2 C 44 % 5.76 C
175 12-04-2016 14:30:00 18.3 C 40 % 4.48 C
Sensor: Nr:Datum:Temp:Feuchte:Taupunkt:
Aussen-T/F 176 12-04-2016 14:35:00 18.4 C 43 % 5.61 C
177 12-04-2016 14:40:00 18.6 C 43 % 5.79 C
178 12-04-2016 14:45:00 18.8 C 41 % 5.28 C
179 12-04-2016 14:50:00 18.8 C 41 % 5.28 C
180 12-04-2016 14:55:00 18.8 C 40 % 4.93 C
181 12-04-2016 15:00:00 18.8 C 39 % 4.57 C
182 12-04-2016 15:05:00 18.7 C 42 % 5.54 C
183 12-04-2016 15:10:00 18.7 C 41 % 5.19 C
184 12-04-2016 15:15:00 18.7 C 40 % 4.84 C
185 12-04-2016 15:20:00 18.9 C 38 % 4.29 C
186 12-04-2016 15:25:00 18.9 C 41 % 5.37 C
187 12-04-2016 15:30:00 19 C 40 % 5.11 C
188 12-04-2016 15:35:00 18.9 C 39 % 4.66 C
189 12-04-2016 15:40:00 18.8 C 41 % 5.28 C
190 12-04-2016 15:45:00 18.7 C 40 % 4.84 C
191 12-04-2016 15:50:00 18.7 C 41 % 5.19 C
192 12-04-2016 15:55:00 18.8 C 40 % 4.93 C
193 12-04-2016 16:00:00 18.9 C 39 % 4.66 C
194 12-04-2016 16:05:00 19.1 C 40 % 5.2 C
195 12-04-2016 16:10:00 19.2 C 39 % 4.92 C
196 12-04-2016 16:15:00 19.3 C 42 % 6.08 C
197 12-04-2016 16:20:00 19.2 C 43 % 6.33 C
198 12-04-2016 16:25:00 19.1 C 45 % 6.9 C
199 12-04-2016 16:30:00 18.9 C 47 % 7.35 C
200 12-04-2016 16:35:00 18.7 C 47 % 7.17 C
Sensor: Nr:Datum:Temp:Feuchte:Taupunkt:
Aussen-T/F 201 12-04-2016 16:40:00 18.6 C 49 % 7.69 C
202 12-04-2016 16:45:00 18.5 C 48 % 7.29 C
203 12-04-2016 16:50:00 18.3 C 50 % 7.71 C
204 12-04-2016 16:55:00 18.2 C 50 % 7.62 C
205 12-04-2016 17:00:00 18.1 C 50 % 7.52 C
206 12-04-2016 17:05:00 18 C 53 % 8.29 C
207 12-04-2016 17:10:00 17.9 C 52 % 7.91 C
208 12-04-2016 17:15:00 17.8 C 54 % 8.38 C
209 12-04-2016 17:20:00 17.7 C 53 % 8.01 C
210 12-04-2016 17:25:00 17.6 C 54 % 8.19 C
211 12-04-2016 17:30:00 17.4 C 59 % 9.31 C
212 12-04-2016 17:35:00 16.3 C 62 % 9.01 C
213 12-04-2016 17:40:00 14.8 C 71 % 9.6 C
214 12-04-2016 17:45:00 13.7 C 76 % 9.55 C
215 12-04-2016 17:50:00 12.7 C 80 % 9.34 C
216 12-04-2016 17:55:00 11.8 C 83 % 9.01 C
217 12-04-2016 18:00:00 11.3 C 84 % 8.7 C
218 12-04-2016 18:05:00 11 C 86 % 8.75 C
219 12-04-2016 18:10:00 10.8 C 87 % 8.73 C
220 12-04-2016 18:15:00 10.8 C 89 % 9.06 C
221 12-04-2016 18:20:00 10.6 C 90 % 9.03 C
222 12-04-2016 18:25:00 10.6 C 90 % 9.03 C
223 12-04-2016 18:30:00 10.4 C 91 % 9 C
224 12-04-2016 18:35:00 10.4 C 91 % 9 C
225 12-04-2016 18:40:00 10.4 C 91 % 9 C
Sensor: Nr:Datum:Temp:Feuchte:Taupunkt:
Aussen-T/F 226 12-04-2016 18:45:00 10.4 C 92 % 9.16 C
227 12-04-2016 18:50:00 10.4 C 91 % 9 C
228 12-04-2016 18:55:00 10.3 C 91 % 8.9 C
229 12-04-2016 19:00:00 10.3 C 92 % 9.06 C
230 12-04-2016 19:05:00 10.4 C 93 % 9.32 C
231 12-04-2016 19:10:00 10.4 C 93 % 9.32 C
232 12-04-2016 19:15:00 10.4 C 93 % 9.32 C
233 12-04-2016 19:20:00 10.4 C 93 % 9.32 C
234 12-04-2016 19:25:00 10.3 C 93 % 9.22 C
235 12-04-2016 19:30:00 10.3 C 93 % 9.22 C
236 12-04-2016 19:35:00 10.4 C 94 % 9.48 C
237 12-04-2016 19:40:00 10.6 C 94 % 9.68 C
238 12-04-2016 19:45:00 10.7 C 94 % 9.77 C
239 12-04-2016 19:50:00 10.8 C 95 % 10.03 C
240 12-04-2016 19:55:00 10.9 C 95 % 10.13 C
241 12-04-2016 20:00:00 10.8 C 94 % 9.87 C
242 12-04-2016 20:05:00 10.6 C 93 % 9.52 C
243 12-04-2016 20:10:00 10.2 C 93 % 9.12 C
244 12-04-2016 20:15:00 9.9 C 93 % 8.82 C
245 12-04-2016 20:20:00 9.7 C 93 % 8.62 C
246 12-04-2016 20:25:00 9.6 C 93 % 8.53 C
247 12-04-2016 20:30:00 9.4 C 94 % 8.48 C
248 12-04-2016 20:35:00 9.3 C 94 % 8.39 C
249 12-04-2016 20:40:00 9.2 C 94 % 8.29 C
250 12-04-2016 20:45:00 9.1 C 94 % 8.19 C
Sensor: Nr:Datum:Temp:Feuchte:Taupunkt:
Aussen-T/F 251 12-04-2016 20:50:00 9 C 94 % 8.09 C
252 12-04-2016 20:55:00 9 C 95 % 8.24 C
253 12-04-2016 21:00:00 8.9 C 95 % 8.14 C
254 12-04-2016 21:05:00 8.8 C 94 % 7.89 C
255 12-04-2016 21:10:00 8.7 C 94 % 7.79 C
256 12-04-2016 21:15:00 8.6 C 95 % 7.85 C
257 12-04-2016 21:20:00 8.6 C 95 % 7.85 C
258 12-04-2016 21:25:00 8.6 C 95 % 7.85 C
259 12-04-2016 21:30:00 8.6 C 95 % 7.85 C
260 12-04-2016 21:35:00 8.5 C 95 % 7.75 C
261 12-04-2016 21:40:00 8.4 C 95 % 7.65 C
262 12-04-2016 21:45:00 8.4 C 95 % 7.65 C
263 12-04-2016 21:50:00 8.4 C 95 % 7.65 C
264 12-04-2016 21:55:00 8.4 C 95 % 7.65 C
265 12-04-2016 22:00:00 8.4 C 95 % 7.65 C
266 12-04-2016 22:05:00 8.5 C 96 % 7.9 C
267 12-04-2016 22:10:00 8.5 C 96 % 7.9 C
268 12-04-2016 22:15:00 8.5 C 96 % 7.9 C
269 12-04-2016 22:20:00 8.5 C 96 % 7.9 C
270 12-04-2016 22:25:00 8.5 C 96 % 7.9 C
271 12-04-2016 22:30:00 8.4 C 96 % 7.8 C
272 12-04-2016 22:35:00 8.4 C 95 % 7.65 C
273 12-04-2016 22:40:00 8.4 C 95 % 7.65 C
274 12-04-2016 22:45:00 8.3 C 95 % 7.55 C
275 12-04-2016 22:50:00 8.3 C 96 % 7.7 C
Sensor: Nr:Datum:Temp:Feuchte:Taupunkt:
Aussen-T/F 276 12-04-2016 22:55:00 8.3 C 96 % 7.7 C
277 12-04-2016 23:00:00 8.3 C 96 % 7.7 C
278 12-04-2016 23:05:00 8.3 C 96 % 7.7 C
279 12-04-2016 23:10:00 8.2 C 96 % 7.6 C
280 12-04-2016 23:15:00 8.2 C 96 % 7.6 C
281 12-04-2016 23:20:00 8.2 C 96 % 7.6 C
282 12-04-2016 23:25:00 8.1 C 96 % 7.5 C
283 12-04-2016 23:30:00 8.1 C 96 % 7.5 C
284 12-04-2016 23:35:00 7.9 C 95 % 7.15 C
285 12-04-2016 23:40:00 7.8 C 96 % 7.2 C
286 12-04-2016 23:45:00 7.8 C 95 % 7.05 C
287 12-04-2016 23:50:00 7.8 C 96 % 7.2 C
288 12-04-2016 23:55:00 7.8 C 96 % 7.2 C
289 13-04-2016 00:00:00 7.7 C 96 % 7.1 C
290 13-04-2016 00:05:00 7.5 C 95 % 6.75 C
291 13-04-2016 00:10:00 7.4 C 95 % 6.65 C
292 13-04-2016 00:15:00 7.3 C 96 % 6.71 C
293 13-04-2016 00:20:00 7.2 C 96 % 6.61 C
294 13-04-2016 00:25:00 7.2 C 96 % 6.61 C
295 13-04-2016 00:30:00 7.1 C 96 % 6.51 C
296 13-04-2016 00:35:00 7 C 96 % 6.41 C
297 13-04-2016 00:40:00 7.1 C 96 % 6.51 C
298 13-04-2016 00:45:00 7.1 C 96 % 6.51 C
299 13-04-2016 00:50:00 7.2 C 96 % 6.61 C
300 13-04-2016 00:55:00 7.3 C 96 % 6.71 C
Sensor: Nr:Datum:Temp:Feuchte:Taupunkt:
Aussen-T/F 301 13-04-2016 01:00:00 7.4 C 96 % 6.8 C
302 13-04-2016 01:05:00 7.6 C 96 % 7 C
303 13-04-2016 01:10:00 7.7 C 97 % 7.25 C
304 13-04-2016 01:15:00 7.7 C 97 % 7.25 C
305 13-04-2016 01:20:00 7.7 C 97 % 7.25 C
306 13-04-2016 01:25:00 7.7 C 97 % 7.25 C
307 13-04-2016 01:30:00 7.8 C 96 % 7.2 C
308 13-04-2016 01:35:00 7.8 C 96 % 7.2 C
309 13-04-2016 01:40:00 7.8 C 96 % 7.2 C
310 13-04-2016 01:45:00 7.7 C 96 % 7.1 C
311 13-04-2016 01:50:00 7.6 C 96 % 7 C
312 13-04-2016 01:55:00 7.4 C 96 % 6.8 C
313 13-04-2016 02:00:00 7.3 C 96 % 6.71 C
314 13-04-2016 02:05:00 7.3 C 96 % 6.71 C
315 13-04-2016 02:10:00 7.2 C 96 % 6.61 C
316 13-04-2016 02:15:00 7.1 C 96 % 6.51 C
317 13-04-2016 02:20:00 7 C 96 % 6.41 C
318 13-04-2016 02:25:00 6.9 C 96 % 6.31 C
319 13-04-2016 02:30:00 6.8 C 96 % 6.21 C
320 13-04-2016 02:35:00 6.7 C 96 % 6.11 C
321 13-04-2016 02:40:00 6.7 C 96 % 6.11 C
322 13-04-2016 02:45:00 6.7 C 96 % 6.11 C
323 13-04-2016 02:50:00 6.7 C 96 % 6.11 C
324 13-04-2016 02:55:00 6.7 C 97 % 6.26 C
325 13-04-2016 03:00:00 6.8 C 97 % 6.36 C
Sensor: Nr:Datum:Temp:Feuchte:Taupunkt:
Aussen-T/F 326 13-04-2016 03:05:00 6.8 C 97 % 6.36 C
327 13-04-2016 03:10:00 6.9 C 97 % 6.46 C
328 13-04-2016 03:15:00 7 C 97 % 6.56 C
329 13-04-2016 03:20:00 7.1 C 97 % 6.66 C
330 13-04-2016 03:25:00 7.1 C 97 % 6.66 C
331 13-04-2016 03:30:00 7.1 C 97 % 6.66 C
332 13-04-2016 03:35:00 7.1 C 97 % 6.66 C
333 13-04-2016 03:40:00 7.1 C 97 % 6.66 C
334 13-04-2016 03:45:00 7.1 C 97 % 6.66 C
335 13-04-2016 03:50:00 7.1 C 97 % 6.66 C
336 13-04-2016 03:55:00 7.1 C 97 % 6.66 C
337 13-04-2016 04:00:00 7.1 C 97 % 6.66 C
338 13-04-2016 04:05:00 7.1 C 97 % 6.66 C
339 13-04-2016 04:10:00 7.1 C 97 % 6.66 C
340 13-04-2016 04:15:00 7.1 C 97 % 6.66 C
341 13-04-2016 04:20:00 7.1 C 97 % 6.66 C
342 13-04-2016 04:25:00 7.2 C 97 % 6.76 C
343 13-04-2016 04:30:00 7.2 C 97 % 6.76 C
344 13-04-2016 04:35:00 7.2 C 97 % 6.76 C
345 13-04-2016 04:40:00 7.1 C 97 % 6.66 C
346 13-04-2016 04:45:00 7.1 C 97 % 6.66 C
347 13-04-2016 04:50:00 7.1 C 97 % 6.66 C
348 13-04-2016 04:55:00 7.1 C 97 % 6.66 C
349 13-04-2016 05:00:00 7.1 C 97 % 6.66 C
350 13-04-2016 05:05:00 7.1 C 97 % 6.66 C
Sensor: Nr:Datum:Temp:Feuchte:Taupunkt:
Aussen-T/F 351 13-04-2016 05:10:00 7.2 C 97 % 6.76 C
352 13-04-2016 05:15:00 7.2 C 97 % 6.76 C
353 13-04-2016 05:20:00 7.2 C 97 % 6.76 C
354 13-04-2016 05:25:00 7.2 C 97 % 6.76 C
355 13-04-2016 05:30:00 7.2 C 97 % 6.76 C
356 13-04-2016 05:35:00 7.2 C 97 % 6.76 C
357 13-04-2016 05:40:00 7.3 C 97 % 6.86 C
358 13-04-2016 05:45:00 7.3 C 97 % 6.86 C
359 13-04-2016 05:50:00 7.3 C 97 % 6.86 C
360 13-04-2016 05:55:00 7.3 C 97 % 6.86 C
361 13-04-2016 06:00:00 7.3 C 97 % 6.86 C
362 13-04-2016 06:05:00 7.3 C 97 % 6.86 C
363 13-04-2016 06:10:00 7.4 C 97 % 6.96 C
364 13-04-2016 06:15:00 7.4 C 97 % 6.96 C
365 13-04-2016 06:20:00 7.4 C 97 % 6.96 C
366 13-04-2016 06:25:00 7.4 C 97 % 6.96 C
367 13-04-2016 06:30:00 7.4 C 97 % 6.96 C
368 13-04-2016 06:35:00 7.3 C 97 % 6.86 C
369 13-04-2016 06:40:00 7.3 C 97 % 6.86 C
370 13-04-2016 06:45:00 7.3 C 97 % 6.86 C
371 13-04-2016 06:50:00 7.3 C 97 % 6.86 C
372 13-04-2016 06:55:00 7.3 C 97 % 6.86 C
373 13-04-2016 07:00:00 7.3 C 97 % 6.86 C
374 13-04-2016 07:05:00 7.3 C 97 % 6.86 C
375 13-04-2016 07:10:00 7.4 C 97 % 6.96 C
Sensor: Nr:Datum:Temp:Feuchte:Taupunkt:
Aussen-T/F 376 13-04-2016 07:15:00 7.3 C 97 % 6.86 C
377 13-04-2016 07:20:00 7.4 C 97 % 6.96 C
378 13-04-2016 07:25:00 7.4 C 97 % 6.96 C
379 13-04-2016 07:30:00 7.4 C 97 % 6.96 C
380 13-04-2016 07:35:00 7.4 C 97 % 6.96 C
381 13-04-2016 07:40:00 7.4 C 97 % 6.96 C
382 13-04-2016 07:45:00 7.4 C 97 % 6.96 C
383 13-04-2016 07:50:00 7.4 C 97 % 6.96 C
384 13-04-2016 07:55:00 7.4 C 97 % 6.96 C
385 13-04-2016 08:00:00 7.4 C 97 % 6.96 C
386 13-04-2016 08:05:00 7.5 C 97 % 7.06 C
387 13-04-2016 08:10:00 7.5 C 97 % 7.06 C
388 13-04-2016 08:15:00 7.6 C 97 % 7.16 C
389 13-04-2016 08:20:00 7.6 C 97 % 7.16 C
390 13-04-2016 08:25:00 7.7 C 97 % 7.25 C
391 13-04-2016 08:30:00 7.7 C 97 % 7.25 C
392 13-04-2016 08:35:00 7.7 C 97 % 7.25 C
393 13-04-2016 08:40:00 7.7 C 97 % 7.25 C
394 13-04-2016 08:45:00 7.8 C 97 % 7.35 C
395 13-04-2016 08:50:00 7.8 C 97 % 7.35 C
396 13-04-2016 08:55:00 7.7 C 97 % 7.25 C
397 13-04-2016 09:00:00 7.7 C 97 % 7.25 C
398 13-04-2016 09:05:00 7.7 C 97 % 7.25 C
399 13-04-2016 09:10:00 7.8 C 97 % 7.35 C
400 13-04-2016 09:15:00 7.9 C 97 % 7.45 C
Sensor: Nr:Datum:Temp:Feuchte:Taupunkt:
Aussen-T/F 401 13-04-2016 09:20:00 7.9 C 97 % 7.45 C
402 13-04-2016 09:25:00 7.9 C 97 % 7.45 C
403 13-04-2016 09:30:00 7.9 C 97 % 7.45 C
404 13-04-2016 09:35:00 7.9 C 97 % 7.45 C
405 13-04-2016 09:40:00 8 C 97 % 7.55 C
406 13-04-2016 09:45:00 7.9 C 97 % 7.45 C
407 13-04-2016 09:50:00 7.9 C 97 % 7.45 C
408 13-04-2016 09:55:00 7.9 C 97 % 7.45 C
409 13-04-2016 10:00:00 7.9 C 97 % 7.45 C
410 13-04-2016 10:05:00 7.9 C 97 % 7.45 C
411 13-04-2016 10:10:00 8 C 97 % 7.55 C
412 13-04-2016 10:15:00 8.1 C 97 % 7.65 C
413 13-04-2016 10:20:00 8.1 C 97 % 7.65 C
414 13-04-2016 10:25:00 8.1 C 97 % 7.65 C
415 13-04-2016 10:30:00 8.1 C 97 % 7.65 C
416 13-04-2016 10:35:00 8.2 C 97 % 7.75 C
417 13-04-2016 10:40:00 8.2 C 97 % 7.75 C
418 13-04-2016 10:45:00 8.3 C 97 % 7.85 C
419 13-04-2016 10:50:00 8.3 C 97 % 7.85 C
420 13-04-2016 10:55:00 8.3 C 97 % 7.85 C
421 13-04-2016 11:00:00 8.4 C 97 % 7.95 C
422 13-04-2016 11:05:00 8.4 C 97 % 7.95 C
423 13-04-2016 11:10:00 8.3 C 97 % 7.85 C
424 13-04-2016 11:15:00 8.3 C 97 % 7.85 C
425 13-04-2016 11:20:00 8.3 C 97 % 7.85 C
Sensor: Nr:Datum:Temp:Feuchte:Taupunkt:
Aussen-T/F 426 13-04-2016 11:25:00 8.4 C 97 % 7.95 C
427 13-04-2016 11:30:00 8.5 C 97 % 8.05 C
428 13-04-2016 11:35:00 8.6 C 97 % 8.15 C
429 13-04-2016 11:40:00 8.6 C 97 % 8.15 C
430 13-04-2016 11:45:00 8.7 C 97 % 8.25 C
431 13-04-2016 11:50:00 8.7 C 97 % 8.25 C
432 13-04-2016 11:55:00 8.7 C 97 % 8.25 C
433 13-04-2016 12:00:00 8.8 C 97 % 8.35 C
434 13-04-2016 12:05:00 8.9 C 97 % 8.45 C
435 13-04-2016 12:10:00 8.9 C 97 % 8.45 C
436 13-04-2016 12:15:00 8.9 C 97 % 8.45 C
437 13-04-2016 12:20:00 8.9 C 97 % 8.45 C
438 13-04-2016 12:25:00 9.1 C 97 % 8.65 C
439 13-04-2016 12:30:00 9.1 C 97 % 8.65 C
440 13-04-2016 12:35:00 9.2 C 97 % 8.75 C
441 13-04-2016 12:40:00 9.2 C 97 % 8.75 C
442 13-04-2016 12:45:00 9.3 C 97 % 8.85 C
443 13-04-2016 12:50:00 9.4 C 97 % 8.95 C
444 13-04-2016 12:55:00 9.4 C 96 % 8.8 C
445 13-04-2016 13:00:00 9.4 C 96 % 8.8 C
446 13-04-2016 13:05:00 9.6 C 96 % 8.99 C
447 13-04-2016 13:10:00 9.6 C 95 % 8.84 C
448 13-04-2016 13:15:00 9.7 C 95 % 8.94 C
449 13-04-2016 13:20:00 9.7 C 95 % 8.94 C
450 13-04-2016 13:25:00 9.8 C 95 % 9.04 C
Sensor: Nr:Datum:Temp:Feuchte:Taupunkt:
Aussen-T/F 451 13-04-2016 13:30:00 9.9 C 94 % 8.98 C
452 13-04-2016 13:35:00 10.1 C 94 % 9.18 C
453 13-04-2016 13:40:00 10.2 C 94 % 9.28 C
454 13-04-2016 13:45:00 10.2 C 94 % 9.28 C
455 13-04-2016 13:50:00 10.3 C 93 % 9.22 C
456 13-04-2016 13:55:00 10.3 C 93 % 9.22 C
457 13-04-2016 14:00:00 10.3 C 92 % 9.06 C
458 13-04-2016 14:05:00 10.3 C 93 % 9.22 C
459 13-04-2016 14:10:00 10.4 C 93 % 9.32 C
460 13-04-2016 14:15:00 10.5 C 93 % 9.42 C
461 13-04-2016 14:20:00 10.6 C 93 % 9.52 C
462 13-04-2016 14:25:00 10.6 C 93 % 9.52 C
463 13-04-2016 14:30:00 10.7 C 93 % 9.62 C
464 13-04-2016 14:35:00 10.7 C 92 % 9.45 C
465 13-04-2016 14:40:00 10.8 C 93 % 9.71 C
466 13-04-2016 14:45:00 10.8 C 93 % 9.71 C
467 13-04-2016 14:50:00 10.8 C 93 % 9.71 C
468 13-04-2016 14:55:00 10.8 C 93 % 9.71 C
469 13-04-2016 15:00:00 10.7 C 93 % 9.62 C
470 13-04-2016 15:05:00 10.7 C 93 % 9.62 C
471 13-04-2016 15:10:00 10.7 C 93 % 9.62 C
472 13-04-2016 15:15:00 10.7 C 93 % 9.62 C
473 13-04-2016 15:20:00 10.7 C 93 % 9.62 C
474 13-04-2016 15:25:00 10.8 C 94 % 9.87 C
475 13-04-2016 15:30:00 10.8 C 94 % 9.87 C
Sensor: Nr:Datum:Temp:Feuchte:Taupunkt:
Aussen-T/F 476 13-04-2016 15:35:00 10.9 C 94 % 9.97 C
477 13-04-2016 15:40:00 10.8 C 94 % 9.87 C
478 13-04-2016 15:45:00 10.8 C 94 % 9.87 C
479 13-04-2016 15:50:00 10.8 C 94 % 9.87 C
480 13-04-2016 15:55:00 10.9 C 94 % 9.97 C
481 13-04-2016 16:00:00 10.9 C 94 % 9.97 C
482 13-04-2016 16:05:00 11 C 93 % 9.91 C
483 13-04-2016 16:10:00 11.1 C 93 % 10.01 C
484 13-04-2016 16:15:00 11.3 C 92 % 10.05 C
485 13-04-2016 16:20:00 11.4 C 91 % 9.98 C
486 13-04-2016 16:25:00 11.6 C 89 % 9.85 C
487 13-04-2016 16:30:00 11.6 C 89 % 9.85 C
488 13-04-2016 16:35:00 11.7 C 87 % 9.61 C
489 13-04-2016 16:40:00 11.6 C 85 % 9.17 C
490 13-04-2016 16:45:00 11.6 C 85 % 9.17 C
491 13-04-2016 16:50:00 11.6 C 84 % 8.99 C
492 13-04-2016 16:55:00 11.6 C 84 % 8.99 C
493 13-04-2016 17:00:00 11.6 C 86 % 9.34 C
494 13-04-2016 17:05:00 11.5 C 82 % 8.54 C
495 13-04-2016 17:10:00 11.5 C 84 % 8.89 C
496 13-04-2016 17:15:00 11.6 C 80 % 8.27 C
497 13-04-2016 17:20:00 11.6 C 81 % 8.45 C
498 13-04-2016 17:25:00 11.7 C 79 % 8.18 C
499 13-04-2016 17:30:00 11.7 C 79 % 8.18 C
500 13-04-2016 17:35:00 11.7 C 79 % 8.18 C
Sensor: Nr:Datum:Temp:Feuchte:Taupunkt:
Aussen-T/F 501 13-04-2016 17:40:00 11.8 C 78 % 8.09 C
502 13-04-2016 17:45:00 11.8 C 78 % 8.09 C
503 13-04-2016 17:50:00 11.8 C 77 % 7.9 C
504 13-04-2016 17:55:00 11.8 C 75 % 7.52 C
505 13-04-2016 18:00:00 11.8 C 79 % 8.28 C
506 13-04-2016 18:05:00 11.8 C 81 % 8.65 C
507 13-04-2016 18:10:00 11.7 C 82 % 8.73 C
508 13-04-2016 18:15:00 11.4 C 83 % 8.62 C
509 13-04-2016 18:20:00 11.3 C 85 % 8.87 C
510 13-04-2016 18:25:00 11.2 C 86 % 8.95 C
511 13-04-2016 18:30:00 11.1 C 86 % 8.85 C
512 13-04-2016 18:35:00 10.9 C 86 % 8.65 C
513 13-04-2016 18:40:00 10.8 C 87 % 8.73 C
514 13-04-2016 18:45:00 10.6 C 87 % 8.53 C
515 13-04-2016 18:50:00 10.5 C 87 % 8.43 C
516 13-04-2016 18:55:00 10.4 C 87 % 8.33 C
517 13-04-2016 19:00:00 10.3 C 88 % 8.4 C
518 13-04-2016 19:05:00 10.3 C 88 % 8.4 C
519 13-04-2016 19:10:00 10.2 C 88 % 8.3 C
520 13-04-2016 19:15:00 10.1 C 89 % 8.37 C
521 13-04-2016 19:20:00 10 C 89 % 8.27 C
522 13-04-2016 19:25:00 10 C 90 % 8.44 C
523 13-04-2016 19:30:00 9.9 C 90 % 8.34 C
524 13-04-2016 19:35:00 9.9 C 90 % 8.34 C
525 13-04-2016 19:40:00 9.9 C 90 % 8.34 C
Sensor: Nr:Datum:Temp:Feuchte:Taupunkt:
Aussen-T/F 526 13-04-2016 19:45:00 9.9 C 91 % 8.5 C
527 13-04-2016 19:50:00 9.9 C 91 % 8.5 C
528 13-04-2016 19:55:00 9.8 C 91 % 8.4 C
529 13-04-2016 20:00:00 9.8 C 91 % 8.4 C
530 13-04-2016 20:05:00 9.8 C 91 % 8.4 C
531 13-04-2016 20:10:00 9.8 C 91 % 8.4 C
532 13-04-2016 20:15:00 9.7 C 91 % 8.3 C
533 13-04-2016 20:20:00 9.7 C 91 % 8.3 C
534 13-04-2016 20:25:00 9.7 C 91 % 8.3 C
535 13-04-2016 20:30:00 9.7 C 92 % 8.46 C
536 13-04-2016 20:35:00 9.7 C 91 % 8.3 C
537 13-04-2016 20:40:00 9.7 C 92 % 8.46 C
538 13-04-2016 20:45:00 9.7 C 92 % 8.46 C
539 13-04-2016 20:50:00 9.7 C 91 % 8.3 C
540 13-04-2016 20:55:00 9.7 C 90 % 8.14 C
541 13-04-2016 21:00:00 9.7 C 91 % 8.3 C
542 13-04-2016 21:05:00 9.7 C 91 % 8.3 C
543 13-04-2016 21:10:00 9.7 C 91 % 8.3 C
544 13-04-2016 21:15:00 9.6 C 91 % 8.21 C
545 13-04-2016 21:20:00 9.6 C 92 % 8.37 C
546 13-04-2016 21:25:00 9.4 C 91 % 8.01 C
547 13-04-2016 21:30:00 9.4 C 91 % 8.01 C
548 13-04-2016 21:35:00 9.3 C 92 % 8.07 C
549 13-04-2016 21:40:00 9.3 C 92 % 8.07 C
550 13-04-2016 21:45:00 9.2 C 92 % 7.97 C
Sensor: Nr:Datum:Temp:Feuchte:Taupunkt:
Aussen-T/F 551 13-04-2016 21:50:00 9.1 C 92 % 7.87 C
552 13-04-2016 21:55:00 9.1 C 92 % 7.87 C
553 13-04-2016 22:00:00 9 C 93 % 7.93 C
554 13-04-2016 22:05:00 9 C 93 % 7.93 C
555 13-04-2016 22:10:00 8.9 C 93 % 7.83 C
556 13-04-2016 22:15:00 8.9 C 93 % 7.83 C
557 13-04-2016 22:20:00 8.9 C 93 % 7.83 C
558 13-04-2016 22:25:00 9 C 93 % 7.93 C
559 13-04-2016 22:30:00 9 C 94 % 8.09 C
560 13-04-2016 22:35:00 9 C 94 % 8.09 C
561 13-04-2016 22:40:00 9 C 94 % 8.09 C
562 13-04-2016 22:45:00 9 C 94 % 8.09 C
563 13-04-2016 22:50:00 9 C 94 % 8.09 C
564 13-04-2016 22:55:00 8.9 C 95 % 8.14 C
565 13-04-2016 23:00:00 8.9 C 95 % 8.14 C
566 13-04-2016 23:05:00 8.9 C 95 % 8.14 C
567 13-04-2016 23:10:00 8.9 C 95 % 8.14 C
568 13-04-2016 23:15:00 8.8 C 95 % 8.04 C
569 13-04-2016 23:20:00 8.8 C 95 % 8.04 C
570 13-04-2016 23:25:00 8.7 C 95 % 7.94 C
571 13-04-2016 23:30:00 8.7 C 95 % 7.94 C
572 13-04-2016 23:35:00 8.7 C 95 % 7.94 C
573 13-04-2016 23:40:00 8.7 C 95 % 7.94 C
574 13-04-2016 23:45:00 8.7 C 95 % 7.94 C
575 13-04-2016 23:50:00 8.6 C 95 % 7.85 C
Sensor: Nr:Datum:Temp:Feuchte:Taupunkt:
Aussen-T/F 576 13-04-2016 23:55:00 8.6 C 95 % 7.85 C
577 14-04-2016 00:00:00 8.6 C 95 % 7.85 C
578 14-04-2016 00:05:00 8.6 C 95 % 7.85 C
579 14-04-2016 00:10:00 8.6 C 95 % 7.85 C
580 14-04-2016 00:15:00 8.6 C 96 % 8 C
581 14-04-2016 00:20:00 8.5 C 96 % 7.9 C
582 14-04-2016 00:25:00 8.5 C 96 % 7.9 C
583 14-04-2016 00:30:00 8.5 C 96 % 7.9 C
584 14-04-2016 00:35:00 8.5 C 96 % 7.9 C
585 14-04-2016 00:40:00 8.5 C 96 % 7.9 C
586 14-04-2016 00:45:00 8.5 C 96 % 7.9 C
587 14-04-2016 00:50:00 8.5 C 96 % 7.9 C
588 14-04-2016 00:55:00 8.5 C 96 % 7.9 C
589 14-04-2016 01:00:00 8.5 C 96 % 7.9 C
590 14-04-2016 01:05:00 8.5 C 96 % 7.9 C
591 14-04-2016 01:10:00 8.5 C 96 % 7.9 C
592 14-04-2016 01:15:00 8.5 C 96 % 7.9 C
593 14-04-2016 01:20:00 8.5 C 96 % 7.9 C
594 14-04-2016 01:25:00 8.4 C 96 % 7.8 C
595 14-04-2016 01:30:00 8.4 C 96 % 7.8 C
596 14-04-2016 01:35:00 8.4 C 96 % 7.8 C
597 14-04-2016 01:40:00 8.4 C 96 % 7.8 C
598 14-04-2016 01:45:00 8.3 C 96 % 7.7 C
599 14-04-2016 01:50:00 8.3 C 96 % 7.7 C
600 14-04-2016 01:55:00 8.3 C 96 % 7.7 C
Sensor: Nr:Datum:Temp:Feuchte:Taupunkt:
Aussen-T/F 601 14-04-2016 02:00:00 8.3 C 96 % 7.7 C
602 14-04-2016 02:05:00 8.3 C 96 % 7.7 C
603 14-04-2016 02:10:00 8.3 C 96 % 7.7 C
604 14-04-2016 02:15:00 8.2 C 96 % 7.6 C
605 14-04-2016 02:20:00 8.2 C 96 % 7.6 C
606 14-04-2016 02:25:00 8.1 C 96 % 7.5 C
607 14-04-2016 02:30:00 8 C 95 % 7.25 C
608 14-04-2016 02:35:00 7.8 C 95 % 7.05 C
609 14-04-2016 02:40:00 7.7 C 95 % 6.95 C
610 14-04-2016 02:45:00 7.5 C 95 % 6.75 C
611 14-04-2016 02:50:00 7.4 C 95 % 6.65 C
612 14-04-2016 02:55:00 7.3 C 95 % 6.55 C
613 14-04-2016 03:00:00 7.2 C 95 % 6.45 C
614 14-04-2016 03:05:00 7.2 C 95 % 6.45 C
615 14-04-2016 03:10:00 7.2 C 96 % 6.61 C
616 14-04-2016 03:15:00 7.1 C 96 % 6.51 C
617 14-04-2016 03:20:00 7.1 C 95 % 6.35 C
618 14-04-2016 03:25:00 6.9 C 95 % 6.16 C
619 14-04-2016 03:30:00 6.8 C 95 % 6.06 C
620 14-04-2016 03:35:00 6.7 C 95 % 5.96 C
621 14-04-2016 03:40:00 6.7 C 95 % 5.96 C
622 14-04-2016 03:45:00 6.6 C 95 % 5.86 C
623 14-04-2016 03:50:00 6.5 C 95 % 5.76 C
624 14-04-2016 03:55:00 6.4 C 96 % 5.81 C
625 14-04-2016 04:00:00 6.4 C 96 % 5.81 C
Sensor: Nr:Datum:Temp:Feuchte:Taupunkt:
Aussen-T/F 626 14-04-2016 04:05:00 6.3 C 95 % 5.56 C
627 14-04-2016 04:10:00 6.3 C 96 % 5.71 C
628 14-04-2016 04:15:00 6.2 C 96 % 5.61 C
629 14-04-2016 04:20:00 6.2 C 96 % 5.61 C
630 14-04-2016 04:25:00 6.2 C 96 % 5.61 C
631 14-04-2016 04:30:00 6.1 C 96 % 5.51 C
632 14-04-2016 04:35:00 6.1 C 96 % 5.51 C
633 14-04-2016 04:40:00 6 C 96 % 5.41 C
634 14-04-2016 04:45:00 6 C 96 % 5.41 C
635 14-04-2016 04:50:00 6 C 96 % 5.41 C
636 14-04-2016 04:55:00 5.9 C 96 % 5.31 C
637 14-04-2016 05:00:00 5.8 C 96 % 5.21 C
638 14-04-2016 05:05:00 5.7 C 96 % 5.11 C
639 14-04-2016 05:10:00 5.6 C 96 % 5.01 C
640 14-04-2016 05:15:00 5.5 C 96 % 4.91 C
641 14-04-2016 05:20:00 5.4 C 96 % 4.81 C
642 14-04-2016 05:25:00 5.3 C 96 % 4.72 C
643 14-04-2016 05:30:00 5.3 C 96 % 4.72 C
644 14-04-2016 05:35:00 5.3 C 96 % 4.72 C
645 14-04-2016 05:40:00 5.3 C 96 % 4.72 C
646 14-04-2016 05:45:00 5.2 C 96 % 4.62 C
647 14-04-2016 05:50:00 5.2 C 96 % 4.62 C
648 14-04-2016 05:55:00 5.2 C 96 % 4.62 C
649 14-04-2016 06:00:00 5.3 C 96 % 4.72 C
650 14-04-2016 06:05:00 5.3 C 96 % 4.72 C
Sensor: Nr:Datum:Temp:Feuchte:Taupunkt:
Aussen-T/F 651 14-04-2016 06:10:00 5.4 C 96 % 4.81 C
652 14-04-2016 06:15:00 5.5 C 97 % 5.06 C
653 14-04-2016 06:20:00 5.6 C 96 % 5.01 C
654 14-04-2016 06:25:00 5.6 C 96 % 5.01 C
655 14-04-2016 06:30:00 5.6 C 96 % 5.01 C
656 14-04-2016 06:35:00 5.6 C 96 % 5.01 C
657 14-04-2016 06:40:00 5.6 C 96 % 5.01 C
658 14-04-2016 06:45:00 5.6 C 96 % 5.01 C
659 14-04-2016 06:50:00 5.6 C 96 % 5.01 C
660 14-04-2016 06:55:00 5.6 C 96 % 5.01 C
661 14-04-2016 07:00:00 5.6 C 97 % 5.16 C
662 14-04-2016 07:05:00 5.6 C 97 % 5.16 C
663 14-04-2016 07:10:00 5.6 C 97 % 5.16 C
664 14-04-2016 07:15:00 5.6 C 97 % 5.16 C
665 14-04-2016 07:20:00 5.6 C 97 % 5.16 C
666 14-04-2016 07:25:00 5.5 C 97 % 5.06 C
667 14-04-2016 07:30:00 5.5 C 97 % 5.06 C
668 14-04-2016 07:35:00 5.5 C 97 % 5.06 C
669 14-04-2016 07:40:00 5.5 C 97 % 5.06 C
670 14-04-2016 07:45:00 5.6 C 97 % 5.16 C
671 14-04-2016 07:50:00 5.6 C 97 % 5.16 C
672 14-04-2016 07:55:00 5.6 C 97 % 5.16 C
673 14-04-2016 08:00:00 5.6 C 97 % 5.16 C
674 14-04-2016 08:05:00 5.6 C 97 % 5.16 C
675 14-04-2016 08:10:00 5.7 C 97 % 5.26 C
Sensor: Nr:Datum:Temp:Feuchte:Taupunkt:
Aussen-T/F 676 14-04-2016 08:15:00 5.7 C 97 % 5.26 C
677 14-04-2016 08:20:00 5.8 C 97 % 5.36 C
678 14-04-2016 08:25:00 5.8 C 97 % 5.36 C
679 14-04-2016 08:30:00 5.8 C 97 % 5.36 C
680 14-04-2016 08:35:00 5.8 C 97 % 5.36 C
681 14-04-2016 08:40:00 5.9 C 97 % 5.46 C
682 14-04-2016 08:45:00 5.9 C 97 % 5.46 C
683 14-04-2016 08:50:00 5.9 C 97 % 5.46 C
684 14-04-2016 08:55:00 6.1 C 97 % 5.66 C
685 14-04-2016 09:00:00 6.1 C 97 % 5.66 C
686 14-04-2016 09:05:00 6.1 C 97 % 5.66 C
687 14-04-2016 09:10:00 6.1 C 97 % 5.66 C
688 14-04-2016 09:15:00 6.1 C 97 % 5.66 C
689 14-04-2016 09:20:00 6.2 C 97 % 5.76 C
690 14-04-2016 09:25:00 6.2 C 97 % 5.76 C
691 14-04-2016 09:30:00 6.2 C 97 % 5.76 C
692 14-04-2016 09:35:00 6.2 C 97 % 5.76 C
693 14-04-2016 09:40:00 6.3 C 97 % 5.86 C
694 14-04-2016 09:45:00 6.3 C 97 % 5.86 C
695 14-04-2016 09:50:00 6.4 C 97 % 5.96 C
696 14-04-2016 09:55:00 6.6 C 97 % 6.16 C
697 14-04-2016 10:00:00 6.6 C 97 % 6.16 C
698 14-04-2016 10:05:00 6.7 C 97 % 6.26 C
699 14-04-2016 10:10:00 6.7 C 97 % 6.26 C
700 14-04-2016 10:15:00 6.8 C 97 % 6.36 C
Sensor: Nr:Datum:Temp:Feuchte:Taupunkt:
Aussen-T/F 701 14-04-2016 10:20:00 6.9 C 97 % 6.46 C
702 14-04-2016 10:25:00 7.1 C 97 % 6.66 C
703 14-04-2016 10:30:00 7.3 C 97 % 6.86 C
704 14-04-2016 10:35:00 7.4 C 97 % 6.96 C
705 14-04-2016 10:40:00 7.6 C 98 % 7.3 C
706 14-04-2016 10:45:00 7.7 C 98 % 7.4 C
707 14-04-2016 10:50:00 7.8 C 97 % 7.35 C
708 14-04-2016 10:55:00 7.8 C 98 % 7.5 C
709 14-04-2016 11:00:00 7.9 C 97 % 7.45 C
710 14-04-2016 11:05:00 8.1 C 97 % 7.65 C
711 14-04-2016 11:10:00 8.2 C 97 % 7.75 C
712 14-04-2016 11:15:00 8.2 C 97 % 7.75 C
713 14-04-2016 11:20:00 8.2 C 97 % 7.75 C
714 14-04-2016 11:25:00 8.3 C 97 % 7.85 C
715 14-04-2016 11:30:00 8.5 C 97 % 8.05 C
716 14-04-2016 11:35:00 8.7 C 97 % 8.25 C
717 14-04-2016 11:40:00 8.9 C 97 % 8.45 C
718 14-04-2016 11:45:00 9 C 97 % 8.55 C
719 14-04-2016 11:50:00 9.3 C 97 % 8.85 C
720 14-04-2016 11:55:00 9.5 C 96 % 8.89 C
721 14-04-2016 12:00:00 9.7 C 96 % 9.09 C
722 14-04-2016 12:05:00 9.9 C 95 % 9.14 C
723 14-04-2016 12:10:00 10.1 C 95 % 9.34 C
724 14-04-2016 12:15:00 10.4 C 93 % 9.32 C
725 14-04-2016 12:20:00 10.7 C 92 % 9.45 C
Sensor: Nr:Datum:Temp:Feuchte:Taupunkt:
Aussen-T/F 726 14-04-2016 12:25:00 10.9 C 91 % 9.49 C
727 14-04-2016 12:30:00 11.2 C 90 % 9.62 C
728 14-04-2016 12:35:00 11.5 C 89 % 9.75 C
729 14-04-2016 12:40:00 11.7 C 87 % 9.61 C
730 14-04-2016 12:45:00 11.9 C 86 % 9.64 C
731 14-04-2016 12:50:00 12.1 C 85 % 9.66 C
732 14-04-2016 12:55:00 12.3 C 83 % 9.5 C
733 14-04-2016 13:00:00 12.6 C 82 % 9.61 C
734 14-04-2016 13:05:00 12.8 C 78 % 9.06 C
735 14-04-2016 13:10:00 12.9 C 76 % 8.78 C
736 14-04-2016 13:15:00 13.1 C 74 % 8.58 C
737 14-04-2016 13:20:00 13.2 C 74 % 8.67 C
738 14-04-2016 13:25:00 13.3 C 75 % 8.97 C
739 14-04-2016 13:30:00 13.3 C 73 % 8.57 C
740 14-04-2016 13:35:00 13.5 C 74 % 8.96 C
741 14-04-2016 13:40:00 13.6 C 73 % 8.86 C
742 14-04-2016 13:45:00 13.7 C 72 % 8.75 C
743 14-04-2016 13:50:00 13.8 C 71 % 8.64 C
744 14-04-2016 13:55:00 13.9 C 70 % 8.53 C
745 14-04-2016 14:00:00 14 C 66 % 7.76 C
746 14-04-2016 14:05:00 14.1 C 67 % 8.07 C
747 14-04-2016 14:10:00 14.2 C 66 % 7.95 C
748 14-04-2016 14:15:00 14.4 C 63 % 7.45 C
749 14-04-2016 14:20:00 14.6 C 63 % 7.64 C
750 14-04-2016 14:25:00 14.8 C 60 % 7.12 C
Sensor: Nr:Datum:Temp:Feuchte:Taupunkt:
Aussen-T/F 751 14-04-2016 14:30:00 14.9 C 62 % 7.69 C
752 14-04-2016 14:35:00 14.9 C 56 % 6.21 C
753 14-04-2016 14:40:00 15.1 C 55 % 6.14 C
754 14-04-2016 14:45:00 15.4 C 53 % 5.88 C
755 14-04-2016 14:50:00 15.5 C 50 % 5.13 C
756 14-04-2016 14:55:00 15.5 C 52 % 5.7 C
757 14-04-2016 15:00:00 15.6 C 53 % 6.06 C
758 14-04-2016 15:05:00 15.7 C 52 % 5.88 C
759 14-04-2016 15:10:00 15.7 C 50 % 5.32 C
760 14-04-2016 15:15:00 15.8 C 49 % 5.12 C
761 14-04-2016 15:20:00 15.9 C 51 % 5.79 C
762 14-04-2016 15:25:00 15.9 C 47 % 4.61 C
763 14-04-2016 15:30:00 15.9 C 51 % 5.79 C
764 14-04-2016 15:35:00 15.9 C 50 % 5.5 C
765 14-04-2016 15:40:00 15.8 C 49 % 5.12 C
766 14-04-2016 15:45:00 15.9 C 52 % 6.07 C
767 14-04-2016 15:50:00 15.9 C 51 % 5.79 C
768 14-04-2016 15:55:00 16.2 C 52 % 6.34 C
769 14-04-2016 16:00:00 16.3 C 52 % 6.44 C
770 14-04-2016 16:05:00 16.3 C 52 % 6.44 C
771 14-04-2016 16:10:00 16.3 C 50 % 5.87 C
772 14-04-2016 16:15:00 16.2 C 53 % 6.62 C
773 14-04-2016 16:20:00 16.2 C 56 % 7.42 C
774 14-04-2016 16:25:00 16.4 C 49 % 5.67 C
775 14-04-2016 16:30:00 16.7 C 48 % 5.65 C
Sensor: Nr:Datum:Temp:Feuchte:Taupunkt:
Aussen-T/F 776 14-04-2016 16:35:00 16.6 C 49 % 5.85 C
777 14-04-2016 16:40:00 16.4 C 53 % 6.81 C
778 14-04-2016 16:45:00 16.4 C 49 % 5.67 C
779 14-04-2016 16:50:00 16.6 C 45 % 4.63 C
780 14-04-2016 16:55:00 16.9 C 45 % 4.9 C
781 14-04-2016 17:00:00 17.2 C 50 % 6.7 C
782 14-04-2016 17:05:00 17.1 C 48 % 6.01 C
783 14-04-2016 17:10:00 17 C 49 % 6.22 C
784 14-04-2016 17:15:00 17.1 C 47 % 5.71 C
785 14-04-2016 17:20:00 17.3 C 44 % 4.94 C
786 14-04-2016 17:25:00 17.5 C 44 % 5.13 C
787 14-04-2016 17:30:00 17.6 C 44 % 5.22 C
788 14-04-2016 17:35:00 17.6 C 44 % 5.22 C
789 14-04-2016 17:40:00 17.6 C 46 % 5.86 C
790 14-04-2016 17:45:00 17.7 C 44 % 5.31 C
791 14-04-2016 17:50:00 17.7 C 44 % 5.31 C
792 14-04-2016 17:55:00 17.8 C 44 % 5.4 C
793 14-04-2016 18:00:00 18.1 C 47 % 6.62 C
794 14-04-2016 18:05:00 18.3 C 44 % 5.85 C
795 14-04-2016 18:10:00 18.6 C 41 % 5.1 C
796 14-04-2016 18:15:00 18.6 C 41 % 5.1 C
797 14-04-2016 18:20:00 18.7 C 43 % 5.88 C
798 14-04-2016 18:25:00 18.7 C 42 % 5.54 C
799 14-04-2016 18:30:00 18.8 C 43 % 5.97 C
800 14-04-2016 18:35:00 18.8 C 42 % 5.63 C
Sensor: Nr:Datum:Temp:Feuchte:Taupunkt:
Aussen-T/F 801 14-04-2016 18:40:00 18.8 C 44 % 6.3 C
802 14-04-2016 18:45:00 18.8 C 45 % 6.63 C
803 14-04-2016 18:50:00 18.5 C 47 % 6.99 C
804 14-04-2016 18:55:00 18.4 C 48 % 7.2 C
805 14-04-2016 19:00:00 18.4 C 46 % 6.58 C
806 14-04-2016 19:05:00 18.4 C 46 % 6.58 C
807 14-04-2016 19:10:00 18.4 C 49 % 7.5 C
808 14-04-2016 19:15:00 18.2 C 48 % 7.02 C
809 14-04-2016 19:20:00 17.7 C 48 % 6.56 C
810 14-04-2016 19:25:00 17.2 C 50 % 6.7 C
811 14-04-2016 19:30:00 16.8 C 51 % 6.62 C
812 14-04-2016 19:35:00 16.6 C 55 % 7.53 C
813 14-04-2016 19:40:00 16.4 C 58 % 8.12 C
814 14-04-2016 19:45:00 16.2 C 61 % 8.68 C
815 14-04-2016 19:50:00 15.8 C 57 % 7.31 C
816 14-04-2016 19:55:00 15.6 C 59 % 7.62 C
817 14-04-2016 20:00:00 15.3 C 61 % 7.83 C
818 14-04-2016 20:05:00 15.1 C 64 % 8.35 C
819 14-04-2016 20:10:00 14.7 C 63 % 7.74 C
820 14-04-2016 20:15:00 14.4 C 67 % 8.36 C
821 14-04-2016 20:20:00 14.1 C 68 % 8.29 C
822 14-04-2016 20:25:00 13.8 C 70 % 8.43 C
823 14-04-2016 20:30:00 13.5 C 71 % 8.35 C
824 14-04-2016 20:35:00 13.3 C 72 % 8.36 C
825 14-04-2016 20:40:00 13.1 C 74 % 8.58 C
Sensor: Nr:Datum:Temp:Feuchte:Taupunkt:
Aussen-T/F 826 14-04-2016 20:45:00 12.9 C 75 % 8.58 C
827 14-04-2016 20:50:00 12.7 C 75 % 8.39 C
828 14-04-2016 20:55:00 12.6 C 76 % 8.49 C
829 14-04-2016 21:00:00 12.5 C 76 % 8.39 C
830 14-04-2016 21:05:00 12.4 C 76 % 8.29 C
831 14-04-2016 21:10:00 12.3 C 77 % 8.39 C
832 14-04-2016 21:15:00 12.2 C 77 % 8.29 C
833 14-04-2016 21:20:00 11.9 C 76 % 7.81 C
834 14-04-2016 21:25:00 11.8 C 78 % 8.09 C
835 14-04-2016 21:30:00 11.7 C 79 % 8.18 C
836 14-04-2016 21:35:00 11.6 C 79 % 8.09 C
837 14-04-2016 21:40:00 11.4 C 80 % 8.08 C
838 14-04-2016 21:45:00 11.3 C 79 % 7.8 C
839 14-04-2016 21:50:00 11.3 C 80 % 7.98 C
840 14-04-2016 21:55:00 11.3 C 80 % 7.98 C
841 14-04-2016 22:00:00 11.3 C 80 % 7.98 C
842 14-04-2016 22:05:00 11.3 C 80 % 7.98 C
843 14-04-2016 22:10:00 11.3 C 80 % 7.98 C
844 14-04-2016 22:15:00 11.2 C 81 % 8.06 C
845 14-04-2016 22:20:00 11.2 C 81 % 8.06 C
846 14-04-2016 22:25:00 11.1 C 82 % 8.15 C
847 14-04-2016 22:30:00 11.1 C 82 % 8.15 C
848 14-04-2016 22:35:00 11 C 82 % 8.05 C
849 14-04-2016 22:40:00 11 C 82 % 8.05 C
850 14-04-2016 22:45:00 10.9 C 82 % 7.95 C
Sensor: Nr:Datum:Temp:Feuchte:Taupunkt:
Aussen-T/F 851 14-04-2016 22:50:00 10.9 C 82 % 7.95 C
852 14-04-2016 22:55:00 10.9 C 83 % 8.13 C
853 14-04-2016 23:00:00 10.8 C 83 % 8.03 C
854 14-04-2016 23:05:00 10.8 C 83 % 8.03 C
855 14-04-2016 23:10:00 10.8 C 83 % 8.03 C
856 14-04-2016 23:15:00 10.9 C 83 % 8.13 C
857 14-04-2016 23:20:00 10.9 C 83 % 8.13 C
858 14-04-2016 23:25:00 10.9 C 84 % 8.31 C
859 14-04-2016 23:30:00 10.9 C 84 % 8.31 C
860 14-04-2016 23:35:00 10.9 C 84 % 8.31 C
861 14-04-2016 23:40:00 10.9 C 84 % 8.31 C
862 14-04-2016 23:45:00 10.9 C 84 % 8.31 C
863 14-04-2016 23:50:00 10.9 C 84 % 8.31 C
864 14-04-2016 23:55:00 10.9 C 84 % 8.31 C
865 15-04-2016 00:00:00 10.9 C 84 % 8.31 C
866 15-04-2016 00:05:00 10.9 C 84 % 8.31 C
867 15-04-2016 00:10:00 10.8 C 85 % 8.38 C
868 15-04-2016 00:15:00 10.8 C 85 % 8.38 C
869 15-04-2016 00:20:00 10.8 C 85 % 8.38 C
870 15-04-2016 00:25:00 10.8 C 86 % 8.56 C
871 15-04-2016 00:30:00 10.7 C 86 % 8.46 C
872 15-04-2016 00:35:00 10.7 C 85 % 8.28 C
873 15-04-2016 00:40:00 10.7 C 86 % 8.46 C
874 15-04-2016 00:45:00 10.6 C 86 % 8.36 C
875 15-04-2016 00:50:00 10.4 C 86 % 8.16 C
Sensor: Nr:Datum:Temp:Feuchte:Taupunkt:
Aussen-T/F 876 15-04-2016 00:55:00 10.3 C 87 % 8.23 C
877 15-04-2016 01:00:00 10.3 C 87 % 8.23 C
878 15-04-2016 01:05:00 10.2 C 87 % 8.14 C
879 15-04-2016 01:10:00 10.2 C 88 % 8.3 C
880 15-04-2016 01:15:00 10.1 C 88 % 8.21 C
881 15-04-2016 01:20:00 10 C 88 % 8.11 C
882 15-04-2016 01:25:00 9.9 C 88 % 8.01 C
883 15-04-2016 01:30:00 9.9 C 88 % 8.01 C
884 15-04-2016 01:35:00 9.9 C 88 % 8.01 C
885 15-04-2016 01:40:00 9.9 C 88 % 8.01 C
886 15-04-2016 01:45:00 9.9 C 88 % 8.01 C
887 15-04-2016 01:50:00 9.9 C 88 % 8.01 C
888 15-04-2016 01:55:00 10 C 88 % 8.11 C
889 15-04-2016 02:00:00 10.1 C 88 % 8.21 C
890 15-04-2016 02:05:00 10.1 C 88 % 8.21 C
891 15-04-2016 02:10:00 10.2 C 88 % 8.3 C
892 15-04-2016 02:15:00 10.2 C 88 % 8.3 C
893 15-04-2016 02:20:00 10.2 C 88 % 8.3 C
894 15-04-2016 02:25:00 10.2 C 88 % 8.3 C
895 15-04-2016 02:30:00 10.2 C 89 % 8.47 C
896 15-04-2016 02:35:00 10.2 C 89 % 8.47 C
897 15-04-2016 02:40:00 10.2 C 89 % 8.47 C
898 15-04-2016 02:45:00 10.2 C 89 % 8.47 C
899 15-04-2016 02:50:00 10.1 C 89 % 8.37 C
900 15-04-2016 02:55:00 10.1 C 89 % 8.37 C
Sensor: Nr:Datum:Temp:Feuchte:Taupunkt:
Aussen-T/F 901 15-04-2016 03:00:00 10 C 89 % 8.27 C
902 15-04-2016 03:05:00 10 C 89 % 8.27 C
903 15-04-2016 03:10:00 9.9 C 89 % 8.17 C
904 15-04-2016 03:15:00 9.9 C 89 % 8.17 C
905 15-04-2016 03:20:00 9.9 C 89 % 8.17 C
906 15-04-2016 03:25:00 9.9 C 89 % 8.17 C
907 15-04-2016 03:30:00 10.1 C 89 % 8.37 C
908 15-04-2016 03:35:00 10.1 C 89 % 8.37 C
909 15-04-2016 03:40:00 10.1 C 89 % 8.37 C
910 15-04-2016 03:45:00 10.2 C 89 % 8.47 C
911 15-04-2016 03:50:00 10.2 C 90 % 8.64 C
912 15-04-2016 03:55:00 10.2 C 91 % 8.8 C
913 15-04-2016 04:00:00 10.1 C 92 % 8.86 C
914 15-04-2016 04:05:00 10 C 92 % 8.76 C
915 15-04-2016 04:10:00 9.9 C 93 % 8.82 C
916 15-04-2016 04:15:00 9.9 C 93 % 8.82 C
917 15-04-2016 04:20:00 9.8 C 93 % 8.72 C
918 15-04-2016 04:25:00 9.8 C 93 % 8.72 C
919 15-04-2016 04:30:00 9.7 C 93 % 8.62 C
920 15-04-2016 04:35:00 9.7 C 94 % 8.78 C
921 15-04-2016 04:40:00 9.6 C 94 % 8.68 C
922 15-04-2016 04:45:00 9.6 C 94 % 8.68 C
923 15-04-2016 04:50:00 9.6 C 94 % 8.68 C
924 15-04-2016 04:55:00 9.6 C 94 % 8.68 C
925 15-04-2016 05:00:00 9.5 C 94 % 8.58 C
Sensor: Nr:Datum:Temp:Feuchte:Taupunkt:
Aussen-T/F 926 15-04-2016 05:05:00 9.5 C 94 % 8.58 C
927 15-04-2016 05:10:00 9.4 C 94 % 8.48 C
928 15-04-2016 05:15:00 9.4 C 94 % 8.48 C
929 15-04-2016 05:20:00 9.4 C 94 % 8.48 C
930 15-04-2016 05:25:00 9.3 C 94 % 8.39 C
931 15-04-2016 05:30:00 9.3 C 94 % 8.39 C
932 15-04-2016 05:35:00 9.2 C 94 % 8.29 C
933 15-04-2016 05:40:00 9.2 C 94 % 8.29 C
934 15-04-2016 05:45:00 9.2 C 95 % 8.44 C
935 15-04-2016 05:50:00 9.1 C 95 % 8.34 C
936 15-04-2016 05:55:00 9.1 C 95 % 8.34 C
937 15-04-2016 06:00:00 9.1 C 95 % 8.34 C
938 15-04-2016 06:05:00 9 C 95 % 8.24 C
939 15-04-2016 06:10:00 9 C 95 % 8.24 C
940 15-04-2016 06:15:00 8.9 C 95 % 8.14 C
941 15-04-2016 06:20:00 8.9 C 95 % 8.14 C
942 15-04-2016 06:25:00 8.9 C 95 % 8.14 C
943 15-04-2016 06:30:00 8.9 C 95 % 8.14 C
944 15-04-2016 06:35:00 8.9 C 95 % 8.14 C
945 15-04-2016 06:40:00 8.9 C 95 % 8.14 C
946 15-04-2016 06:45:00 9 C 95 % 8.24 C
947 15-04-2016 06:50:00 9 C 95 % 8.24 C
948 15-04-2016 06:55:00 9.1 C 95 % 8.34 C
949 15-04-2016 07:00:00 9.1 C 95 % 8.34 C
950 15-04-2016 07:05:00 9.1 C 95 % 8.34 C
Sensor: Nr:Datum:Temp:Feuchte:Taupunkt:
Aussen-T/F 951 15-04-2016 07:10:00 9.1 C 96 % 8.5 C
952 15-04-2016 07:15:00 9.1 C 96 % 8.5 C
953 15-04-2016 07:20:00 9.2 C 96 % 8.6 C
954 15-04-2016 07:25:00 9.2 C 96 % 8.6 C
955 15-04-2016 07:30:00 9.2 C 96 % 8.6 C
956 15-04-2016 07:35:00 9.3 C 96 % 8.7 C
957 15-04-2016 07:40:00 9.4 C 96 % 8.8 C
958 15-04-2016 07:45:00 9.6 C 96 % 8.99 C
959 15-04-2016 07:50:00 9.7 C 96 % 9.09 C
960 15-04-2016 07:55:00 9.8 C 96 % 9.19 C
961 15-04-2016 08:00:00 9.9 C 95 % 9.14 C
962 15-04-2016 08:05:00 10 C 95 % 9.24 C
963 15-04-2016 08:10:00 10.1 C 95 % 9.34 C
964 15-04-2016 08:15:00 10.2 C 95 % 9.44 C
965 15-04-2016 08:20:00 10.2 C 94 % 9.28 C
966 15-04-2016 08:25:00 10.3 C 94 % 9.38 C
967 15-04-2016 08:30:00 10.3 C 93 % 9.22 C
968 15-04-2016 08:35:00 10.4 C 93 % 9.32 C
969 15-04-2016 08:40:00 10.6 C 93 % 9.52 C
970 15-04-2016 08:45:00 10.7 C 92 % 9.45 C
971 15-04-2016 08:50:00 10.9 C 91 % 9.49 C
972 15-04-2016 08:55:00 11.1 C 90 % 9.52 C
973 15-04-2016 09:00:00 11.3 C 90 % 9.72 C
974 15-04-2016 09:05:00 11.4 C 88 % 9.49 C
975 15-04-2016 09:10:00 11.7 C 88 % 9.78 C
Sensor: Nr:Datum:Temp:Feuchte:Taupunkt:
Aussen-T/F 976 15-04-2016 09:15:00 11.8 C 87 % 9.71 C
977 15-04-2016 09:20:00 11.9 C 86 % 9.64 C
978 15-04-2016 09:25:00 12.1 C 86 % 9.83 C
979 15-04-2016 09:30:00 12.3 C 86 % 10.03 C
980 15-04-2016 09:35:00 12.4 C 85 % 9.95 C
981 15-04-2016 09:40:00 12.4 C 84 % 9.78 C
982 15-04-2016 09:45:00 12.5 C 84 % 9.87 C
983 15-04-2016 09:50:00 12.5 C 83 % 9.69 C
984 15-04-2016 09:55:00 12.6 C 84 % 9.97 C
985 15-04-2016 10:00:00 12.6 C 83 % 9.79 C
986 15-04-2016 10:05:00 12.7 C 83 % 9.89 C
987 15-04-2016 10:10:00 12.7 C 82 % 9.71 C
988 15-04-2016 10:15:00 12.8 C 83 % 9.99 C
989 15-04-2016 10:20:00 13 C 82 % 10 C
990 15-04-2016 10:25:00 13.2 C 80 % 9.83 C
991 15-04-2016 10:30:00 13.3 C 80 % 9.93 C
992 15-04-2016 10:35:00 13.4 C 78 % 9.65 C
993 15-04-2016 10:40:00 13.4 C 78 % 9.65 C
994 15-04-2016 10:45:00 13.5 C 77 % 9.55 C
995 15-04-2016 10:50:00 13.4 C 77 % 9.45 C
996 15-04-2016 10:55:00 13.5 C 79 % 9.93 C
997 15-04-2016 11:00:00 13.5 C 78 % 9.74 C
998 15-04-2016 11:05:00 13.4 C 78 % 9.65 C
999 15-04-2016 11:10:00 13.6 C 79 % 10.03 C
1000 15-04-2016 11:15:00 13.8 C 77 % 9.84 C
Sensor: Nr:Datum:Temp:Feuchte:Taupunkt:
Aussen-T/F 1001 15-04-2016 11:20:00 14.1 C 75 % 9.74 C
1002 15-04-2016 11:25:00 14.1 C 75 % 9.74 C
1003 15-04-2016 11:30:00 14.2 C 73 % 9.43 C
1004 15-04-2016 11:35:00 14.1 C 73 % 9.34 C
1005 15-04-2016 11:40:00 14.1 C 73 % 9.34 C
1006 15-04-2016 11:45:00 14.1 C 73 % 9.34 C
1007 15-04-2016 11:50:00 14.2 C 72 % 9.23 C
1008 15-04-2016 11:55:00 14.3 C 71 % 9.12 C
1009 15-04-2016 12:00:00 14.2 C 70 % 8.81 C
1010 15-04-2016 12:05:00 14.2 C 69 % 8.6 C
1011 15-04-2016 12:10:00 14.3 C 69 % 8.7 C
1012 15-04-2016 12:15:00 14.4 C 67 % 8.36 C
1013 15-04-2016 12:20:00 14.6 C 66 % 8.33 C
1014 15-04-2016 12:25:00 14.7 C 67 % 8.64 C
1015 15-04-2016 12:30:00 14.7 C 66 % 8.42 C
1016 15-04-2016 12:35:00 14.7 C 65 % 8.2 C
1017 15-04-2016 12:40:00 14.8 C 66 % 8.52 C
1018 15-04-2016 12:45:00 14.8 C 64 % 8.06 C
1019 15-04-2016 12:50:00 14.8 C 65 % 8.29 C
1020 15-04-2016 12:55:00 14.9 C 64 % 8.16 C
1021 15-04-2016 13:00:00 15 C 65 % 8.48 C
1022 15-04-2016 13:05:00 15 C 63 % 8.02 C
1023 15-04-2016 13:10:00 15.1 C 63 % 8.12 C
1024 15-04-2016 13:15:00 15.1 C 63 % 8.12 C
1025 15-04-2016 13:20:00 15.1 C 64 % 8.35 C
Sensor: Nr:Datum:Temp:Feuchte:Taupunkt:
Aussen-T/F 1026 15-04-2016 13:25:00 15.2 C 64 % 8.44 C
1027 15-04-2016 13:30:00 15.1 C 64 % 8.35 C
1028 15-04-2016 13:35:00 15.1 C 64 % 8.35 C
1029 15-04-2016 13:40:00 15.3 C 65 % 8.77 C
1030 15-04-2016 13:45:00 15.6 C 64 % 8.82 C
1031 15-04-2016 13:50:00 15.7 C 63 % 8.68 C
1032 15-04-2016 13:55:00 15.9 C 62 % 8.64 C
1033 15-04-2016 14:00:00 16.1 C 60 % 8.34 C
1034 15-04-2016 14:05:00 16.2 C 61 % 8.68 C
1035 15-04-2016 14:10:00 16.3 C 60 % 8.53 C
1036 15-04-2016 14:15:00 16.4 C 59 % 8.38 C
1037 15-04-2016 14:20:00 16.4 C 58 % 8.12 C
1038 15-04-2016 14:25:00 16.2 C 57 % 7.68 C
1039 15-04-2016 14:30:00 15.9 C 59 % 7.91 C
1040 15-04-2016 14:35:00 15.8 C 58 % 7.56 C
1041 15-04-2016 14:40:00 15.8 C 58 % 7.56 C
1042 15-04-2016 14:45:00 15.9 C 56 % 7.14 C
1043 15-04-2016 14:50:00 16.3 C 53 % 6.71 C
1044 15-04-2016 14:55:00 16.4 C 54 % 7.08 C
1045 15-04-2016 15:00:00 16.5 C 53 % 6.9 C
1046 15-04-2016 15:05:00 16.5 C 54 % 7.17 C
1047 15-04-2016 15:10:00 16.6 C 53 % 6.99 C
1048 15-04-2016 15:15:00 16.7 C 52 % 6.81 C
1049 15-04-2016 15:20:00 16.7 C 51 % 6.52 C
1050 15-04-2016 15:25:00 16.8 C 52 % 6.9 C
Sensor: Nr:Datum:Temp:Feuchte:Taupunkt:
Aussen-T/F 1051 15-04-2016 15:30:00 17.1 C 51 % 6.89 C
1052 15-04-2016 15:35:00 17.2 C 53 % 7.55 C
1053 15-04-2016 15:40:00 17.3 C 49 % 6.5 C
1054 15-04-2016 15:45:00 17.2 C 48 % 6.11 C
1055 15-04-2016 15:50:00 17.3 C 50 % 6.79 C
1056 15-04-2016 15:55:00 17.3 C 49 % 6.5 C
1057 15-04-2016 16:00:00 17.4 C 50 % 6.88 C
1058 15-04-2016 16:05:00 17.3 C 50 % 6.79 C
1059 15-04-2016 16:10:00 17.4 C 50 % 6.88 C
1060 15-04-2016 16:15:00 17.6 C 50 % 7.06 C
1061 15-04-2016 16:20:00 17.7 C 51 % 7.45 C
1062 15-04-2016 16:25:00 17.8 C 52 % 7.82 C
1063 15-04-2016 16:30:00 18.3 C 51 % 8 C
1064 15-04-2016 16:35:00 18.6 C 48 % 7.39 C
1065 15-04-2016 16:40:00 18.4 C 48 % 7.2 C
1066 15-04-2016 16:45:00 18.4 C 49 % 7.5 C
1067 15-04-2016 16:50:00 18.6 C 49 % 7.69 C
1068 15-04-2016 16:55:00 18.9 C 47 % 7.35 C
1069 15-04-2016 17:00:00 19 C 46 % 7.13 C
1070 15-04-2016 17:05:00 18.8 C 44 % 6.3 C
1071 15-04-2016 17:10:00 18.7 C 46 % 6.86 C
1072 15-04-2016 17:15:00 18.7 C 44 % 6.21 C
1073 15-04-2016 17:20:00 18.6 C 46 % 6.77 C
1074 15-04-2016 17:25:00 18.5 C 46 % 6.67 C
1075 15-04-2016 17:30:00 18.4 C 45 % 6.26 C
Sensor: Nr:Datum:Temp:Feuchte:Taupunkt:
Aussen-T/F 1076 15-04-2016 17:35:00 18.4 C 45 % 6.26 C
1077 15-04-2016 17:40:00 18.7 C 44 % 6.21 C
1078 15-04-2016 17:45:00 18.8 C 44 % 6.3 C
1079 15-04-2016 17:50:00 18.7 C 46 % 6.86 C
1080 15-04-2016 17:55:00 18.8 C 45 % 6.63 C
1081 15-04-2016 18:00:00 18.8 C 45 % 6.63 C
1082 15-04-2016 18:05:00 18.7 C 46 % 6.86 C
1083 15-04-2016 18:10:00 18.4 C 47 % 6.9 C
1084 15-04-2016 18:15:00 18.4 C 46 % 6.58 C
1085 15-04-2016 18:20:00 18.3 C 47 % 6.8 C
1086 15-04-2016 18:25:00 18.3 C 47 % 6.8 C
1087 15-04-2016 18:30:00 18.3 C 46 % 6.49 C
1088 15-04-2016 18:35:00 17.9 C 47 % 6.44 C
1089 15-04-2016 18:40:00 17.4 C 46 % 5.67 C
1090 15-04-2016 18:45:00 17.2 C 48 % 6.11 C
1091 15-04-2016 18:50:00 17.2 C 49 % 6.4 C
1092 15-04-2016 18:55:00 17.2 C 49 % 6.4 C
1093 15-04-2016 19:00:00 17.2 C 50 % 6.7 C
1094 15-04-2016 19:05:00 17.5 C 50 % 6.97 C
1095 15-04-2016 19:10:00 17.6 C 49 % 6.77 C
1096 15-04-2016 19:15:00 17.7 C 49 % 6.86 C
1097 15-04-2016 19:20:00 17.6 C 49 % 6.77 C
1098 15-04-2016 19:25:00 17.4 C 50 % 6.88 C
1099 15-04-2016 19:30:00 17.2 C 50 % 6.7 C
1100 15-04-2016 19:35:00 16.9 C 51 % 6.71 C
Sensor: Nr:Datum:Temp:Feuchte:Taupunkt:
Aussen-T/F 1101 15-04-2016 19:40:00 16.8 C 52 % 6.9 C
1102 15-04-2016 19:45:00 16.7 C 51 % 6.52 C
1103 15-04-2016 19:50:00 16.4 C 52 % 6.53 C
1104 15-04-2016 19:55:00 16.3 C 52 % 6.44 C
1105 15-04-2016 20:00:00 16.1 C 55 % 7.07 C
1106 15-04-2016 20:05:00 15.9 C 56 % 7.14 C
1107 15-04-2016 20:10:00 15.6 C 56 % 6.86 C
1108 15-04-2016 20:15:00 15.2 C 57 % 6.75 C
1109 15-04-2016 20:20:00 14.9 C 60 % 7.21 C
1110 15-04-2016 20:25:00 14.7 C 60 % 7.03 C
1111 15-04-2016 20:30:00 14.4 C 59 % 6.5 C
1112 15-04-2016 20:35:00 14.3 C 62 % 7.13 C
1113 15-04-2016 20:40:00 14 C 61 % 6.61 C
1114 15-04-2016 20:45:00 13.8 C 61 % 6.42 C
1115 15-04-2016 20:50:00 13.6 C 62 % 6.47 C
1116 15-04-2016 20:55:00 13.4 C 63 % 6.51 C
1117 15-04-2016 21:00:00 13.4 C 64 % 6.74 C
1118 15-04-2016 21:05:00 13.3 C 66 % 7.09 C
1119 15-04-2016 21:10:00 13.1 C 66 % 6.9 C
1120 15-04-2016 21:15:00 12.9 C 66 % 6.71 C
1121 15-04-2016 21:20:00 12.8 C 67 % 6.83 C
1122 15-04-2016 21:25:00 12.8 C 68 % 7.05 C
1123 15-04-2016 21:30:00 12.7 C 68 % 6.95 C
1124 15-04-2016 21:35:00 12.6 C 68 % 6.86 C
1125 15-04-2016 21:40:00 12.5 C 68 % 6.76 C
Sensor: Nr:Datum:Temp:Feuchte:Taupunkt:
Aussen-T/F 1126 15-04-2016 21:45:00 12.4 C 69 % 6.88 C
1127 15-04-2016 21:50:00 12.3 C 71 % 7.2 C
1128 15-04-2016 21:55:00 12.2 C 72 % 7.31 C
1129 15-04-2016 22:00:00 11.9 C 73 % 7.22 C
1130 15-04-2016 22:05:00 11.8 C 74 % 7.32 C
1131 15-04-2016 22:10:00 11.6 C 75 % 7.33 C
1132 15-04-2016 22:15:00 11.5 C 75 % 7.23 C
1133 15-04-2016 22:20:00 11.5 C 77 % 7.61 C
1134 15-04-2016 22:25:00 11.5 C 77 % 7.61 C
1135 15-04-2016 22:30:00 11.6 C 78 % 7.9 C
1136 15-04-2016 22:35:00 11.6 C 78 % 7.9 C
1137 15-04-2016 22:40:00 11.6 C 78 % 7.9 C
1138 15-04-2016 22:45:00 11.6 C 78 % 7.9 C
1139 15-04-2016 22:50:00 11.6 C 77 % 7.71 C
1140 15-04-2016 22:55:00 11.7 C 74 % 7.23 C
1141 15-04-2016 23:00:00 11.8 C 77 % 7.9 C
1142 15-04-2016 23:05:00 11.8 C 78 % 8.09 C
1143 15-04-2016 23:10:00 11.8 C 80 % 8.47 C
1144 15-04-2016 23:15:00 11.7 C 83 % 8.91 C
1145 15-04-2016 23:20:00 11.6 C 84 % 8.99 C
1146 15-04-2016 23:25:00 11.3 C 81 % 8.16 C
1147 15-04-2016 23:30:00 11.3 C 82 % 8.34 C
1148 15-04-2016 23:35:00 11.3 C 82 % 8.34 C
1149 15-04-2016 23:40:00 11.3 C 84 % 8.7 C
1150 15-04-2016 23:45:00 11.3 C 83 % 8.52 C
Sensor: Nr:Datum:Temp:Feuchte:Taupunkt:
Aussen-T/F 1151 15-04-2016 23:50:00 11.3 C 82 % 8.34 C
1152 15-04-2016 23:55:00 11.3 C 84 % 8.7 C
1153 16-04-2016 00:00:00 11.2 C 83 % 8.42 C
1154 16-04-2016 00:05:00 11.1 C 83 % 8.33 C
1155 16-04-2016 00:10:00 11 C 83 % 8.23 C
1156 16-04-2016 00:15:00 10.9 C 84 % 8.31 C
1157 16-04-2016 00:20:00 10.8 C 85 % 8.38 C
1158 16-04-2016 00:25:00 10.8 C 85 % 8.38 C
1159 16-04-2016 00:30:00 10.8 C 86 % 8.56 C
1160 16-04-2016 00:35:00 10.7 C 85 % 8.28 C
1161 16-04-2016 00:40:00 10.6 C 85 % 8.19 C
1162 16-04-2016 00:45:00 10.5 C 85 % 8.09 C
1163 16-04-2016 00:50:00 10.4 C 86 % 8.16 C
1164 16-04-2016 00:55:00 10.4 C 86 % 8.16 C
1165 16-04-2016 01:00:00 10.4 C 87 % 8.33 C
1166 16-04-2016 01:05:00 10.4 C 87 % 8.33 C
1167 16-04-2016 01:10:00 10.4 C 88 % 8.5 C
1168 16-04-2016 01:15:00 10.5 C 88 % 8.6 C
1169 16-04-2016 01:20:00 10.7 C 88 % 8.8 C
1170 16-04-2016 01:25:00 10.8 C 88 % 8.89 C
1171 16-04-2016 01:30:00 10.9 C 86 % 8.65 C
1172 16-04-2016 01:35:00 11.2 C 86 % 8.95 C
1173 16-04-2016 01:40:00 11.3 C 86 % 9.05 C
1174 16-04-2016 01:45:00 11.3 C 86 % 9.05 C
1175 16-04-2016 01:50:00 11.2 C 86 % 8.95 C
Sensor: Nr:Datum:Temp:Feuchte:Taupunkt:
Aussen-T/F 1176 16-04-2016 01:55:00 11.2 C 85 % 8.77 C
1177 16-04-2016 02:00:00 11.2 C 86 % 8.95 C
1178 16-04-2016 02:05:00 11.2 C 86 % 8.95 C
1179 16-04-2016 02:10:00 11.1 C 87 % 9.02 C
1180 16-04-2016 02:15:00 10.9 C 87 % 8.82 C
1181 16-04-2016 02:20:00 10.9 C 87 % 8.82 C
1182 16-04-2016 02:25:00 10.8 C 87 % 8.73 C
1183 16-04-2016 02:30:00 10.7 C 87 % 8.63 C
1184 16-04-2016 02:35:00 10.6 C 88 % 8.7 C
1185 16-04-2016 02:40:00 10.6 C 88 % 8.7 C
1186 16-04-2016 02:45:00 10.5 C 88 % 8.6 C
1187 16-04-2016 02:50:00 10.4 C 88 % 8.5 C
1188 16-04-2016 02:55:00 10.4 C 89 % 8.67 C
1189 16-04-2016 03:00:00 10.4 C 89 % 8.67 C
1190 16-04-2016 03:05:00 10.4 C 89 % 8.67 C
1191 16-04-2016 03:10:00 10.4 C 89 % 8.67 C
1192 16-04-2016 03:15:00 10.5 C 89 % 8.77 C
1193 16-04-2016 03:20:00 10.6 C 89 % 8.86 C
1194 16-04-2016 03:25:00 10.6 C 89 % 8.86 C
1195 16-04-2016 03:30:00 10.6 C 89 % 8.86 C
1196 16-04-2016 03:35:00 10.6 C 89 % 8.86 C
1197 16-04-2016 03:40:00 10.7 C 89 % 8.96 C
1198 16-04-2016 03:45:00 10.7 C 89 % 8.96 C
1199 16-04-2016 03:50:00 10.7 C 88 % 8.8 C
1200 16-04-2016 03:55:00 10.7 C 88 % 8.8 C
Sensor: Nr:Datum:Temp:Feuchte:Taupunkt:
Aussen-T/F 1201 16-04-2016 04:00:00 10.8 C 87 % 8.73 C
1202 16-04-2016 04:05:00 10.9 C 87 % 8.82 C
1203 16-04-2016 04:10:00 10.9 C 86 % 8.65 C
1204 16-04-2016 04:15:00 11.1 C 86 % 8.85 C
1205 16-04-2016 04:20:00 11.1 C 85 % 8.68 C
1206 16-04-2016 04:25:00 11.2 C 85 % 8.77 C
1207 16-04-2016 04:30:00 11.2 C 84 % 8.6 C
1208 16-04-2016 04:35:00 11.2 C 85 % 8.77 C
1209 16-04-2016 04:40:00 11.3 C 83 % 8.52 C
1210 16-04-2016 04:45:00 11.3 C 84 % 8.7 C
1211 16-04-2016 04:50:00 11.3 C 84 % 8.7 C
1212 16-04-2016 04:55:00 11.3 C 84 % 8.7 C
1213 16-04-2016 05:00:00 11.2 C 84 % 8.6 C
1214 16-04-2016 05:05:00 11.2 C 84 % 8.6 C
1215 16-04-2016 05:10:00 11.2 C 85 % 8.77 C
1216 16-04-2016 05:15:00 11.2 C 85 % 8.77 C
1217 16-04-2016 05:20:00 11.2 C 85 % 8.77 C
1218 16-04-2016 05:25:00 11.1 C 86 % 8.85 C
1219 16-04-2016 05:30:00 11.1 C 86 % 8.85 C
1220 16-04-2016 05:35:00 11 C 86 % 8.75 C
1221 16-04-2016 05:40:00 11 C 86 % 8.75 C
1222 16-04-2016 05:45:00 11 C 87 % 8.92 C
1223 16-04-2016 05:50:00 10.9 C 87 % 8.82 C
1224 16-04-2016 05:55:00 10.9 C 86 % 8.65 C
1225 16-04-2016 06:00:00 10.9 C 86 % 8.65 C
Sensor: Nr:Datum:Temp:Feuchte:Taupunkt:
Aussen-T/F 1226 16-04-2016 06:05:00 10.9 C 87 % 8.82 C
1227 16-04-2016 06:10:00 10.9 C 86 % 8.65 C
1228 16-04-2016 06:15:00 11 C 87 % 8.92 C
1229 16-04-2016 06:20:00 11 C 87 % 8.92 C
1230 16-04-2016 06:25:00 11 C 87 % 8.92 C
1231 16-04-2016 06:30:00 11 C 88 % 9.09 C
1232 16-04-2016 06:35:00 10.9 C 88 % 8.99 C
1233 16-04-2016 06:40:00 11 C 87 % 8.92 C
1234 16-04-2016 06:45:00 11 C 87 % 8.92 C
1235 16-04-2016 06:50:00 11.1 C 86 % 8.85 C
1236 16-04-2016 06:55:00 11.2 C 85 % 8.77 C
1237 16-04-2016 07:00:00 11.3 C 85 % 8.87 C
1238 16-04-2016 07:05:00 11.3 C 85 % 8.87 C
1239 16-04-2016 07:10:00 11.3 C 85 % 8.87 C
1240 16-04-2016 07:15:00 11.3 C 85 % 8.87 C
1241 16-04-2016 07:20:00 11.3 C 86 % 9.05 C
1242 16-04-2016 07:25:00 11.2 C 86 % 8.95 C
1243 16-04-2016 07:30:00 11.2 C 86 % 8.95 C
1244 16-04-2016 07:35:00 11.2 C 86 % 8.95 C
1245 16-04-2016 07:40:00 11.2 C 86 % 8.95 C
1246 16-04-2016 07:45:00 11.2 C 85 % 8.77 C
1247 16-04-2016 07:50:00 11.3 C 84 % 8.7 C
1248 16-04-2016 07:55:00 11.3 C 84 % 8.7 C
1249 16-04-2016 08:00:00 11.3 C 84 % 8.7 C
1250 16-04-2016 08:05:00 11.4 C 84 % 8.8 C
Sensor: Nr:Datum:Temp:Feuchte:Taupunkt:
Aussen-T/F 1251 16-04-2016 08:10:00 11.4 C 83 % 8.62 C
1252 16-04-2016 08:15:00 11.4 C 83 % 8.62 C
1253 16-04-2016 08:20:00 11.5 C 83 % 8.72 C
1254 16-04-2016 08:25:00 11.5 C 83 % 8.72 C
1255 16-04-2016 08:30:00 11.6 C 83 % 8.81 C
1256 16-04-2016 08:35:00 11.6 C 83 % 8.81 C
1257 16-04-2016 08:40:00 11.6 C 83 % 8.81 C
1258 16-04-2016 08:45:00 11.7 C 82 % 8.73 C
1259 16-04-2016 08:50:00 11.7 C 83 % 8.91 C
1260 16-04-2016 08:55:00 11.8 C 82 % 8.83 C
1261 16-04-2016 09:00:00 11.8 C 82 % 8.83 C
1262 16-04-2016 09:05:00 11.9 C 82 % 8.93 C
1263 16-04-2016 09:10:00 11.9 C 82 % 8.93 C
1264 16-04-2016 09:15:00 12.1 C 81 % 8.94 C
1265 16-04-2016 09:20:00 12.1 C 81 % 8.94 C
1266 16-04-2016 09:25:00 12.2 C 80 % 8.86 C
1267 16-04-2016 09:30:00 12.3 C 79 % 8.77 C
1268 16-04-2016 09:35:00 12.3 C 79 % 8.77 C
1269 16-04-2016 09:40:00 12.2 C 79 % 8.67 C
1270 16-04-2016 09:45:00 12.2 C 79 % 8.67 C
1271 16-04-2016 09:50:00 12.2 C 79 % 8.67 C
1272 16-04-2016 09:55:00 12.1 C 79 % 8.57 C
1273 16-04-2016 10:00:00 12.1 C 79 % 8.57 C
1274 16-04-2016 10:05:00 12.1 C 79 % 8.57 C
1275 16-04-2016 10:10:00 12.2 C 79 % 8.67 C
Sensor: Nr:Datum:Temp:Feuchte:Taupunkt:
Aussen-T/F 1276 16-04-2016 10:15:00 12.2 C 78 % 8.48 C
1277 16-04-2016 10:20:00 12.3 C 78 % 8.58 C
1278 16-04-2016 10:25:00 12.4 C 78 % 8.68 C
1279 16-04-2016 10:30:00 12.4 C 77 % 8.49 C
1280 16-04-2016 10:35:00 12.5 C 77 % 8.58 C
1281 16-04-2016 10:40:00 12.5 C 77 % 8.58 C
1282 16-04-2016 10:45:00 12.6 C 78 % 8.87 C
1283 16-04-2016 10:50:00 12.7 C 78 % 8.97 C
1284 16-04-2016 10:55:00 12.8 C 77 % 8.87 C
1285 16-04-2016 11:00:00 12.8 C 76 % 8.68 C
1286 16-04-2016 11:05:00 12.8 C 78 % 9.06 C
1287 16-04-2016 11:10:00 12.7 C 79 % 9.16 C
1288 16-04-2016 11:15:00 12.3 C 80 % 8.95 C
1289 16-04-2016 11:20:00 12.2 C 82 % 9.22 C
1290 16-04-2016 11:25:00 12.2 C 82 % 9.22 C
1291 16-04-2016 11:30:00 12.3 C 80 % 8.95 C
1292 16-04-2016 11:35:00 12.6 C 80 % 9.25 C
1293 16-04-2016 11:40:00 13.1 C 78 % 9.36 C
1294 16-04-2016 11:45:00 13.6 C 76 % 9.45 C
1295 16-04-2016 11:50:00 13.9 C 71 % 8.73 C
1296 16-04-2016 11:55:00 14.1 C 71 % 8.93 C
1297 16-04-2016 12:00:00 14.2 C 71 % 9.02 C
1298 16-04-2016 12:05:00 14.3 C 71 % 9.12 C
1299 16-04-2016 12:10:00 14.4 C 70 % 9 C
1300 16-04-2016 12:15:00 14.4 C 68 % 8.58 C
Sensor: Nr:Datum:Temp:Feuchte:Taupunkt:
Aussen-T/F 1301 16-04-2016 12:20:00 14.4 C 69 % 8.79 C
1302 16-04-2016 12:25:00 14.5 C 69 % 8.89 C
1303 16-04-2016 12:30:00 14.6 C 67 % 8.55 C
1304 16-04-2016 12:35:00 14.4 C 67 % 8.36 C
1305 16-04-2016 12:40:00 14.3 C 66 % 8.04 C
1306 16-04-2016 12:45:00 14.2 C 67 % 8.17 C
1307 16-04-2016 12:50:00 14.3 C 68 % 8.48 C
1308 16-04-2016 12:55:00 14.3 C 69 % 8.7 C
1309 16-04-2016 13:00:00 14.6 C 66 % 8.33 C
1310 16-04-2016 13:05:00 14.8 C 65 % 8.29 C
1311 16-04-2016 13:10:00 14.9 C 63 % 7.93 C
1312 16-04-2016 13:15:00 15 C 63 % 8.02 C
1313 16-04-2016 13:20:00 14.9 C 63 % 7.93 C
1314 16-04-2016 13:25:00 15 C 62 % 7.79 C
1315 16-04-2016 13:30:00 15.2 C 61 % 7.74 C
1316 16-04-2016 13:35:00 15.5 C 62 % 8.26 C
1317 16-04-2016 13:40:00 15.8 C 61 % 8.3 C
1318 16-04-2016 13:45:00 16 C 59 % 8 C
1319 16-04-2016 13:50:00 16.1 C 60 % 8.34 C
1320 16-04-2016 13:55:00 16.2 C 58 % 7.94 C
1321 16-04-2016 14:00:00 16.1 C 58 % 7.84 C
1322 16-04-2016 14:05:00 16.1 C 56 % 7.33 C
1323 16-04-2016 14:10:00 15.9 C 58 % 7.66 C
1324 16-04-2016 14:15:00 15.8 C 58 % 7.56 C
1325 16-04-2016 14:20:00 15.8 C 58 % 7.56 C
Sensor: Nr:Datum:Temp:Feuchte:Taupunkt:
Aussen-T/F 1326 16-04-2016 14:25:00 16 C 56 % 7.24 C
1327 16-04-2016 14:30:00 16.2 C 56 % 7.42 C
1328 16-04-2016 14:35:00 16.2 C 55 % 7.16 C
1329 16-04-2016 14:40:00 16.3 C 54 % 6.98 C
1330 16-04-2016 14:45:00 16.6 C 53 % 6.99 C
1331 16-04-2016 14:50:00 16.6 C 55 % 7.53 C
1332 16-04-2016 14:55:00 16.5 C 54 % 7.17 C
1333 16-04-2016 15:00:00 16.4 C 56 % 7.61 C
1334 16-04-2016 15:05:00 16.3 C 56 % 7.52 C
1335 16-04-2016 15:10:00 16.2 C 56 % 7.42 C
1336 16-04-2016 15:15:00 16.1 C 57 % 7.59 C
1337 16-04-2016 15:20:00 15.8 C 56 % 7.05 C
1338 16-04-2016 15:25:00 15.7 C 57 % 7.21 C
1339 16-04-2016 15:30:00 15.6 C 58 % 7.37 C
1340 16-04-2016 15:35:00 15.6 C 58 % 7.37 C
1341 16-04-2016 15:40:00 15.6 C 66 % 9.28 C
1342 16-04-2016 15:45:00 15.1 C 73 % 10.3 C
1343 16-04-2016 15:50:00 13.9 C 77 % 9.94 C
1344 16-04-2016 15:55:00 13.1 C 81 % 9.92 C
1345 16-04-2016 16:00:00 12.8 C 85 % 10.34 C
1346 16-04-2016 16:05:00 12.8 C 88 % 10.86 C
1347 16-04-2016 16:10:00 13.1 C 89 % 11.33 C
1348 16-04-2016 16:15:00 13.2 C 89 % 11.43 C
1349 16-04-2016 16:20:00 13.7 C 88 % 11.75 C
1350 16-04-2016 16:25:00 14.1 C 85 % 11.62 C
Sensor: Nr:Datum:Temp:Feuchte:Taupunkt:
Aussen-T/F 1351 16-04-2016 16:30:00 14.8 C 85 % 12.3 C
1352 16-04-2016 16:35:00 15.4 C 83 % 12.53 C
1353 16-04-2016 16:40:00 15.7 C 75 % 11.28 C
1354 16-04-2016 16:45:00 16.1 C 79 % 12.46 C
1355 16-04-2016 16:50:00 16.2 C 68 % 10.29 C
1356 16-04-2016 16:55:00 16.2 C 73 % 11.36 C
1357 16-04-2016 17:00:00 16.1 C 66 % 9.75 C
1358 16-04-2016 17:05:00 15.8 C 70 % 10.34 C
1359 16-04-2016 17:10:00 15.4 C 72 % 10.38 C
1360 16-04-2016 17:15:00 15.2 C 76 % 11 C
1361 16-04-2016 17:20:00 14.9 C 78 % 11.1 C
1362 16-04-2016 17:25:00 14.6 C 78 % 10.81 C
1363 16-04-2016 17:30:00 14.3 C 75 % 9.93 C
1364 16-04-2016 17:35:00 14.3 C 68 % 8.48 C
1365 16-04-2016 17:40:00 14.4 C 68 % 8.58 C
1366 16-04-2016 17:45:00 14.6 C 69 % 8.98 C
1367 16-04-2016 17:50:00 14.6 C 77 % 10.62 C
1368 16-04-2016 17:55:00 14.3 C 70 % 8.91 C
1369 16-04-2016 18:00:00 14.1 C 77 % 10.13 C
1370 16-04-2016 18:05:00 13.8 C 81 % 10.6 C
1371 16-04-2016 18:10:00 13.2 C 76 % 9.07 C
1372 16-04-2016 18:15:00 12.6 C 76 % 8.49 C
1373 16-04-2016 18:20:00 12.2 C 78 % 8.48 C
1374 16-04-2016 18:25:00 12 C 82 % 9.03 C
1375 16-04-2016 18:30:00 11.8 C 84 % 9.19 C
Sensor: Nr:Datum:Temp:Feuchte:Taupunkt:
Aussen-T/F 1376 16-04-2016 18:35:00 11.7 C 85 % 9.27 C
1377 16-04-2016 18:40:00 11.6 C 86 % 9.34 C
1378 16-04-2016 18:45:00 11.4 C 87 % 9.32 C
1379 16-04-2016 18:50:00 11.3 C 87 % 9.22 C
1380 16-04-2016 18:55:00 11.3 C 88 % 9.39 C
1381 16-04-2016 19:00:00 11.3 C 88 % 9.39 C
1382 16-04-2016 19:05:00 11.2 C 87 % 9.12 C
1383 16-04-2016 19:10:00 11.2 C 84 % 8.6 C
1384 16-04-2016 19:15:00 11.2 C 85 % 8.77 C
1385 16-04-2016 19:20:00 11.2 C 86 % 8.95 C
1386 16-04-2016 19:25:00 11.1 C 86 % 8.85 C
1387 16-04-2016 19:30:00 10.9 C 87 % 8.82 C
1388 16-04-2016 19:35:00 10.8 C 88 % 8.89 C
1389 16-04-2016 19:40:00 10.7 C 89 % 8.96 C
1390 16-04-2016 19:45:00 10.6 C 89 % 8.86 C
1391 16-04-2016 19:50:00 10.4 C 90 % 8.83 C
1392 16-04-2016 19:55:00 10.3 C 90 % 8.73 C
1393 16-04-2016 20:00:00 10.2 C 91 % 8.8 C
1394 16-04-2016 20:05:00 10.1 C 91 % 8.7 C
1395 16-04-2016 20:10:00 10.1 C 91 % 8.7 C
1396 16-04-2016 20:15:00 10 C 92 % 8.76 C
1397 16-04-2016 20:20:00 10 C 92 % 8.76 C
1398 16-04-2016 20:25:00 9.9 C 92 % 8.66 C
1399 16-04-2016 20:30:00 9.9 C 92 % 8.66 C
1400 16-04-2016 20:35:00 9.8 C 92 % 8.56 C
Sensor: Nr:Datum:Temp:Feuchte:Taupunkt:
Aussen-T/F 1401 16-04-2016 20:40:00 9.8 C 92 % 8.56 C
1402 16-04-2016 20:45:00 9.8 C 93 % 8.72 C
1403 16-04-2016 20:50:00 9.8 C 93 % 8.72 C
1404 16-04-2016 20:55:00 9.7 C 93 % 8.62 C
1405 16-04-2016 21:00:00 9.7 C 93 % 8.62 C
1406 16-04-2016 21:05:00 9.7 C 93 % 8.62 C
1407 16-04-2016 21:10:00 9.7 C 93 % 8.62 C
1408 16-04-2016 21:15:00 9.6 C 93 % 8.53 C
1409 16-04-2016 21:20:00 9.6 C 93 % 8.53 C
1410 16-04-2016 21:25:00 9.6 C 93 % 8.53 C
1411 16-04-2016 21:30:00 9.6 C 94 % 8.68 C
1412 16-04-2016 21:35:00 9.5 C 94 % 8.58 C
1413 16-04-2016 21:40:00 9.5 C 94 % 8.58 C
1414 16-04-2016 21:45:00 9.5 C 94 % 8.58 C
1415 16-04-2016 21:50:00 9.5 C 94 % 8.58 C
1416 16-04-2016 21:55:00 9.5 C 94 % 8.58 C
1417 16-04-2016 22:00:00 9.5 C 94 % 8.58 C
1418 16-04-2016 22:05:00 9.5 C 94 % 8.58 C
1419 16-04-2016 22:10:00 9.4 C 94 % 8.48 C
1420 16-04-2016 22:15:00 9.4 C 94 % 8.48 C
1421 16-04-2016 22:20:00 9.4 C 94 % 8.48 C
1422 16-04-2016 22:25:00 9.4 C 94 % 8.48 C
1423 16-04-2016 22:30:00 9.4 C 94 % 8.48 C
1424 16-04-2016 22:35:00 9.3 C 94 % 8.39 C
1425 16-04-2016 22:40:00 9.3 C 94 % 8.39 C
Sensor: Nr:Datum:Temp:Feuchte:Taupunkt:
Aussen-T/F 1426 16-04-2016 22:45:00 9.3 C 94 % 8.39 C
1427 16-04-2016 22:50:00 9.2 C 94 % 8.29 C
1428 16-04-2016 22:55:00 9.2 C 94 % 8.29 C
1429 16-04-2016 23:00:00 9.1 C 94 % 8.19 C
1430 16-04-2016 23:05:00 9 C 94 % 8.09 C
1431 16-04-2016 23:10:00 8.9 C 94 % 7.99 C
1432 16-04-2016 23:15:00 8.9 C 95 % 8.14 C
1433 16-04-2016 23:20:00 8.8 C 94 % 7.89 C
1434 16-04-2016 23:25:00 8.8 C 94 % 7.89 C
1435 16-04-2016 23:30:00 8.7 C 94 % 7.79 C
1436 16-04-2016 23:35:00 8.7 C 95 % 7.94 C
1437 16-04-2016 23:40:00 8.6 C 95 % 7.85 C
1438 16-04-2016 23:45:00 8.6 C 95 % 7.85 C
1439 16-04-2016 23:50:00 8.6 C 95 % 7.85 C
1440 16-04-2016 23:55:00 8.7 C 95 % 7.94 C
1441 17-04-2016 00:00:00 8.7 C 95 % 7.94 C
1442 17-04-2016 00:05:00 8.7 C 95 % 7.94 C
1443 17-04-2016 00:10:00 8.7 C 95 % 7.94 C
1444 17-04-2016 00:15:00 8.7 C 95 % 7.94 C
1445 17-04-2016 00:20:00 8.7 C 95 % 7.94 C
1446 17-04-2016 00:25:00 8.6 C 95 % 7.85 C
1447 17-04-2016 00:30:00 8.6 C 95 % 7.85 C
1448 17-04-2016 00:35:00 8.6 C 95 % 7.85 C
1449 17-04-2016 00:40:00 8.5 C 95 % 7.75 C
1450 17-04-2016 00:45:00 8.5 C 95 % 7.75 C
Sensor: Nr:Datum:Temp:Feuchte:Taupunkt:
Aussen-T/F 1451 17-04-2016 00:50:00 8.4 C 95 % 7.65 C
1452 17-04-2016 00:55:00 8.4 C 95 % 7.65 C
1453 17-04-2016 01:00:00 8.3 C 95 % 7.55 C
1454 17-04-2016 01:05:00 8.3 C 95 % 7.55 C
1455 17-04-2016 01:10:00 8.3 C 95 % 7.55 C
1456 17-04-2016 01:15:00 8.3 C 95 % 7.55 C
1457 17-04-2016 01:20:00 8.3 C 95 % 7.55 C
1458 17-04-2016 01:25:00 8.3 C 95 % 7.55 C
1459 17-04-2016 01:30:00 8.3 C 95 % 7.55 C
1460 17-04-2016 01:35:00 8.2 C 95 % 7.45 C
1461 17-04-2016 01:40:00 8.2 C 95 % 7.45 C
1462 17-04-2016 01:45:00 8.2 C 95 % 7.45 C
1463 17-04-2016 01:50:00 8.2 C 95 % 7.45 C
1464 17-04-2016 01:55:00 8.1 C 95 % 7.35 C
1465 17-04-2016 02:00:00 8.1 C 95 % 7.35 C
1466 17-04-2016 02:05:00 8 C 95 % 7.25 C
1467 17-04-2016 02:10:00 8 C 95 % 7.25 C
1468 17-04-2016 02:15:00 7.9 C 95 % 7.15 C
1469 17-04-2016 02:20:00 7.8 C 95 % 7.05 C
1470 17-04-2016 02:25:00 7.7 C 95 % 6.95 C
1471 17-04-2016 02:30:00 7.6 C 95 % 6.85 C
1472 17-04-2016 02:35:00 7.6 C 95 % 6.85 C
1473 17-04-2016 02:40:00 7.5 C 95 % 6.75 C
1474 17-04-2016 02:45:00 7.4 C 95 % 6.65 C
1475 17-04-2016 02:50:00 7.4 C 95 % 6.65 C
Sensor: Nr:Datum:Temp:Feuchte:Taupunkt:
Aussen-T/F 1476 17-04-2016 02:55:00 7.3 C 95 % 6.55 C
1477 17-04-2016 03:00:00 7.3 C 95 % 6.55 C
1478 17-04-2016 03:05:00 7.3 C 95 % 6.55 C
1479 17-04-2016 03:10:00 7.3 C 95 % 6.55 C
1480 17-04-2016 03:15:00 7.3 C 95 % 6.55 C
1481 17-04-2016 03:20:00 7.2 C 95 % 6.45 C
1482 17-04-2016 03:25:00 7.2 C 96 % 6.61 C
1483 17-04-2016 03:30:00 7.2 C 96 % 6.61 C
1484 17-04-2016 03:35:00 7.2 C 96 % 6.61 C
1485 17-04-2016 03:40:00 7.1 C 96 % 6.51 C
1486 17-04-2016 03:45:00 7.1 C 95 % 6.35 C
1487 17-04-2016 03:50:00 6.9 C 95 % 6.16 C
1488 17-04-2016 03:55:00 6.8 C 95 % 6.06 C
1489 17-04-2016 04:00:00 6.8 C 95 % 6.06 C
1490 17-04-2016 04:05:00 6.8 C 95 % 6.06 C
1491 17-04-2016 04:10:00 6.8 C 95 % 6.06 C
1492 17-04-2016 04:15:00 6.7 C 95 % 5.96 C
1493 17-04-2016 04:20:00 6.7 C 96 % 6.11 C
1494 17-04-2016 04:25:00 6.7 C 95 % 5.96 C
1495 17-04-2016 04:30:00 6.6 C 95 % 5.86 C
1496 17-04-2016 04:35:00 6.6 C 95 % 5.86 C
1497 17-04-2016 04:40:00 6.6 C 95 % 5.86 C
1498 17-04-2016 04:45:00 6.5 C 95 % 5.76 C
1499 17-04-2016 04:50:00 6.4 C 96 % 5.81 C
1500 17-04-2016 04:55:00 6.4 C 96 % 5.81 C
Sensor: Nr:Datum:Temp:Feuchte:Taupunkt:
Aussen-T/F 1501 17-04-2016 05:00:00 6.3 C 95 % 5.56 C
1502 17-04-2016 05:05:00 6.3 C 95 % 5.56 C
1503 17-04-2016 05:10:00 6.2 C 96 % 5.61 C
1504 17-04-2016 05:15:00 6.2 C 96 % 5.61 C
1505 17-04-2016 05:20:00 6.2 C 96 % 5.61 C
1506 17-04-2016 05:25:00 6.2 C 96 % 5.61 C
1507 17-04-2016 05:30:00 6.2 C 96 % 5.61 C
1508 17-04-2016 05:35:00 6.1 C 96 % 5.51 C
1509 17-04-2016 05:40:00 6.1 C 95 % 5.36 C
1510 17-04-2016 05:45:00 6 C 96 % 5.41 C
1511 17-04-2016 05:50:00 6 C 96 % 5.41 C
1512 17-04-2016 05:55:00 6 C 96 % 5.41 C
1513 17-04-2016 06:00:00 6 C 96 % 5.41 C
1514 17-04-2016 06:05:00 5.9 C 96 % 5.31 C
1515 17-04-2016 06:10:00 5.9 C 96 % 5.31 C
1516 17-04-2016 06:15:00 5.9 C 96 % 5.31 C
1517 17-04-2016 06:20:00 5.9 C 96 % 5.31 C
1518 17-04-2016 06:25:00 5.9 C 96 % 5.31 C
1519 17-04-2016 06:30:00 5.9 C 96 % 5.31 C
1520 17-04-2016 06:35:00 5.9 C 96 % 5.31 C
1521 17-04-2016 06:40:00 5.8 C 96 % 5.21 C
1522 17-04-2016 06:45:00 5.8 C 96 % 5.21 C
1523 17-04-2016 06:50:00 5.8 C 96 % 5.21 C
1524 17-04-2016 06:55:00 5.9 C 96 % 5.31 C
1525 17-04-2016 07:00:00 5.9 C 96 % 5.31 C
Sensor: Nr:Datum:Temp:Feuchte:Taupunkt:
Aussen-T/F 1526 17-04-2016 07:05:00 5.9 C 96 % 5.31 C
1527 17-04-2016 07:10:00 5.9 C 96 % 5.31 C
1528 17-04-2016 07:15:00 5.9 C 96 % 5.31 C
1529 17-04-2016 07:20:00 5.8 C 96 % 5.21 C
1530 17-04-2016 07:25:00 5.8 C 96 % 5.21 C
1531 17-04-2016 07:30:00 5.8 C 95 % 5.06 C
1532 17-04-2016 07:35:00 5.8 C 95 % 5.06 C
1533 17-04-2016 07:40:00 5.8 C 95 % 5.06 C
1534 17-04-2016 07:45:00 5.8 C 95 % 5.06 C
1535 17-04-2016 07:50:00 5.8 C 95 % 5.06 C
1536 17-04-2016 07:55:00 5.9 C 95 % 5.16 C
1537 17-04-2016 08:00:00 5.9 C 95 % 5.16 C
1538 17-04-2016 08:05:00 6 C 94 % 5.11 C
1539 17-04-2016 08:10:00 6.1 C 94 % 5.21 C
1540 17-04-2016 08:15:00 6.2 C 94 % 5.31 C
1541 17-04-2016 08:20:00 6.2 C 94 % 5.31 C
1542 17-04-2016 08:25:00 6.3 C 93 % 5.25 C
1543 17-04-2016 08:30:00 6.3 C 93 % 5.25 C
1544 17-04-2016 08:35:00 6.3 C 92 % 5.1 C
1545 17-04-2016 08:40:00 6.4 C 92 % 5.2 C
1546 17-04-2016 08:45:00 6.5 C 92 % 5.3 C
1547 17-04-2016 08:50:00 6.6 C 91 % 5.24 C
1548 17-04-2016 08:55:00 6.6 C 90 % 5.08 C
1549 17-04-2016 09:00:00 6.7 C 91 % 5.34 C
1550 17-04-2016 09:05:00 6.7 C 90 % 5.18 C
Sensor: Nr:Datum:Temp:Feuchte:Taupunkt:
Aussen-T/F 1551 17-04-2016 09:10:00 6.7 C 90 % 5.18 C
1552 17-04-2016 09:15:00 6.7 C 89 % 5.02 C
1553 17-04-2016 09:20:00 6.8 C 89 % 5.12 C
1554 17-04-2016 09:25:00 6.9 C 89 % 5.22 C
1555 17-04-2016 09:30:00 7 C 89 % 5.31 C
1556 17-04-2016 09:35:00 7.1 C 89 % 5.41 C
1557 17-04-2016 09:40:00 7.2 C 89 % 5.51 C
1558 17-04-2016 09:45:00 7.2 C 88 % 5.35 C
1559 17-04-2016 09:50:00 7.3 C 87 % 5.28 C
1560 17-04-2016 09:55:00 7.3 C 86 % 5.12 C
1561 17-04-2016 10:00:00 7.4 C 85 % 5.05 C
1562 17-04-2016 10:05:00 7.5 C 84 % 4.98 C
1563 17-04-2016 10:10:00 7.5 C 83 % 4.81 C
1564 17-04-2016 10:15:00 7.6 C 82 % 4.73 C
1565 17-04-2016 10:20:00 7.6 C 81 % 4.55 C
1566 17-04-2016 10:25:00 7.7 C 82 % 4.83 C
1567 17-04-2016 10:30:00 7.7 C 82 % 4.83 C
1568 17-04-2016 10:35:00 7.7 C 81 % 4.65 C
1569 17-04-2016 10:40:00 7.7 C 81 % 4.65 C
1570 17-04-2016 10:45:00 7.8 C 80 % 4.57 C
1571 17-04-2016 10:50:00 8.1 C 80 % 4.86 C
1572 17-04-2016 10:55:00 8.3 C 77 % 4.51 C
1573 17-04-2016 11:00:00 8.3 C 75 % 4.14 C
1574 17-04-2016 11:05:00 8.4 C 76 % 4.42 C
1575 17-04-2016 11:10:00 8.6 C 76 % 4.62 C
Sensor: Nr:Datum:Temp:Feuchte:Taupunkt:
Aussen-T/F 1576 17-04-2016 11:15:00 8.7 C 72 % 3.94 C
1577 17-04-2016 11:20:00 8.7 C 72 % 3.94 C
1578 17-04-2016 11:25:00 8.8 C 72 % 4.04 C
1579 17-04-2016 11:30:00 9 C 73 % 4.43 C
1580 17-04-2016 11:35:00 9.1 C 70 % 3.93 C
1581 17-04-2016 11:40:00 9 C 71 % 4.03 C
1582 17-04-2016 11:45:00 9 C 71 % 4.03 C
1583 17-04-2016 11:50:00 9.1 C 71 % 4.13 C
1584 17-04-2016 11:55:00 9.3 C 71 % 4.32 C
1585 17-04-2016 12:00:00 9.7 C 72 % 4.9 C
1586 17-04-2016 12:05:00 9.7 C 70 % 4.5 C
1587 17-04-2016 12:10:00 9.3 C 72 % 4.52 C
1588 17-04-2016 12:15:00 9.1 C 73 % 4.52 C
1589 17-04-2016 12:20:00 8.9 C 73 % 4.33 C
1590 17-04-2016 12:25:00 8.7 C 73 % 4.14 C
1591 17-04-2016 12:30:00 8.6 C 76 % 4.62 C
1592 17-04-2016 12:35:00 8.7 C 76 % 4.71 C
1593 17-04-2016 12:40:00 8.8 C 74 % 4.43 C
1594 17-04-2016 12:45:00 8.9 C 73 % 4.33 C
1595 17-04-2016 12:50:00 9 C 70 % 3.83 C
1596 17-04-2016 12:55:00 9.2 C 70 % 4.02 C
1597 17-04-2016 13:00:00 9.2 C 68 % 3.61 C
1598 17-04-2016 13:05:00 9.2 C 67 % 3.4 C
1599 17-04-2016 13:10:00 9.2 C 67 % 3.4 C
1600 17-04-2016 13:15:00 9.4 C 68 % 3.8 C
Sensor: Nr:Datum:Temp:Feuchte:Taupunkt:
Aussen-T/F 1601 17-04-2016 13:20:00 9.5 C 66 % 3.47 C
1602 17-04-2016 13:25:00 9.6 C 68 % 3.99 C
1603 17-04-2016 13:30:00 9.7 C 66 % 3.67 C
1604 17-04-2016 13:35:00 9.8 C 65 % 3.54 C
1605 17-04-2016 13:40:00 10 C 67 % 4.16 C
1606 17-04-2016 13:45:00 10 C 65 % 3.73 C
1607 17-04-2016 13:50:00 9.8 C 66 % 3.76 C
1608 17-04-2016 13:55:00 9.8 C 64 % 3.32 C
1609 17-04-2016 14:00:00 9.8 C 65 % 3.54 C
1610 17-04-2016 14:05:00 10 C 63 % 3.29 C
1611 17-04-2016 14:10:00 10 C 62 % 3.07 C
1612 17-04-2016 14:15:00 10.1 C 62 % 3.16 C
1613 17-04-2016 14:20:00 10.1 C 62 % 3.16 C
1614 17-04-2016 14:25:00 10.2 C 62 % 3.25 C
1615 17-04-2016 14:30:00 10.2 C 62 % 3.25 C
1616 17-04-2016 14:35:00 10.3 C 63 % 3.58 C
1617 17-04-2016 14:40:00 10.3 C 64 % 3.8 C
1618 17-04-2016 14:45:00 10.5 C 61 % 3.31 C
1619 17-04-2016 14:50:00 10.5 C 56 % 2.11 C
1620 17-04-2016 14:55:00 10.5 C 58 % 2.6 C
1621 17-04-2016 15:00:00 10.6 C 56 % 2.2 C
1622 17-04-2016 15:05:00 10.7 C 55 % 2.04 C
1623 17-04-2016 15:10:00 10.6 C 54 % 1.69 C
1624 17-04-2016 15:15:00 10.5 C 54 % 1.6 C
1625 17-04-2016 15:20:00 10.4 C 57 % 2.26 C
Sensor: Nr:Datum:Temp:Feuchte:Taupunkt:
Aussen-T/F 1626 17-04-2016 15:25:00 10.6 C 57 % 2.45 C
1627 17-04-2016 15:30:00 10.7 C 53 % 1.52 C
1628 17-04-2016 15:35:00 10.8 C 53 % 1.62 C
1629 17-04-2016 15:40:00 11.2 C 53 % 1.99 C
1630 17-04-2016 15:45:00 11.4 C 49 % 1.08 C
1631 17-04-2016 15:50:00 11.4 C 48 % 0.79 C
1632 17-04-2016 15:55:00 11.4 C 50 % 1.36 C
1633 17-04-2016 16:00:00 11.6 C 47 % 0.69 C
1634 17-04-2016 16:05:00 11.4 C 48 % 0.79 C
1635 17-04-2016 16:10:00 11.3 C 47 % 0.41 C
1636 17-04-2016 16:15:00 11.7 C 46 % 0.48 C
1637 17-04-2016 16:20:00 12.2 C 45 % 0.63 C
1638 17-04-2016 16:25:00 12.6 C 44 % 0.69 C
1639 17-04-2016 16:30:00 12.7 C 45 % 1.09 C
1640 17-04-2016 16:35:00 12.3 C 41 % -0.56 C
1641 17-04-2016 16:40:00 12.1 C 45 % 0.54 C
1642 17-04-2016 16:45:00 12.2 C 44 % 0.32 C
1643 17-04-2016 16:50:00 12.5 C 42 % -0.05 C
1644 17-04-2016 16:55:00 12.7 C 42 % 0.13 C
1645 17-04-2016 17:00:00 12.8 C 42 % 0.22 C
1646 17-04-2016 17:05:00 13 C 38 % -0.97 C
1647 17-04-2016 17:10:00 13.2 C 41 % 0.25 C
1648 17-04-2016 17:15:00 13.5 C 41 % 0.52 C
1649 17-04-2016 17:20:00 13.6 C 38 % -0.43 C
1650 17-04-2016 17:25:00 13.4 C 37 % -0.97 C
Sensor: Nr:Datum:Temp:Feuchte:Taupunkt:
Aussen-T/F 1651 17-04-2016 17:30:00 13.4 C 42 % 0.77 C
1652 17-04-2016 17:35:00 13.7 C 43 % 1.36 C
1653 17-04-2016 17:40:00 13.7 C 39 % 0.01 C
1654 17-04-2016 17:45:00 13.7 C 39 % 0.01 C
1655 17-04-2016 17:50:00 13.7 C 41 % 0.7 C
1656 17-04-2016 17:55:00 13.6 C 40 % 0.27 C
1657 17-04-2016 18:00:00 13.5 C 43 % 1.18 C
1658 17-04-2016 18:05:00 13.2 C 41 % 0.25 C
1659 17-04-2016 18:10:00 13.1 C 41 % 0.16 C
1660 17-04-2016 18:15:00 13.2 C 41 % 0.25 C
1661 17-04-2016 18:20:00 13.2 C 41 % 0.25 C
1662 17-04-2016 18:25:00 13.1 C 42 % 0.5 C
1663 17-04-2016 18:30:00 13.1 C 43 % 0.82 C
1664 17-04-2016 18:35:00 12.9 C 42 % 0.31 C
1665 17-04-2016 18:40:00 12.9 C 41 % -0.02 C
1666 17-04-2016 18:45:00 13.1 C 44 % 1.14 C
1667 17-04-2016 18:50:00 13.3 C 41 % 0.34 C
1668 17-04-2016 18:55:00 13.2 C 41 % 0.25 C
1669 17-04-2016 19:00:00 13.1 C 44 % 1.14 C
1670 17-04-2016 19:05:00 13.2 C 42 % 0.59 C
1671 17-04-2016 19:10:00 13.3 C 41 % 0.34 C
1672 17-04-2016 19:15:00 13.1 C 47 % 2.06 C
1673 17-04-2016 19:20:00 12.3 C 54 % 3.27 C
1674 17-04-2016 19:25:00 11.8 C 56 % 3.32 C
1675 17-04-2016 19:30:00 11.4 C 58 % 3.44 C
Sensor: Nr:Datum:Temp:Feuchte:Taupunkt:
Aussen-T/F 1676 17-04-2016 19:35:00 10.9 C 59 % 3.21 C
1677 17-04-2016 19:40:00 10.5 C 62 % 3.54 C
1678 17-04-2016 19:45:00 10.3 C 63 % 3.58 C
1679 17-04-2016 19:50:00 9.9 C 64 % 3.42 C
1680 17-04-2016 19:55:00 9.8 C 66 % 3.76 C
1681 17-04-2016 20:00:00 9.6 C 65 % 3.35 C
1682 17-04-2016 20:05:00 9.4 C 66 % 3.38 C
1683 17-04-2016 20:10:00 9.3 C 67 % 3.5 C
1684 17-04-2016 20:15:00 9.1 C 68 % 3.52 C
1685 17-04-2016 20:20:00 8.9 C 69 % 3.53 C
1686 17-04-2016 20:25:00 8.8 C 68 % 3.23 C
1687 17-04-2016 20:30:00 8.7 C 71 % 3.74 C
1688 17-04-2016 20:35:00 8.6 C 71 % 3.65 C
1689 17-04-2016 20:40:00 8.3 C 72 % 3.56 C
1690 17-04-2016 20:45:00 8.1 C 74 % 3.75 C
1691 17-04-2016 20:50:00 7.7 C 75 % 3.56 C
1692 17-04-2016 20:55:00 7.4 C 77 % 3.64 C
1693 17-04-2016 21:00:00 7.2 C 77 % 3.45 C
1694 17-04-2016 21:05:00 7.2 C 75 % 3.07 C
1695 17-04-2016 21:10:00 7.1 C 79 % 3.71 C
1696 17-04-2016 21:15:00 6.9 C 79 % 3.52 C
1697 17-04-2016 21:20:00 6.8 C 79 % 3.42 C
1698 17-04-2016 21:25:00 6.6 C 79 % 3.23 C
1699 17-04-2016 21:30:00 6.5 C 81 % 3.48 C
1700 17-04-2016 21:35:00 6.4 C 80 % 3.21 C
Sensor: Nr:Datum:Temp:Feuchte:Taupunkt:
Aussen-T/F 1701 17-04-2016 21:40:00 6.3 C 80 % 3.11 C
1702 17-04-2016 21:45:00 6.2 C 82 % 3.36 C
1703 17-04-2016 21:50:00 6.1 C 81 % 3.09 C
1704 17-04-2016 21:55:00 6.1 C 82 % 3.26 C
1705 17-04-2016 22:00:00 5.9 C 82 % 3.07 C
1706 17-04-2016 22:05:00 5.8 C 83 % 3.14 C
1707 17-04-2016 22:10:00 5.7 C 83 % 3.04 C
1708 17-04-2016 22:15:00 5.6 C 83 % 2.95 C
1709 17-04-2016 22:20:00 5.6 C 84 % 3.12 C
1710 17-04-2016 22:25:00 5.5 C 84 % 3.02 C
1711 17-04-2016 22:30:00 5.4 C 84 % 2.92 C
1712 17-04-2016 22:35:00 5.4 C 83 % 2.75 C
1713 17-04-2016 22:40:00 5.3 C 84 % 2.82 C
1714 17-04-2016 22:45:00 5.3 C 84 % 2.82 C
1715 17-04-2016 22:50:00 5.3 C 84 % 2.82 C
1716 17-04-2016 22:55:00 5.2 C 85 % 2.89 C
1717 17-04-2016 23:00:00 5.2 C 84 % 2.72 C
1718 17-04-2016 23:05:00 5.1 C 85 % 2.79 C
1719 17-04-2016 23:10:00 5.2 C 85 % 2.89 C
1720 17-04-2016 23:15:00 5.2 C 85 % 2.89 C
1721 17-04-2016 23:20:00 5.2 C 85 % 2.89 C
1722 17-04-2016 23:25:00 5.2 C 85 % 2.89 C
1723 17-04-2016 23:30:00 5.1 C 85 % 2.79 C
1724 17-04-2016 23:35:00 5 C 85 % 2.69 C
1725 17-04-2016 23:40:00 4.9 C 86 % 2.76 C
Sensor: Nr:Datum:Temp:Feuchte:Taupunkt:
Aussen-T/F 1726 17-04-2016 23:45:00 4.9 C 87 % 2.92 C
1727 17-04-2016 23:50:00 4.8 C 87 % 2.82 C
1728 17-04-2016 23:55:00 4.7 C 87 % 2.73 C
1729 18-04-2016 00:00:00 4.6 C 87 % 2.63 C
1730 18-04-2016 00:05:00 4.5 C 88 % 2.69 C
1731 18-04-2016 00:10:00 4.4 C 88 % 2.59 C
1732 18-04-2016 00:15:00 4.4 C 88 % 2.59 C
1733 18-04-2016 00:20:00 4.3 C 88 % 2.49 C
1734 18-04-2016 00:25:00 4.3 C 88 % 2.49 C
1735 18-04-2016 00:30:00 4.2 C 88 % 2.39 C
1736 18-04-2016 00:35:00 4.1 C 89 % 2.45 C
1737 18-04-2016 00:40:00 4.1 C 89 % 2.45 C
1738 18-04-2016 00:45:00 4 C 89 % 2.36 C
1739 18-04-2016 00:50:00 3.9 C 90 % 2.41 C
1740 18-04-2016 00:55:00 3.8 C 90 % 2.31 C
1741 18-04-2016 01:00:00 3.7 C 90 % 2.22 C
1742 18-04-2016 01:05:00 3.6 C 90 % 2.12 C
1743 18-04-2016 01:10:00 3.5 C 90 % 2.02 C
1744 18-04-2016 01:15:00 3.4 C 90 % 1.92 C
1745 18-04-2016 01:20:00 3.3 C 90 % 1.82 C
1746 18-04-2016 01:25:00 3.3 C 91 % 1.98 C
1747 18-04-2016 01:30:00 3.3 C 91 % 1.98 C
1748 18-04-2016 01:35:00 3.2 C 91 % 1.88 C
1749 18-04-2016 01:40:00 3.2 C 91 % 1.88 C
1750 18-04-2016 01:45:00 3.1 C 91 % 1.78 C
Sensor: Nr:Datum:Temp:Feuchte:Taupunkt:
Aussen-T/F 1751 18-04-2016 01:50:00 3.1 C 91 % 1.78 C
1752 18-04-2016 01:55:00 3 C 91 % 1.68 C
1753 18-04-2016 02:00:00 2.9 C 91 % 1.58 C
1754 18-04-2016 02:05:00 2.8 C 92 % 1.63 C
1755 18-04-2016 02:10:00 2.8 C 92 % 1.63 C
1756 18-04-2016 02:15:00 2.7 C 92 % 1.53 C
1757 18-04-2016 02:20:00 2.6 C 92 % 1.43 C
1758 18-04-2016 02:25:00 2.6 C 92 % 1.43 C
1759 18-04-2016 02:30:00 2.6 C 92 % 1.43 C
1760 18-04-2016 02:35:00 2.5 C 92 % 1.34 C
1761 18-04-2016 02:40:00 2.4 C 92 % 1.24 C
1762 18-04-2016 02:45:00 2.4 C 93 % 1.39 C
1763 18-04-2016 02:50:00 2.4 C 93 % 1.39 C
1764 18-04-2016 02:55:00 2.3 C 93 % 1.29 C
1765 18-04-2016 03:00:00 2.3 C 93 % 1.29 C
1766 18-04-2016 03:05:00 2.2 C 93 % 1.19 C
1767 18-04-2016 03:10:00 2.2 C 93 % 1.19 C
1768 18-04-2016 03:15:00 2.1 C 93 % 1.09 C
1769 18-04-2016 03:20:00 2.1 C 93 % 1.09 C
1770 18-04-2016 03:25:00 2.2 C 93 % 1.19 C
1771 18-04-2016 03:30:00 2.2 C 93 % 1.19 C
1772 18-04-2016 03:35:00 2.1 C 93 % 1.09 C
1773 18-04-2016 03:40:00 2 C 93 % 0.99 C
1774 18-04-2016 03:45:00 1.9 C 93 % 0.89 C
1775 18-04-2016 03:50:00 1.9 C 93 % 0.89 C
Sensor: Nr:Datum:Temp:Feuchte:Taupunkt:
Aussen-T/F 1776 18-04-2016 03:55:00 1.8 C 93 % 0.79 C
1777 18-04-2016 04:00:00 1.8 C 93 % 0.79 C
1778 18-04-2016 04:05:00 1.7 C 94 % 0.84 C
1779 18-04-2016 04:10:00 1.7 C 94 % 0.84 C
1780 18-04-2016 04:15:00 1.7 C 94 % 0.84 C
1781 18-04-2016 04:20:00 1.7 C 94 % 0.84 C
1782 18-04-2016 04:25:00 1.6 C 94 % 0.74 C
1783 18-04-2016 04:30:00 1.6 C 94 % 0.74 C
1784 18-04-2016 04:35:00 1.6 C 94 % 0.74 C
1785 18-04-2016 04:40:00 1.6 C 94 % 0.74 C
1786 18-04-2016 04:45:00 1.6 C 94 % 0.74 C
1787 18-04-2016 04:50:00 1.6 C 94 % 0.74 C
1788 18-04-2016 04:55:00 1.5 C 94 % 0.64 C
1789 18-04-2016 05:00:00 1.5 C 94 % 0.64 C
1790 18-04-2016 05:05:00 1.4 C 94 % 0.54 C
1791 18-04-2016 05:10:00 1.4 C 94 % 0.54 C
1792 18-04-2016 05:15:00 1.3 C 94 % 0.44 C
1793 18-04-2016 05:20:00 1.3 C 94 % 0.44 C
1794 18-04-2016 05:25:00 1.2 C 94 % 0.34 C
1795 18-04-2016 05:30:00 1.2 C 94 % 0.34 C
1796 18-04-2016 05:35:00 1.2 C 94 % 0.34 C
1797 18-04-2016 05:40:00 1.1 C 94 % 0.24 C
1798 18-04-2016 05:45:00 1.1 C 94 % 0.24 C
1799 18-04-2016 05:50:00 1 C 94 % 0.15 C
1800 18-04-2016 05:55:00 1 C 95 % 0.29 C
Sensor: Nr:Datum:Temp:Feuchte:Taupunkt:
Aussen-T/F 1801 18-04-2016 06:00:00 1 C 95 % 0.29 C
1802 18-04-2016 06:05:00 0.9 C 95 % 0.19 C
1803 18-04-2016 06:10:00 0.9 C 95 % 0.19 C
1804 18-04-2016 06:15:00 0.9 C 95 % 0.19 C
1805 18-04-2016 06:20:00 0.9 C 95 % 0.19 C
1806 18-04-2016 06:25:00 0.9 C 95 % 0.19 C
1807 18-04-2016 06:30:00 0.8 C 95 % 0.09 C
1808 18-04-2016 06:35:00 0.8 C 95 % 0.09 C
1809 18-04-2016 06:40:00 0.7 C 95 % -0.01 C
1810 18-04-2016 06:45:00 0.7 C 95 % -0.01 C
1811 18-04-2016 06:50:00 0.8 C 95 % 0.09 C
1812 18-04-2016 06:55:00 0.8 C 95 % 0.09 C
1813 18-04-2016 07:00:00 0.8 C 95 % 0.09 C
1814 18-04-2016 07:05:00 0.8 C 95 % 0.09 C
1815 18-04-2016 07:10:00 0.8 C 95 % 0.09 C
1816 18-04-2016 07:15:00 0.8 C 95 % 0.09 C
1817 18-04-2016 07:20:00 0.8 C 95 % 0.09 C
1818 18-04-2016 07:25:00 0.8 C 95 % 0.09 C
1819 18-04-2016 07:30:00 0.8 C 95 % 0.09 C
1820 18-04-2016 07:35:00 0.9 C 95 % 0.19 C
1821 18-04-2016 07:40:00 0.9 C 95 % 0.19 C
1822 18-04-2016 07:45:00 1.1 C 95 % 0.39 C
1823 18-04-2016 07:50:00 1.1 C 95 % 0.39 C
1824 18-04-2016 07:55:00 1.2 C 96 % 0.63 C
1825 18-04-2016 08:00:00 1.2 C 95 % 0.49 C
Sensor: Nr:Datum:Temp:Feuchte:Taupunkt:
Aussen-T/F 1826 18-04-2016 08:05:00 1.3 C 96 % 0.73 C
1827 18-04-2016 08:10:00 1.4 C 96 % 0.83 C
1828 18-04-2016 08:15:00 1.4 C 96 % 0.83 C
1829 18-04-2016 08:20:00 1.5 C 96 % 0.93 C
1830 18-04-2016 08:25:00 1.5 C 96 % 0.93 C
1831 18-04-2016 08:30:00 1.6 C 96 % 1.03 C
1832 18-04-2016 08:35:00 1.6 C 96 % 1.03 C
1833 18-04-2016 08:40:00 1.7 C 96 % 1.13 C
1834 18-04-2016 08:45:00 1.8 C 96 % 1.23 C
1835 18-04-2016 08:50:00 1.8 C 96 % 1.23 C
1836 18-04-2016 08:55:00 1.8 C 96 % 1.23 C
1837 18-04-2016 09:00:00 1.9 C 96 % 1.33 C
1838 18-04-2016 09:05:00 2 C 96 % 1.43 C
1839 18-04-2016 09:10:00 2.2 C 96 % 1.63 C
1840 18-04-2016 09:15:00 2.3 C 96 % 1.73 C
1841 18-04-2016 09:20:00 2.4 C 96 % 1.83 C
1842 18-04-2016 09:25:00 2.5 C 96 % 1.93 C
1843 18-04-2016 09:30:00 2.7 C 96 % 2.13 C
1844 18-04-2016 09:35:00 2.8 C 96 % 2.23 C
1845 18-04-2016 09:40:00 2.9 C 96 % 2.33 C
1846 18-04-2016 09:45:00 3.1 C 96 % 2.53 C
1847 18-04-2016 09:50:00 3.3 C 96 % 2.72 C
1848 18-04-2016 09:55:00 3.5 C 97 % 3.07 C
1849 18-04-2016 10:00:00 3.7 C 97 % 3.27 C
1850 18-04-2016 10:05:00 3.9 C 96 % 3.32 C
Sensor: Nr:Datum:Temp:Feuchte:Taupunkt:
Aussen-T/F 1851 18-04-2016 10:10:00 4.2 C 97 % 3.77 C
1852 18-04-2016 10:15:00 4.4 C 96 % 3.82 C
1853 18-04-2016 10:20:00 4.7 C 96 % 4.12 C
1854 18-04-2016 10:25:00 4.9 C 96 % 4.32 C
1855 18-04-2016 10:30:00 5.2 C 96 % 4.62 C
1856 18-04-2016 10:35:00 5.4 C 95 % 4.66 C
1857 18-04-2016 10:40:00 5.7 C 94 % 4.81 C
1858 18-04-2016 10:45:00 6.1 C 92 % 4.9 C
1859 18-04-2016 10:50:00 6.5 C 90 % 4.98 C
1860 18-04-2016 10:55:00 6.8 C 88 % 4.96 C
1861 18-04-2016 11:00:00 7.2 C 87 % 5.19 C
1862 18-04-2016 11:05:00 7.4 C 84 % 4.88 C
1863 18-04-2016 11:10:00 7.8 C 82 % 4.92 C
1864 18-04-2016 11:15:00 8.1 C 78 % 4.5 C
1865 18-04-2016 11:20:00 8.4 C 79 % 4.98 C
1866 18-04-2016 11:25:00 8.8 C 77 % 5 C
1867 18-04-2016 11:30:00 9.1 C 73 % 4.52 C
1868 18-04-2016 11:35:00 9.3 C 73 % 4.72 C
1869 18-04-2016 11:40:00 9.5 C 73 % 4.91 C
1870 18-04-2016 11:45:00 9.6 C 74 % 5.2 C
1871 18-04-2016 11:50:00 9.7 C 71 % 4.7 C
1872 18-04-2016 11:55:00 9.8 C 70 % 4.6 C
1873 18-04-2016 12:00:00 9.9 C 68 % 4.28 C
1874 18-04-2016 12:05:00 10.1 C 65 % 3.83 C
1875 18-04-2016 12:10:00 10.1 C 63 % 3.39 C
Sensor: Nr:Datum:Temp:Feuchte:Taupunkt:
Aussen-T/F 1876 18-04-2016 12:15:00 10.2 C 63 % 3.48 C
1877 18-04-2016 12:20:00 10.3 C 65 % 4.02 C
1878 18-04-2016 12:25:00 10.4 C 63 % 3.67 C
1879 18-04-2016 12:30:00 10.6 C 59 % 2.93 C
1880 18-04-2016 12:35:00 10.7 C 59 % 3.03 C
1881 18-04-2016 12:40:00 10.8 C 58 % 2.88 C
1882 18-04-2016 12:45:00 10.8 C 59 % 3.12 C
1883 18-04-2016 12:50:00 10.9 C 58 % 2.97 C
1884 18-04-2016 12:55:00 10.9 C 58 % 2.97 C
1885 18-04-2016 13:00:00 11 C 59 % 3.31 C
1886 18-04-2016 13:05:00 10.9 C 62 % 3.92 C
1887 18-04-2016 13:10:00 11 C 59 % 3.31 C
1888 18-04-2016 13:15:00 11.2 C 57 % 3.01 C
1889 18-04-2016 13:20:00 11.3 C 56 % 2.85 C
1890 18-04-2016 13:25:00 11.6 C 57 % 3.38 C
1891 18-04-2016 13:30:00 11.8 C 55 % 3.07 C
1892 18-04-2016 13:35:00 11.9 C 56 % 3.41 C
1893 18-04-2016 13:40:00 12 C 57 % 3.76 C
1894 18-04-2016 13:45:00 11.9 C 56 % 3.41 C
1895 18-04-2016 13:50:00 11.8 C 55 % 3.07 C
1896 18-04-2016 13:55:00 11.8 C 54 % 2.81 C
1897 18-04-2016 14:00:00 11.9 C 56 % 3.41 C
1898 18-04-2016 14:05:00 12.1 C 56 % 3.6 C
1899 18-04-2016 14:10:00 12.2 C 54 % 3.18 C
1900 18-04-2016 14:15:00 12.3 C 57 % 4.04 C
Sensor: Nr:Datum:Temp:Feuchte:Taupunkt:
Aussen-T/F 1901 18-04-2016 14:20:00 12.5 C 56 % 3.97 C
1902 18-04-2016 14:25:00 12.7 C 54 % 3.64 C
1903 18-04-2016 14:30:00 12.7 C 53 % 3.38 C
1904 18-04-2016 14:35:00 12.8 C 52 % 3.2 C
1905 18-04-2016 14:40:00 12.7 C 52 % 3.11 C
1906 18-04-2016 14:45:00 12.6 C 52 % 3.02 C
1907 18-04-2016 14:50:00 12.4 C 54 % 3.36 C
1908 18-04-2016 14:55:00 12.4 C 54 % 3.36 C
1909 18-04-2016 15:00:00 12.4 C 54 % 3.36 C
1910 18-04-2016 15:05:00 12.6 C 53 % 3.29 C
1911 18-04-2016 15:10:00 12.7 C 52 % 3.11 C
1912 18-04-2016 15:15:00 12.8 C 52 % 3.2 C
1913 18-04-2016 15:20:00 12.8 C 52 % 3.2 C
1914 18-04-2016 15:25:00 12.8 C 52 % 3.2 C
1915 18-04-2016 15:30:00 12.9 C 52 % 3.29 C
1916 18-04-2016 15:35:00 12.9 C 55 % 4.09 C
1917 18-04-2016 15:40:00 12.9 C 54 % 3.83 C
1918 18-04-2016 15:45:00 12.9 C 53 % 3.56 C
1919 18-04-2016 15:50:00 13 C 53 % 3.66 C
1920 18-04-2016 15:55:00 13.2 C 54 % 4.11 C
1921 18-04-2016 16:00:00 13.3 C 50 % 3.11 C
1922 18-04-2016 16:05:00 13.4 C 51 % 3.48 C
1923 18-04-2016 16:10:00 13.4 C 49 % 2.92 C
1924 18-04-2016 16:15:00 13.3 C 50 % 3.11 C
1925 18-04-2016 16:20:00 13.3 C 50 % 3.11 C
Sensor: Nr:Datum:Temp:Feuchte:Taupunkt:
Aussen-T/F 1926 18-04-2016 16:25:00 13.3 C 48 % 2.54 C
1927 18-04-2016 16:30:00 13.6 C 48 % 2.81 C
1928 18-04-2016 16:35:00 14 C 49 % 3.47 C
1929 18-04-2016 16:40:00 14.7 C 50 % 4.4 C
1930 18-04-2016 16:45:00 15.3 C 46 % 3.76 C
1931 18-04-2016 16:50:00 15.5 C 43 % 2.99 C
1932 18-04-2016 16:55:00 15.2 C 44 % 3.04 C
1933 18-04-2016 17:00:00 14.8 C 45 % 3 C
1934 18-04-2016 17:05:00 14.2 C 47 % 3.06 C
1935 18-04-2016 17:10:00 13.7 C 47 % 2.61 C
1936 18-04-2016 17:15:00 13.4 C 49 % 2.92 C
1937 18-04-2016 17:20:00 13.2 C 48 % 2.44 C
1938 18-04-2016 17:25:00 13.2 C 50 % 3.02 C
1939 18-04-2016 17:30:00 13.2 C 48 % 2.44 C
1940 18-04-2016 17:35:00 13.3 C 51 % 3.39 C
1941 18-04-2016 17:40:00 13.9 C 50 % 3.66 C
1942 18-04-2016 17:45:00 14.2 C 44 % 2.14 C
1943 18-04-2016 17:50:00 14.2 C 47 % 3.06 C
1944 18-04-2016 17:55:00 14.4 C 45 % 2.63 C
1945 18-04-2016 18:00:00 14.6 C 47 % 3.43 C
1946 18-04-2016 18:05:00 14.7 C 45 % 2.91 C
1947 18-04-2016 18:10:00 14.6 C 44 % 2.5 C
1948 18-04-2016 18:15:00 14.4 C 45 % 2.63 C
1949 18-04-2016 18:20:00 14.5 C 45 % 2.72 C
1950 18-04-2016 18:25:00 14.8 C 43 % 2.36 C
Sensor: Nr:Datum:Temp:Feuchte:Taupunkt:
Aussen-T/F 1951 18-04-2016 18:30:00 14.7 C 40 % 1.26 C
1952 18-04-2016 18:35:00 14.3 C 42 % 1.58 C
1953 18-04-2016 18:40:00 14.3 C 42 % 1.58 C
1954 18-04-2016 18:45:00 14.4 C 40 % 0.99 C
1955 18-04-2016 18:50:00 14.5 C 41 % 1.42 C
1956 18-04-2016 18:55:00 14.7 C 42 % 1.94 C
1957 18-04-2016 19:00:00 14.8 C 42 % 2.03 C
1958 18-04-2016 19:05:00 14.7 C 41 % 1.6 C
1959 18-04-2016 19:10:00 14.7 C 40 % 1.26 C
1960 18-04-2016 19:15:00 14.8 C 40 % 1.35 C
1961 18-04-2016 19:20:00 14.7 C 39 % 0.91 C
1962 18-04-2016 19:25:00 14.3 C 40 % 0.9 C
1963 18-04-2016 19:30:00 14.1 C 43 % 1.72 C
1964 18-04-2016 19:35:00 13.8 C 43 % 1.45 C
1965 18-04-2016 19:40:00 13.6 C 43 % 1.27 C
1966 18-04-2016 19:45:00 13.4 C 43 % 1.09 C
1967 18-04-2016 19:50:00 13.2 C 44 % 1.23 C
1968 18-04-2016 19:55:00 12.9 C 44 % 0.96 C
1969 18-04-2016 20:00:00 12.8 C 48 % 2.08 C
1970 18-04-2016 20:05:00 12.7 C 45 % 1.09 C
1971 18-04-2016 20:10:00 12.5 C 51 % 2.65 C
1972 18-04-2016 20:15:00 12.2 C 55 % 3.44 C
1973 18-04-2016 20:20:00 11.8 C 50 % 1.73 C
1974 18-04-2016 20:25:00 11.5 C 52 % 2 C
1975 18-04-2016 20:30:00 11.1 C 53 % 1.9 C
Sensor: Nr:Datum:Temp:Feuchte:Taupunkt:
Aussen-T/F 1976 18-04-2016 20:35:00 10.8 C 58 % 2.88 C
1977 18-04-2016 20:40:00 10.4 C 62 % 3.44 C
1978 18-04-2016 20:45:00 9.9 C 62 % 2.97 C
1979 18-04-2016 20:50:00 9.6 C 62 % 2.69 C
1980 18-04-2016 20:55:00 9.4 C 62 % 2.5 C
1981 18-04-2016 21:00:00 9.1 C 67 % 3.31 C
1982 18-04-2016 21:05:00 8.8 C 67 % 3.02 C
1983 18-04-2016 21:10:00 8.7 C 67 % 2.92 C
1984 18-04-2016 21:15:00 8.5 C 69 % 3.15 C
1985 18-04-2016 21:20:00 8.4 C 69 % 3.05 C
1986 18-04-2016 21:25:00 8.3 C 70 % 3.16 C
1987 18-04-2016 21:30:00 8.2 C 71 % 3.26 C
1988 18-04-2016 21:35:00 8 C 71 % 3.07 C
1989 18-04-2016 21:40:00 7.9 C 71 % 2.98 C
1990 18-04-2016 21:45:00 7.8 C 72 % 3.08 C
1991 18-04-2016 21:50:00 7.7 C 73 % 3.18 C
1992 18-04-2016 21:55:00 7.6 C 73 % 3.08 C
1993 18-04-2016 22:00:00 7.4 C 73 % 2.89 C
1994 18-04-2016 22:05:00 7.3 C 74 % 2.98 C
1995 18-04-2016 22:10:00 7.3 C 74 % 2.98 C
1996 18-04-2016 22:15:00 7.2 C 75 % 3.07 C
1997 18-04-2016 22:20:00 7.1 C 77 % 3.35 C
1998 18-04-2016 22:25:00 6.9 C 76 % 2.97 C
1999 18-04-2016 22:30:00 6.7 C 76 % 2.78 C
2000 18-04-2016 22:35:00 6.7 C 77 % 2.96 C
Sensor: Nr:Datum:Temp:Feuchte:Taupunkt:
Aussen-T/F 2001 18-04-2016 22:40:00 6.6 C 78 % 3.05 C
2002 18-04-2016 22:45:00 6.4 C 78 % 2.85 C
2003 18-04-2016 22:50:00 6.3 C 79 % 2.93 C
2004 18-04-2016 22:55:00 6.3 C 79 % 2.93 C
2005 18-04-2016 23:00:00 6.2 C 80 % 3.01 C
2006 18-04-2016 23:05:00 6.2 C 80 % 3.01 C
2007 18-04-2016 23:10:00 6.1 C 79 % 2.74 C
2008 18-04-2016 23:15:00 6 C 79 % 2.64 C
2009 18-04-2016 23:20:00 5.9 C 79 % 2.54 C
2010 18-04-2016 23:25:00 5.9 C 79 % 2.54 C
2011 18-04-2016 23:30:00 5.9 C 79 % 2.54 C
2012 18-04-2016 23:35:00 5.8 C 79 % 2.45 C
2013 18-04-2016 23:40:00 5.8 C 79 % 2.45 C
2014 18-04-2016 23:45:00 5.8 C 80 % 2.62 C
2015 18-04-2016 23:50:00 5.7 C 81 % 2.7 C
2016 18-04-2016 23:55:00 5.7 C 81 % 2.7 C
2017 19-04-2016 00:00:00 5.7 C 81 % 2.7 C
2018 19-04-2016 00:05:00 5.6 C 81 % 2.6 C
2019 19-04-2016 00:10:00 5.5 C 81 % 2.51 C
2020 19-04-2016 00:15:00 5.4 C 81 % 2.41 C
2021 19-04-2016 00:20:00 5.3 C 81 % 2.31 C
2022 19-04-2016 00:25:00 5.3 C 81 % 2.31 C
2023 19-04-2016 00:30:00 5.3 C 82 % 2.48 C
2024 19-04-2016 00:35:00 5.3 C 82 % 2.48 C
2025 19-04-2016 00:40:00 5.3 C 82 % 2.48 C
Sensor: Nr:Datum:Temp:Feuchte:Taupunkt:
Aussen-T/F 2026 19-04-2016 00:45:00 5.3 C 82 % 2.48 C
2027 19-04-2016 00:50:00 5.3 C 81 % 2.31 C
2028 19-04-2016 00:55:00 5.3 C 82 % 2.48 C
2029 19-04-2016 01:00:00 5.2 C 82 % 2.39 C
2030 19-04-2016 01:05:00 5.2 C 82 % 2.39 C
2031 19-04-2016 01:10:00 5.1 C 82 % 2.29 C
2032 19-04-2016 01:15:00 5.1 C 83 % 2.46 C
2033 19-04-2016 01:20:00 5 C 83 % 2.36 C
2034 19-04-2016 01:25:00 4.9 C 83 % 2.26 C
2035 19-04-2016 01:30:00 4.8 C 83 % 2.16 C
2036 19-04-2016 01:35:00 4.8 C 84 % 2.33 C
2037 19-04-2016 01:40:00 4.8 C 84 % 2.33 C
2038 19-04-2016 01:45:00 4.8 C 84 % 2.33 C
2039 19-04-2016 01:50:00 4.9 C 84 % 2.43 C
2040 19-04-2016 01:55:00 5.1 C 84 % 2.63 C
2041 19-04-2016 02:00:00 5.2 C 84 % 2.72 C
2042 19-04-2016 02:05:00 5.2 C 84 % 2.72 C
2043 19-04-2016 02:10:00 5.3 C 83 % 2.65 C
2044 19-04-2016 02:15:00 5.4 C 83 % 2.75 C
2045 19-04-2016 02:20:00 5.5 C 82 % 2.68 C
2046 19-04-2016 02:25:00 5.6 C 82 % 2.78 C
2047 19-04-2016 02:30:00 5.6 C 82 % 2.78 C
2048 19-04-2016 02:35:00 5.7 C 82 % 2.87 C
2049 19-04-2016 02:40:00 5.7 C 82 % 2.87 C
2050 19-04-2016 02:45:00 5.7 C 81 % 2.7 C
Sensor: Nr:Datum:Temp:Feuchte:Taupunkt:
Aussen-T/F 2051 19-04-2016 02:50:00 5.8 C 81 % 2.8 C
2052 19-04-2016 02:55:00 5.8 C 81 % 2.8 C
2053 19-04-2016 03:00:00 5.9 C 81 % 2.9 C
2054 19-04-2016 03:05:00 5.9 C 81 % 2.9 C
2055 19-04-2016 03:10:00 5.9 C 81 % 2.9 C
2056 19-04-2016 03:15:00 5.9 C 81 % 2.9 C
2057 19-04-2016 03:20:00 5.9 C 80 % 2.72 C
2058 19-04-2016 03:25:00 5.9 C 81 % 2.9 C
2059 19-04-2016 03:30:00 5.8 C 81 % 2.8 C
2060 19-04-2016 03:35:00 5.8 C 81 % 2.8 C
2061 19-04-2016 03:40:00 5.8 C 81 % 2.8 C
2062 19-04-2016 03:45:00 5.8 C 81 % 2.8 C
2063 19-04-2016 03:50:00 5.8 C 82 % 2.97 C
2064 19-04-2016 03:55:00 5.7 C 81 % 2.7 C
2065 19-04-2016 04:00:00 5.6 C 82 % 2.78 C
2066 19-04-2016 04:05:00 5.5 C 82 % 2.68 C
2067 19-04-2016 04:10:00 5.4 C 82 % 2.58 C
2068 19-04-2016 04:15:00 5.3 C 83 % 2.65 C
2069 19-04-2016 04:20:00 5.1 C 83 % 2.46 C
2070 19-04-2016 04:25:00 4.9 C 84 % 2.43 C
2071 19-04-2016 04:30:00 4.8 C 84 % 2.33 C
2072 19-04-2016 04:35:00 4.7 C 85 % 2.4 C
2073 19-04-2016 04:40:00 4.6 C 85 % 2.3 C
2074 19-04-2016 04:45:00 4.6 C 86 % 2.47 C
2075 19-04-2016 04:50:00 4.4 C 86 % 2.27 C
Sensor: Nr:Datum:Temp:Feuchte:Taupunkt:
Aussen-T/F 2076 19-04-2016 04:55:00 4.4 C 86 % 2.27 C
2077 19-04-2016 05:00:00 4.3 C 86 % 2.17 C
2078 19-04-2016 05:05:00 4.2 C 86 % 2.07 C
2079 19-04-2016 05:10:00 4.2 C 86 % 2.07 C
2080 19-04-2016 05:15:00 4.2 C 86 % 2.07 C
2081 19-04-2016 05:20:00 4.1 C 86 % 1.97 C
2082 19-04-2016 05:25:00 4 C 86 % 1.88 C
2083 19-04-2016 05:30:00 3.9 C 86 % 1.78 C
2084 19-04-2016 05:35:00 3.8 C 87 % 1.84 C
2085 19-04-2016 05:40:00 3.8 C 87 % 1.84 C
2086 19-04-2016 05:45:00 3.8 C 87 % 1.84 C
2087 19-04-2016 05:50:00 3.9 C 88 % 2.1 C
2088 19-04-2016 05:55:00 4 C 87 % 2.04 C
2089 19-04-2016 06:00:00 4.1 C 87 % 2.14 C
2090 19-04-2016 06:05:00 4.2 C 87 % 2.23 C
2091 19-04-2016 06:10:00 4.2 C 86 % 2.07 C
2092 19-04-2016 06:15:00 4.3 C 86 % 2.17 C
2093 19-04-2016 06:20:00 4.3 C 86 % 2.17 C
2094 19-04-2016 06:25:00 4.3 C 86 % 2.17 C
2095 19-04-2016 06:30:00 4.3 C 86 % 2.17 C
2096 19-04-2016 06:35:00 4.4 C 86 % 2.27 C
2097 19-04-2016 06:40:00 4.4 C 86 % 2.27 C
2098 19-04-2016 06:45:00 4.4 C 86 % 2.27 C
2099 19-04-2016 06:50:00 4.4 C 86 % 2.27 C
2100 19-04-2016 06:55:00 4.5 C 86 % 2.37 C
Sensor: Nr:Datum:Temp:Feuchte:Taupunkt:
Aussen-T/F 2101 19-04-2016 07:00:00 4.5 C 86 % 2.37 C
2102 19-04-2016 07:05:00 4.6 C 86 % 2.47 C
2103 19-04-2016 07:10:00 4.6 C 86 % 2.47 C
2104 19-04-2016 07:15:00 4.7 C 86 % 2.56 C
2105 19-04-2016 07:20:00 4.8 C 86 % 2.66 C
2106 19-04-2016 07:25:00 4.8 C 86 % 2.66 C
2107 19-04-2016 07:30:00 4.9 C 85 % 2.6 C
2108 19-04-2016 07:35:00 5 C 84 % 2.53 C
2109 19-04-2016 07:40:00 5.1 C 84 % 2.63 C
2110 19-04-2016 07:45:00 5.1 C 85 % 2.79 C
2111 19-04-2016 07:50:00 5.1 C 84 % 2.63 C
2112 19-04-2016 07:55:00 5.2 C 84 % 2.72 C
2113 19-04-2016 08:00:00 5.2 C 84 % 2.72 C
2114 19-04-2016 08:05:00 5.3 C 84 % 2.82 C
2115 19-04-2016 08:10:00 5.4 C 84 % 2.92 C
2116 19-04-2016 08:15:00 5.5 C 85 % 3.18 C
2117 19-04-2016 08:20:00 5.7 C 85 % 3.38 C
2118 19-04-2016 08:25:00 5.8 C 84 % 3.31 C
2119 19-04-2016 08:30:00 5.9 C 84 % 3.41 C
2120 19-04-2016 08:35:00 6 C 84 % 3.51 C
2121 19-04-2016 08:40:00 6.2 C 83 % 3.53 C
2122 19-04-2016 08:45:00 6.3 C 83 % 3.63 C
2123 19-04-2016 08:50:00 6.3 C 82 % 3.46 C
2124 19-04-2016 08:55:00 6.5 C 81 % 3.48 C
2125 19-04-2016 09:00:00 6.7 C 81 % 3.68 C
Sensor: Nr:Datum:Temp:Feuchte:Taupunkt:
Aussen-T/F 2126 19-04-2016 09:05:00 6.8 C 80 % 3.6 C
2127 19-04-2016 09:10:00 7 C 80 % 3.79 C
2128 19-04-2016 09:15:00 7.1 C 79 % 3.71 C
2129 19-04-2016 09:20:00 7.2 C 79 % 3.81 C
2130 19-04-2016 09:25:00 7.3 C 79 % 3.91 C
2131 19-04-2016 09:30:00 7.5 C 79 % 4.1 C
2132 19-04-2016 09:35:00 7.7 C 78 % 4.11 C
2133 19-04-2016 09:40:00 7.8 C 78 % 4.21 C
2134 19-04-2016 09:45:00 7.9 C 77 % 4.12 C
2135 19-04-2016 09:50:00 8.1 C 77 % 4.32 C
2136 19-04-2016 09:55:00 8.2 C 77 % 4.42 C
2137 19-04-2016 10:00:00 8.4 C 76 % 4.42 C
2138 19-04-2016 10:05:00 8.6 C 76 % 4.62 C
2139 19-04-2016 10:10:00 8.7 C 74 % 4.33 C
2140 19-04-2016 10:15:00 8.8 C 74 % 4.43 C
2141 19-04-2016 10:20:00 8.9 C 74 % 4.53 C
2142 19-04-2016 10:25:00 9 C 73 % 4.43 C
2143 19-04-2016 10:30:00 9.2 C 73 % 4.62 C
2144 19-04-2016 10:35:00 9.3 C 72 % 4.52 C
2145 19-04-2016 10:40:00 9.4 C 71 % 4.42 C
2146 19-04-2016 10:45:00 9.4 C 71 % 4.42 C
2147 19-04-2016 10:50:00 9.6 C 71 % 4.61 C
2148 19-04-2016 10:55:00 9.7 C 71 % 4.7 C
2149 19-04-2016 11:00:00 9.7 C 70 % 4.5 C
2150 19-04-2016 11:05:00 9.8 C 71 % 4.8 C
Sensor: Nr:Datum:Temp:Feuchte:Taupunkt:
Aussen-T/F 2151 19-04-2016 11:10:00 10 C 71 % 4.99 C
2152 19-04-2016 11:15:00 10.2 C 69 % 4.78 C
2153 19-04-2016 11:20:00 10.4 C 70 % 5.17 C
2154 19-04-2016 11:25:00 10.7 C 69 % 5.25 C
2155 19-04-2016 11:30:00 10.9 C 68 % 5.23 C
2156 19-04-2016 11:35:00 11 C 68 % 5.33 C
2157 19-04-2016 11:40:00 11.1 C 68 % 5.43 C
2158 19-04-2016 11:45:00 11.2 C 68 % 5.52 C
2159 19-04-2016 11:50:00 11.4 C 66 % 5.28 C
2160 19-04-2016 11:55:00 11.6 C 68 % 5.9 C
2161 19-04-2016 12:00:00 11.8 C 65 % 5.44 C
2162 19-04-2016 12:05:00 12 C 65 % 5.63 C
2163 19-04-2016 12:10:00 12.2 C 64 % 5.6 C
2164 19-04-2016 12:15:00 12.3 C 64 % 5.69 C
2165 19-04-2016 12:20:00 12.6 C 64 % 5.98 C
2166 19-04-2016 12:25:00 12.7 C 62 % 5.62 C
2167 19-04-2016 12:30:00 12.7 C 62 % 5.62 C
2168 19-04-2016 12:35:00 12.6 C 63 % 5.75 C
2169 19-04-2016 12:40:00 12.4 C 62 % 5.33 C
2170 19-04-2016 12:45:00 12.3 C 64 % 5.69 C
2171 19-04-2016 12:50:00 12.2 C 64 % 5.6 C
2172 19-04-2016 12:55:00 12.2 C 64 % 5.6 C
2173 19-04-2016 13:00:00 12.3 C 63 % 5.47 C
2174 19-04-2016 13:05:00 12.3 C 64 % 5.69 C
2175 19-04-2016 13:10:00 12.5 C 62 % 5.43 C
Sensor: Nr:Datum:Temp:Feuchte:Taupunkt:
Aussen-T/F 2176 19-04-2016 13:15:00 12.7 C 61 % 5.38 C
2177 19-04-2016 13:20:00 12.8 C 60 % 5.24 C
2178 19-04-2016 13:25:00 12.9 C 61 % 5.57 C
2179 19-04-2016 13:30:00 13 C 61 % 5.66 C
2180 19-04-2016 13:35:00 12.9 C 60 % 5.33 C
2181 19-04-2016 13:40:00 12.9 C 61 % 5.57 C
2182 19-04-2016 13:45:00 12.9 C 62 % 5.8 C
2183 19-04-2016 13:50:00 12.9 C 62 % 5.8 C
2184 19-04-2016 13:55:00 12.8 C 61 % 5.48 C
2185 19-04-2016 14:00:00 12.8 C 61 % 5.48 C
2186 19-04-2016 14:05:00 12.7 C 61 % 5.38 C
2187 19-04-2016 14:10:00 12.7 C 61 % 5.38 C
2188 19-04-2016 14:15:00 12.6 C 62 % 5.52 C
2189 19-04-2016 14:20:00 12.4 C 62 % 5.33 C
2190 19-04-2016 14:25:00 12.3 C 63 % 5.47 C
2191 19-04-2016 14:30:00 12.2 C 61 % 4.91 C
2192 19-04-2016 14:35:00 12.2 C 61 % 4.91 C
2193 19-04-2016 14:40:00 12.2 C 62 % 5.14 C
2194 19-04-2016 14:45:00 12.3 C 62 % 5.24 C
2195 19-04-2016 14:50:00 12.5 C 60 % 4.96 C
2196 19-04-2016 14:55:00 12.6 C 59 % 4.81 C
2197 19-04-2016 15:00:00 12.7 C 59 % 4.9 C
2198 19-04-2016 15:05:00 12.7 C 59 % 4.9 C
2199 19-04-2016 15:10:00 12.8 C 60 % 5.24 C
2200 19-04-2016 15:15:00 12.9 C 59 % 5.09 C
Sensor: Nr:Datum:Temp:Feuchte:Taupunkt:
Aussen-T/F 2201 19-04-2016 15:20:00 13.1 C 59 % 5.28 C
2202 19-04-2016 15:25:00 13.3 C 60 % 5.71 C
2203 19-04-2016 15:30:00 13.6 C 59 % 5.75 C
2204 19-04-2016 15:35:00 13.7 C 56 % 5.09 C
2205 19-04-2016 15:40:00 13.8 C 55 % 4.93 C
2206 19-04-2016 15:45:00 13.9 C 55 % 5.02 C
2207 19-04-2016 15:50:00 14 C 53 % 4.58 C
2208 19-04-2016 15:55:00 13.9 C 53 % 4.49 C
2209 19-04-2016 16:00:00 13.9 C 54 % 4.76 C
2210 19-04-2016 16:05:00 13.8 C 54 % 4.66 C
2211 19-04-2016 16:10:00 13.8 C 54 % 4.66 C
2212 19-04-2016 16:15:00 13.8 C 54 % 4.66 C
2213 19-04-2016 16:20:00 13.8 C 53 % 4.4 C
2214 19-04-2016 16:25:00 13.8 C 52 % 4.13 C
2215 19-04-2016 16:30:00 13.9 C 54 % 4.76 C
2216 19-04-2016 16:35:00 14.3 C 53 % 4.86 C
2217 19-04-2016 16:40:00 14.4 C 51 % 4.4 C
2218 19-04-2016 16:45:00 14.4 C 53 % 4.95 C
2219 19-04-2016 16:50:00 14.4 C 52 % 4.68 C
2220 19-04-2016 16:55:00 14.2 C 53 % 4.77 C
2221 19-04-2016 17:00:00 14.1 C 52 % 4.4 C
2222 19-04-2016 17:05:00 13.9 C 54 % 4.76 C
2223 19-04-2016 17:10:00 13.8 C 54 % 4.66 C
2224 19-04-2016 17:15:00 13.7 C 54 % 4.57 C
2225 19-04-2016 17:20:00 13.6 C 55 % 4.74 C
Sensor: Nr:Datum:Temp:Feuchte:Taupunkt:
Aussen-T/F 2226 19-04-2016 17:25:00 13.4 C 56 % 4.81 C
2227 19-04-2016 17:30:00 13.4 C 56 % 4.81 C
2228 19-04-2016 17:35:00 13.2 C 57 % 4.88 C
2229 19-04-2016 17:40:00 13.2 C 58 % 5.13 C
2230 19-04-2016 17:45:00 13.2 C 57 % 4.88 C
2231 19-04-2016 17:50:00 13.2 C 57 % 4.88 C
2232 19-04-2016 17:55:00 13.2 C 57 % 4.88 C
2233 19-04-2016 18:00:00 13.2 C 57 % 4.88 C
2234 19-04-2016 18:05:00 13.2 C 58 % 5.13 C
2235 19-04-2016 18:10:00 13.3 C 57 % 4.97 C
2236 19-04-2016 18:15:00 13.4 C 56 % 4.81 C
2237 19-04-2016 18:20:00 13.7 C 54 % 4.57 C
2238 19-04-2016 18:25:00 13.8 C 54 % 4.66 C
2239 19-04-2016 18:30:00 13.8 C 53 % 4.4 C
2240 19-04-2016 18:35:00 13.9 C 54 % 4.76 C
2241 19-04-2016 18:40:00 13.9 C 55 % 5.02 C
2242 19-04-2016 18:45:00 13.6 C 55 % 4.74 C
2243 19-04-2016 18:50:00 13.6 C 57 % 5.25 C
2244 19-04-2016 18:55:00 13.5 C 57 % 5.16 C
2245 19-04-2016 19:00:00 13.3 C 57 % 4.97 C
2246 19-04-2016 19:05:00 13.2 C 58 % 5.13 C
2247 19-04-2016 19:10:00 13.3 C 57 % 4.97 C
2248 19-04-2016 19:15:00 13.3 C 57 % 4.97 C
2249 19-04-2016 19:20:00 13.5 C 58 % 5.41 C
2250 19-04-2016 19:25:00 13.7 C 57 % 5.35 C
Sensor: Nr:Datum:Temp:Feuchte:Taupunkt:
Aussen-T/F 2251 19-04-2016 19:30:00 13.6 C 58 % 5.5 C
2252 19-04-2016 19:35:00 13.3 C 58 % 5.22 C
2253 19-04-2016 19:40:00 13.3 C 58 % 5.22 C
2254 19-04-2016 19:45:00 13.2 C 58 % 5.13 C
2255 19-04-2016 19:50:00 13.1 C 58 % 5.03 C
2256 19-04-2016 19:55:00 13.1 C 58 % 5.03 C
2257 19-04-2016 20:00:00 13.1 C 59 % 5.28 C
2258 19-04-2016 20:05:00 13 C 59 % 5.19 C
2259 19-04-2016 20:10:00 12.9 C 63 % 6.04 C
2260 19-04-2016 20:15:00 12.7 C 63 % 5.85 C
2261 19-04-2016 20:20:00 12.2 C 64 % 5.6 C
2262 19-04-2016 20:25:00 11.8 C 66 % 5.66 C
2263 19-04-2016 20:30:00 11.4 C 69 % 5.92 C
2264 19-04-2016 20:35:00 11 C 69 % 5.54 C
2265 19-04-2016 20:40:00 10.7 C 70 % 5.46 C
2266 19-04-2016 20:45:00 10.3 C 72 % 5.48 C
2267 19-04-2016 20:50:00 10.1 C 74 % 5.68 C
2268 19-04-2016 20:55:00 9.8 C 72 % 5 C
2269 19-04-2016 21:00:00 9.6 C 74 % 5.2 C
2270 19-04-2016 21:05:00 9.4 C 74 % 5.01 C
2271 19-04-2016 21:10:00 9.2 C 75 % 5.01 C
2272 19-04-2016 21:15:00 9.1 C 74 % 4.72 C
2273 19-04-2016 21:20:00 9 C 75 % 4.81 C
2274 19-04-2016 21:25:00 8.9 C 75 % 4.72 C
2275 19-04-2016 21:30:00 8.8 C 75 % 4.62 C
Sensor: Nr:Datum:Temp:Feuchte:Taupunkt:
Aussen-T/F 2276 19-04-2016 21:35:00 8.7 C 74 % 4.33 C
2277 19-04-2016 21:40:00 8.7 C 76 % 4.71 C
2278 19-04-2016 21:45:00 8.6 C 76 % 4.62 C
2279 19-04-2016 21:50:00 8.4 C 76 % 4.42 C
2280 19-04-2016 21:55:00 8.3 C 76 % 4.33 C
2281 19-04-2016 22:00:00 8.2 C 77 % 4.42 C
2282 19-04-2016 22:05:00 8.1 C 78 % 4.5 C
2283 19-04-2016 22:10:00 7.9 C 79 % 4.49 C
2284 19-04-2016 22:15:00 7.7 C 79 % 4.3 C
2285 19-04-2016 22:20:00 7.6 C 80 % 4.38 C
2286 19-04-2016 22:25:00 7.4 C 80 % 4.18 C
2287 19-04-2016 22:30:00 7.2 C 81 % 4.16 C
2288 19-04-2016 22:35:00 7 C 81 % 3.97 C
2289 19-04-2016 22:40:00 6.8 C 82 % 3.95 C
2290 19-04-2016 22:45:00 6.7 C 83 % 4.02 C
2291 19-04-2016 22:50:00 6.6 C 83 % 3.92 C
2292 19-04-2016 22:55:00 6.4 C 84 % 3.9 C
2293 19-04-2016 23:00:00 6.3 C 83 % 3.63 C
2294 19-04-2016 23:05:00 6.2 C 84 % 3.7 C
2295 19-04-2016 23:10:00 6.2 C 84 % 3.7 C
2296 19-04-2016 23:15:00 6.2 C 84 % 3.7 C
2297 19-04-2016 23:20:00 6.1 C 84 % 3.61 C
2298 19-04-2016 23:25:00 6 C 84 % 3.51 C
2299 19-04-2016 23:30:00 6 C 84 % 3.51 C
2300 19-04-2016 23:35:00 5.9 C 85 % 3.58 C
Sensor: Nr:Datum:Temp:Feuchte:Taupunkt:
Aussen-T/F 2301 19-04-2016 23:40:00 5.9 C 84 % 3.41 C
2302 19-04-2016 23:45:00 5.9 C 84 % 3.41 C
2303 19-04-2016 23:50:00 5.8 C 84 % 3.31 C
2304 19-04-2016 23:55:00 5.7 C 84 % 3.21 C
2305 20-04-2016 00:00:00 5.6 C 85 % 3.28 C
2306 20-04-2016 00:05:00 5.6 C 85 % 3.28 C
2307 20-04-2016 00:10:00 5.4 C 85 % 3.09 C
2308 20-04-2016 00:15:00 5.4 C 85 % 3.09 C
2309 20-04-2016 00:20:00 5.3 C 86 % 3.15 C
2310 20-04-2016 00:25:00 5.3 C 86 % 3.15 C
2311 20-04-2016 00:30:00 5.2 C 86 % 3.05 C
2312 20-04-2016 00:35:00 5.2 C 87 % 3.22 C
2313 20-04-2016 00:40:00 5.1 C 87 % 3.12 C
2314 20-04-2016 00:45:00 5 C 87 % 3.02 C
2315 20-04-2016 00:50:00 4.9 C 87 % 2.92 C
2316 20-04-2016 00:55:00 4.9 C 88 % 3.08 C
2317 20-04-2016 01:00:00 4.8 C 88 % 2.99 C
2318 20-04-2016 01:05:00 4.7 C 88 % 2.89 C
2319 20-04-2016 01:10:00 4.6 C 88 % 2.79 C
2320 20-04-2016 01:15:00 4.6 C 89 % 2.95 C
2321 20-04-2016 01:20:00 4.5 C 89 % 2.85 C
2322 20-04-2016 01:25:00 4.6 C 90 % 3.1 C
2323 20-04-2016 01:30:00 4.6 C 90 % 3.1 C
2324 20-04-2016 01:35:00 4.7 C 90 % 3.2 C
2325 20-04-2016 01:40:00 4.8 C 91 % 3.46 C
Sensor: Nr:Datum:Temp:Feuchte:Taupunkt:
Aussen-T/F 2326 20-04-2016 01:45:00 4.9 C 90 % 3.4 C
2327 20-04-2016 01:50:00 5 C 90 % 3.5 C
2328 20-04-2016 01:55:00 5.1 C 90 % 3.6 C
2329 20-04-2016 02:00:00 5.2 C 90 % 3.7 C
2330 20-04-2016 02:05:00 5.3 C 90 % 3.8 C
2331 20-04-2016 02:10:00 5.3 C 90 % 3.8 C
2332 20-04-2016 02:15:00 5.4 C 90 % 3.89 C
2333 20-04-2016 02:20:00 5.5 C 89 % 3.84 C
2334 20-04-2016 02:25:00 5.5 C 89 % 3.84 C
2335 20-04-2016 02:30:00 5.6 C 89 % 3.93 C
2336 20-04-2016 02:35:00 5.6 C 88 % 3.77 C
2337 20-04-2016 02:40:00 5.6 C 88 % 3.77 C
2338 20-04-2016 02:45:00 5.6 C 88 % 3.77 C
2339 20-04-2016 02:50:00 5.6 C 87 % 3.61 C
2340 20-04-2016 02:55:00 5.5 C 86 % 3.35 C
2341 20-04-2016 03:00:00 5.4 C 86 % 3.25 C
2342 20-04-2016 03:05:00 5.4 C 86 % 3.25 C
2343 20-04-2016 03:10:00 5.4 C 85 % 3.09 C
2344 20-04-2016 03:15:00 5.5 C 85 % 3.18 C
2345 20-04-2016 03:20:00 5.5 C 85 % 3.18 C
2346 20-04-2016 03:25:00 5.5 C 86 % 3.35 C
2347 20-04-2016 03:30:00 5.4 C 85 % 3.09 C
2348 20-04-2016 03:35:00 5.4 C 86 % 3.25 C
2349 20-04-2016 03:40:00 5.4 C 86 % 3.25 C
2350 20-04-2016 03:45:00 5.3 C 86 % 3.15 C
Sensor: Nr:Datum:Temp:Feuchte:Taupunkt:
Aussen-T/F 2351 20-04-2016 03:50:00 5.3 C 86 % 3.15 C
2352 20-04-2016 03:55:00 5.2 C 86 % 3.05 C
2353 20-04-2016 04:00:00 5.1 C 85 % 2.79 C
2354 20-04-2016 04:05:00 4.9 C 86 % 2.76 C
2355 20-04-2016 04:10:00 4.9 C 86 % 2.76 C
2356 20-04-2016 04:15:00 4.8 C 87 % 2.82 C
2357 20-04-2016 04:20:00 4.8 C 87 % 2.82 C
2358 20-04-2016 04:25:00 4.6 C 87 % 2.63 C
2359 20-04-2016 04:30:00 4.5 C 87 % 2.53 C
2360 20-04-2016 04:35:00 4.4 C 87 % 2.43 C
2361 20-04-2016 04:40:00 4.2 C 87 % 2.23 C
2362 20-04-2016 04:45:00 4.1 C 87 % 2.14 C
2363 20-04-2016 04:50:00 3.8 C 87 % 1.84 C
2364 20-04-2016 04:55:00 3.7 C 88 % 1.9 C
2365 20-04-2016 05:00:00 3.7 C 89 % 2.06 C
2366 20-04-2016 05:05:00 3.6 C 89 % 1.96 C
2367 20-04-2016 05:10:00 3.5 C 89 % 1.86 C
2368 20-04-2016 05:15:00 3.4 C 89 % 1.76 C
2369 20-04-2016 05:20:00 3.3 C 89 % 1.67 C
2370 20-04-2016 05:25:00 3.2 C 89 % 1.57 C
2371 20-04-2016 05:30:00 3.2 C 90 % 1.72 C
2372 20-04-2016 05:35:00 3.1 C 90 % 1.62 C
2373 20-04-2016 05:40:00 3 C 90 % 1.52 C
2374 20-04-2016 05:45:00 3 C 90 % 1.52 C
2375 20-04-2016 05:50:00 2.9 C 90 % 1.43 C
Sensor: Nr:Datum:Temp:Feuchte:Taupunkt:
Aussen-T/F 2376 20-04-2016 05:55:00 2.8 C 90 % 1.33 C
2377 20-04-2016 06:00:00 2.7 C 90 % 1.23 C
2378 20-04-2016 06:05:00 2.6 C 91 % 1.28 C
2379 20-04-2016 06:10:00 2.5 C 91 % 1.18 C
2380 20-04-2016 06:15:00 2.5 C 91 % 1.18 C
2381 20-04-2016 06:20:00 2.4 C 91 % 1.08 C
2382 20-04-2016 06:25:00 2.4 C 92 % 1.24 C
2383 20-04-2016 06:30:00 2.3 C 91 % 0.99 C
2384 20-04-2016 06:35:00 2.2 C 92 % 1.04 C
2385 20-04-2016 06:40:00 2.2 C 92 % 1.04 C
2386 20-04-2016 06:45:00 2.2 C 92 % 1.04 C
2387 20-04-2016 06:50:00 2.2 C 92 % 1.04 C
2388 20-04-2016 06:55:00 2.1 C 92 % 0.94 C
2389 20-04-2016 07:00:00 2.1 C 93 % 1.09 C
2390 20-04-2016 07:05:00 2.1 C 93 % 1.09 C
2391 20-04-2016 07:10:00 2.1 C 93 % 1.09 C
2392 20-04-2016 07:15:00 2.1 C 93 % 1.09 C
2393 20-04-2016 07:20:00 2.1 C 93 % 1.09 C
2394 20-04-2016 07:25:00 2.2 C 93 % 1.19 C
2395 20-04-2016 07:30:00 2.2 C 93 % 1.19 C
2396 20-04-2016 07:35:00 2.2 C 93 % 1.19 C
2397 20-04-2016 07:40:00 2.2 C 93 % 1.19 C
2398 20-04-2016 07:45:00 2.2 C 94 % 1.34 C
2399 20-04-2016 07:50:00 2.2 C 94 % 1.34 C
2400 20-04-2016 07:55:00 2.3 C 94 % 1.44 C
Sensor: Nr:Datum:Temp:Feuchte:Taupunkt:
Aussen-T/F 2401 20-04-2016 08:00:00 2.4 C 94 % 1.54 C
2402 20-04-2016 08:05:00 2.5 C 94 % 1.63 C
2403 20-04-2016 08:10:00 2.6 C 94 % 1.73 C
2404 20-04-2016 08:15:00 2.7 C 94 % 1.83 C
2405 20-04-2016 08:20:00 2.8 C 94 % 1.93 C
2406 20-04-2016 08:25:00 2.9 C 94 % 2.03 C
2407 20-04-2016 08:30:00 3.1 C 94 % 2.23 C
2408 20-04-2016 08:35:00 3.1 C 94 % 2.23 C
2409 20-04-2016 08:40:00 3.2 C 94 % 2.33 C
2410 20-04-2016 08:45:00 3.2 C 94 % 2.33 C
2411 20-04-2016 08:50:00 3.3 C 94 % 2.43 C
2412 20-04-2016 08:55:00 3.4 C 94 % 2.53 C
2413 20-04-2016 09:00:00 3.5 C 93 % 2.48 C
2414 20-04-2016 09:05:00 3.7 C 93 % 2.68 C
2415 20-04-2016 09:10:00 3.8 C 93 % 2.77 C
2416 20-04-2016 09:15:00 3.9 C 93 % 2.87 C
2417 20-04-2016 09:20:00 4.1 C 93 % 3.07 C
2418 20-04-2016 09:25:00 4.2 C 93 % 3.17 C
2419 20-04-2016 09:30:00 4.3 C 93 % 3.27 C
2420 20-04-2016 09:35:00 4.6 C 93 % 3.57 C
2421 20-04-2016 09:40:00 4.7 C 93 % 3.67 C
2422 20-04-2016 09:45:00 4.9 C 93 % 3.87 C
2423 20-04-2016 09:50:00 5.2 C 92 % 4.01 C
2424 20-04-2016 09:55:00 5.5 C 91 % 4.15 C
2425 20-04-2016 10:00:00 6 C 88 % 4.17 C
Sensor: Nr:Datum:Temp:Feuchte:Taupunkt:
Aussen-T/F 2426 20-04-2016 10:05:00 6.3 C 85 % 3.97 C
2427 20-04-2016 10:10:00 6.6 C 83 % 3.92 C
2428 20-04-2016 10:15:00 7 C 82 % 4.14 C
2429 20-04-2016 10:20:00 7.6 C 77 % 3.83 C
2430 20-04-2016 10:25:00 7.9 C 76 % 3.94 C
2431 20-04-2016 10:30:00 8.2 C 76 % 4.23 C
2432 20-04-2016 10:35:00 8.4 C 74 % 4.04 C
2433 20-04-2016 10:40:00 8.6 C 74 % 4.24 C
2434 20-04-2016 10:45:00 8.8 C 72 % 4.04 C
2435 20-04-2016 10:50:00 9.1 C 71 % 4.13 C
2436 20-04-2016 10:55:00 9.2 C 71 % 4.22 C
2437 20-04-2016 11:00:00 9.4 C 68 % 3.8 C
2438 20-04-2016 11:05:00 9.6 C 68 % 3.99 C
2439 20-04-2016 11:10:00 9.7 C 66 % 3.67 C
2440 20-04-2016 11:15:00 9.8 C 66 % 3.76 C
2441 20-04-2016 11:20:00 9.9 C 66 % 3.86 C
2442 20-04-2016 11:25:00 10 C 65 % 3.73 C
2443 20-04-2016 11:30:00 10.1 C 64 % 3.61 C
2444 20-04-2016 11:35:00 10.2 C 63 % 3.48 C
2445 20-04-2016 11:40:00 10.2 C 63 % 3.48 C
2446 20-04-2016 11:45:00 10.3 C 64 % 3.8 C
2447 20-04-2016 11:50:00 10.5 C 63 % 3.77 C
2448 20-04-2016 11:55:00 10.7 C 63 % 3.95 C
2449 20-04-2016 12:00:00 10.8 C 62 % 3.82 C
2450 20-04-2016 12:05:00 10.8 C 62 % 3.82 C
Sensor: Nr:Datum:Temp:Feuchte:Taupunkt:
Aussen-T/F 2451 20-04-2016 12:10:00 10.9 C 61 % 3.69 C
2452 20-04-2016 12:15:00 11 C 61 % 3.78 C
2453 20-04-2016 12:20:00 11.1 C 61 % 3.87 C
2454 20-04-2016 12:25:00 11.1 C 60 % 3.64 C
2455 20-04-2016 12:30:00 11.3 C 59 % 3.59 C
2456 20-04-2016 12:35:00 11.6 C 58 % 3.63 C
2457 20-04-2016 12:40:00 11.8 C 57 % 3.57 C
2458 20-04-2016 12:45:00 11.8 C 54 % 2.81 C
2459 20-04-2016 12:50:00 11.7 C 55 % 2.97 C
2460 20-04-2016 12:55:00 11.8 C 55 % 3.07 C
2461 20-04-2016 13:00:00 11.9 C 54 % 2.9 C
2462 20-04-2016 13:05:00 12 C 53 % 2.73 C
2463 20-04-2016 13:10:00 12.1 C 51 % 2.28 C
2464 20-04-2016 13:15:00 12.2 C 51 % 2.37 C
2465 20-04-2016 13:20:00 12.4 C 50 % 2.28 C
2466 20-04-2016 13:25:00 12.6 C 51 % 2.74 C
2467 20-04-2016 13:30:00 12.7 C 50 % 2.56 C
2468 20-04-2016 13:35:00 12.7 C 49 % 2.27 C
2469 20-04-2016 13:40:00 12.8 C 49 % 2.37 C
2470 20-04-2016 13:45:00 12.9 C 50 % 2.74 C
2471 20-04-2016 13:50:00 13.1 C 48 % 2.35 C
2472 20-04-2016 13:55:00 13.2 C 47 % 2.15 C
2473 20-04-2016 14:00:00 13.3 C 47 % 2.24 C
2474 20-04-2016 14:05:00 13.4 C 45 % 1.72 C
2475 20-04-2016 14:10:00 13.4 C 46 % 2.03 C
Sensor: Nr:Datum:Temp:Feuchte:Taupunkt:
Aussen-T/F 2476 20-04-2016 14:15:00 13.4 C 44 % 1.41 C
2477 20-04-2016 14:20:00 13.5 C 43 % 1.18 C
2478 20-04-2016 14:25:00 13.8 C 41 % 0.79 C
2479 20-04-2016 14:30:00 14.2 C 39 % 0.46 C
2480 20-04-2016 14:35:00 14.3 C 38 % 0.19 C
2481 20-04-2016 14:40:00 14.3 C 37 % -0.17 C
2482 20-04-2016 14:45:00 14.5 C 37 % 0 C
2483 20-04-2016 14:50:00 14.6 C 35 % -0.67 C
2484 20-04-2016 14:55:00 14.7 C 35 % -0.58 C
2485 20-04-2016 15:00:00 14.8 C 36 % -0.11 C
2486 20-04-2016 15:05:00 15 C 35 % -0.32 C
2487 20-04-2016 15:10:00 15 C 33 % -1.12 C
2488 20-04-2016 15:15:00 15 C 36 % 0.07 C
2489 20-04-2016 15:20:00 15.2 C 35 % -0.14 C
2490 20-04-2016 15:25:00 15.4 C 35 % 0.04 C
2491 20-04-2016 15:30:00 15.4 C 33 % -0.77 C
2492 20-04-2016 15:35:00 15.4 C 34 % -0.36 C
2493 20-04-2016 15:40:00 15.6 C 34 % -0.19 C
2494 20-04-2016 15:45:00 15.6 C 34 % -0.19 C
2495 20-04-2016 15:50:00 15.9 C 34 % 0.08 C
2496 20-04-2016 15:55:00 16 C 31 % -1.1 C
2497 20-04-2016 16:00:00 16.1 C 32 % -0.58 C
2498 20-04-2016 16:05:00 16.1 C 32 % -0.58 C
2499 20-04-2016 16:10:00 16.2 C 35 % 0.74 C
2500 20-04-2016 16:15:00 16.4 C 35 % 0.92 C
Sensor: Nr:Datum:Temp:Feuchte:Taupunkt:
Aussen-T/F 2501 20-04-2016 16:20:00 16.7 C 31 % -0.49 C
2502 20-04-2016 16:25:00 17.2 C 32 % 0.38 C
2503 20-04-2016 16:30:00 17.4 C 30 % -0.33 C
2504 20-04-2016 16:35:00 17.4 C 29 % -0.8 C
2505 20-04-2016 16:40:00 17.4 C 30 % -0.33 C
2506 20-04-2016 16:45:00 17.3 C 30 % -0.42 C
2507 20-04-2016 16:50:00 17.3 C 31 % 0.03 C
2508 20-04-2016 16:55:00 17.4 C 30 % -0.33 C
2509 20-04-2016 17:00:00 17.4 C 30 % -0.33 C
2510 20-04-2016 17:05:00 17.3 C 30 % -0.42 C
2511 20-04-2016 17:10:00 17.4 C 31 % 0.12 C
2512 20-04-2016 17:15:00 17.3 C 30 % -0.42 C
2513 20-04-2016 17:20:00 17.3 C 30 % -0.42 C
2514 20-04-2016 17:25:00 17.3 C 30 % -0.42 C
2515 20-04-2016 17:30:00 17.3 C 30 % -0.42 C
2516 20-04-2016 17:35:00 17.4 C 28 % -1.27 C
2517 20-04-2016 17:40:00 17.3 C 30 % -0.42 C
2518 20-04-2016 17:45:00 17.4 C 30 % -0.33 C
2519 20-04-2016 17:50:00 17.4 C 28 % -1.27 C
2520 20-04-2016 17:55:00 17.4 C 28 % -1.27 C
2521 20-04-2016 18:00:00 17.3 C 28 % -1.36 C
2522 20-04-2016 18:05:00 17.5 C 28 % -1.19 C
2523 20-04-2016 18:10:00 17.6 C 27 % -1.6 C
2524 20-04-2016 18:15:00 17.3 C 31 % 0.03 C
2525 20-04-2016 18:20:00 17.5 C 28 % -1.19 C
Sensor: Nr:Datum:Temp:Feuchte:Taupunkt:
Aussen-T/F 2526 20-04-2016 18:25:00 17.6 C 29 % -0.62 C
2527 20-04-2016 18:30:00 17.5 C 31 % 0.2 C
2528 20-04-2016 18:35:00 17.4 C 29 % -0.8 C
2529 20-04-2016 18:40:00 17.4 C 30 % -0.33 C
2530 20-04-2016 18:45:00 17.6 C 29 % -0.62 C
2531 20-04-2016 18:50:00 17.5 C 31 % 0.2 C
2532 20-04-2016 18:55:00 17.7 C 31 % 0.38 C
2533 20-04-2016 19:00:00 17.7 C 29 % -0.54 C
2534 20-04-2016 19:05:00 17.7 C 31 % 0.38 C
2535 20-04-2016 19:10:00 17.8 C 30 % 0.01 C
2536 20-04-2016 19:15:00 17.8 C 29 % -0.45 C
2537 20-04-2016 19:20:00 17.7 C 30 % -0.07 C
2538 20-04-2016 19:25:00 17.4 C 30 % -0.33 C
2539 20-04-2016 19:30:00 16.9 C 31 % -0.32 C
2540 20-04-2016 19:35:00 16.7 C 30 % -0.94 C
2541 20-04-2016 19:40:00 16.4 C 31 % -0.75 C
2542 20-04-2016 19:45:00 16.3 C 32 % -0.4 C
2543 20-04-2016 19:50:00 16.2 C 39 % 2.25 C
2544 20-04-2016 19:55:00 16 C 42 % 3.11 C
2545 20-04-2016 20:00:00 15.8 C 45 % 3.9 C
2546 20-04-2016 20:05:00 15.4 C 45 % 3.54 C
2547 20-04-2016 20:10:00 14.9 C 47 % 3.7 C
2548 20-04-2016 20:15:00 14.3 C 49 % 3.74 C
2549 20-04-2016 20:20:00 13.7 C 51 % 3.76 C
2550 20-04-2016 20:25:00 13.1 C 53 % 3.75 C
Sensor: Nr:Datum:Temp:Feuchte:Taupunkt:
Aussen-T/F 2551 20-04-2016 20:30:00 12.6 C 54 % 3.55 C
2552 20-04-2016 20:35:00 12.2 C 55 % 3.44 C
2553 20-04-2016 20:40:00 11.9 C 55 % 3.16 C
2554 20-04-2016 20:45:00 11.7 C 55 % 2.97 C
2555 20-04-2016 20:50:00 11.5 C 54 % 2.53 C
2556 20-04-2016 20:55:00 11.3 C 55 % 2.6 C
2557 20-04-2016 21:00:00 11.1 C 57 % 2.92 C
2558 20-04-2016 21:05:00 10.9 C 58 % 2.97 C
2559 20-04-2016 21:10:00 10.8 C 56 % 2.39 C
2560 20-04-2016 21:15:00 10.6 C 57 % 2.45 C
2561 20-04-2016 21:20:00 10.5 C 59 % 2.84 C
2562 20-04-2016 21:25:00 10.3 C 59 % 2.65 C
2563 20-04-2016 21:30:00 10.2 C 59 % 2.56 C
2564 20-04-2016 21:35:00 10.1 C 60 % 2.7 C
2565 20-04-2016 21:40:00 10 C 62 % 3.07 C
2566 20-04-2016 21:45:00 9.9 C 63 % 3.2 C
2567 20-04-2016 21:50:00 9.7 C 64 % 3.23 C
2568 20-04-2016 21:55:00 9.5 C 63 % 2.82 C
2569 20-04-2016 22:00:00 9.4 C 64 % 2.95 C
2570 20-04-2016 22:05:00 9.3 C 64 % 2.85 C
2571 20-04-2016 22:10:00 9.3 C 65 % 3.07 C
2572 20-04-2016 22:15:00 9.2 C 65 % 2.97 C
2573 20-04-2016 22:20:00 9.1 C 64 % 2.66 C
2574 20-04-2016 22:25:00 9 C 66 % 3 C
2575 20-04-2016 22:30:00 8.9 C 67 % 3.12 C
Sensor: Nr:Datum:Temp:Feuchte:Taupunkt:
Aussen-T/F 2576 20-04-2016 22:35:00 8.8 C 69 % 3.44 C
2577 20-04-2016 22:40:00 8.6 C 70 % 3.45 C
2578 20-04-2016 22:45:00 8.4 C 68 % 2.85 C
2579 20-04-2016 22:50:00 8.3 C 69 % 2.96 C
2580 20-04-2016 22:55:00 8.2 C 70 % 3.06 C
2581 20-04-2016 23:00:00 8.1 C 71 % 3.17 C
2582 20-04-2016 23:05:00 7.8 C 69 % 2.48 C
2583 20-04-2016 23:10:00 7.7 C 70 % 2.58 C
2584 20-04-2016 23:15:00 7.4 C 70 % 2.3 C
2585 20-04-2016 23:20:00 7.2 C 71 % 2.3 C
2586 20-04-2016 23:25:00 7.1 C 71 % 2.21 C
2587 20-04-2016 23:30:00 6.9 C 71 % 2.02 C
2588 20-04-2016 23:35:00 6.8 C 72 % 2.12 C
2589 20-04-2016 23:40:00 6.7 C 72 % 2.02 C
2590 20-04-2016 23:45:00 6.8 C 73 % 2.31 C
2591 20-04-2016 23:50:00 6.8 C 74 % 2.5 C
2592 20-04-2016 23:55:00 6.8 C 75 % 2.69 C
2593 21-04-2016 00:00:00 6.7 C 75 % 2.59 C
2594 21-04-2016 00:05:00 6.6 C 74 % 2.31 C
2595 21-04-2016 00:10:00 6.6 C 76 % 2.68 C
2596 21-04-2016 00:15:00 6.4 C 75 % 2.3 C
2597 21-04-2016 00:20:00 6.4 C 76 % 2.49 C
2598 21-04-2016 00:25:00 6.4 C 77 % 2.67 C
2599 21-04-2016 00:30:00 6.3 C 77 % 2.57 C
2600 21-04-2016 00:35:00 6.2 C 75 % 2.11 C
Sensor: Nr:Datum:Temp:Feuchte:Taupunkt:
Aussen-T/F 2601 21-04-2016 00:40:00 6.2 C 76 % 2.29 C
2602 21-04-2016 00:45:00 6.1 C 76 % 2.2 C
2603 21-04-2016 00:50:00 5.9 C 76 % 2 C
2604 21-04-2016 00:55:00 5.8 C 77 % 2.09 C
2605 21-04-2016 01:00:00 5.8 C 78 % 2.27 C
2606 21-04-2016 01:05:00 5.8 C 78 % 2.27 C
2607 21-04-2016 01:10:00 5.8 C 78 % 2.27 C
2608 21-04-2016 01:15:00 5.8 C 77 % 2.09 C
2609 21-04-2016 01:20:00 5.6 C 78 % 2.07 C
2610 21-04-2016 01:25:00 5.4 C 78 % 1.88 C
2611 21-04-2016 01:30:00 5.3 C 79 % 1.96 C
2612 21-04-2016 01:35:00 5.2 C 79 % 1.86 C
2613 21-04-2016 01:40:00 5.2 C 79 % 1.86 C
2614 21-04-2016 01:45:00 5.1 C 80 % 1.94 C
2615 21-04-2016 01:50:00 5.1 C 81 % 2.12 C
2616 21-04-2016 01:55:00 5 C 81 % 2.02 C
2617 21-04-2016 02:00:00 4.9 C 81 % 1.92 C
2618 21-04-2016 02:05:00 4.9 C 82 % 2.09 C
2619 21-04-2016 02:10:00 4.8 C 81 % 1.82 C
2620 21-04-2016 02:15:00 4.8 C 82 % 1.99 C
2621 21-04-2016 02:20:00 4.9 C 83 % 2.26 C
2622 21-04-2016 02:25:00 4.8 C 82 % 1.99 C
2623 21-04-2016 02:30:00 4.8 C 83 % 2.16 C
2624 21-04-2016 02:35:00 4.8 C 82 % 1.99 C
2625 21-04-2016 02:40:00 4.8 C 82 % 1.99 C
Sensor: Nr:Datum:Temp:Feuchte:Taupunkt:
Aussen-T/F 2626 21-04-2016 02:45:00 4.7 C 82 % 1.9 C
2627 21-04-2016 02:50:00 4.6 C 82 % 1.8 C
2628 21-04-2016 02:55:00 4.4 C 83 % 1.77 C
2629 21-04-2016 03:00:00 4.4 C 83 % 1.77 C
2630 21-04-2016 03:05:00 4.3 C 83 % 1.67 C
2631 21-04-2016 03:10:00 4.2 C 83 % 1.58 C
2632 21-04-2016 03:15:00 4.2 C 84 % 1.74 C
2633 21-04-2016 03:20:00 4.1 C 84 % 1.65 C
2634 21-04-2016 03:25:00 4.1 C 84 % 1.65 C
2635 21-04-2016 03:30:00 4.1 C 84 % 1.65 C
2636 21-04-2016 03:35:00 4 C 84 % 1.55 C
2637 21-04-2016 03:40:00 3.9 C 84 % 1.45 C
2638 21-04-2016 03:45:00 3.8 C 84 % 1.35 C
2639 21-04-2016 03:50:00 3.7 C 85 % 1.42 C
2640 21-04-2016 03:55:00 3.7 C 86 % 1.58 C
2641 21-04-2016 04:00:00 3.7 C 86 % 1.58 C
2642 21-04-2016 04:05:00 3.6 C 86 % 1.48 C
2643 21-04-2016 04:10:00 3.6 C 86 % 1.48 C
2644 21-04-2016 04:15:00 3.5 C 87 % 1.55 C
2645 21-04-2016 04:20:00 3.5 C 87 % 1.55 C
2646 21-04-2016 04:25:00 3.4 C 87 % 1.45 C
2647 21-04-2016 04:30:00 3.4 C 87 % 1.45 C
2648 21-04-2016 04:35:00 3.3 C 87 % 1.35 C
2649 21-04-2016 04:40:00 3.3 C 87 % 1.35 C
2650 21-04-2016 04:45:00 3.2 C 87 % 1.25 C
Sensor: Nr:Datum:Temp:Feuchte:Taupunkt:
Aussen-T/F 2651 21-04-2016 04:50:00 3.1 C 87 % 1.15 C
2652 21-04-2016 04:55:00 3 C 88 % 1.21 C
2653 21-04-2016 05:00:00 2.9 C 88 % 1.11 C
2654 21-04-2016 05:05:00 2.9 C 88 % 1.11 C
2655 21-04-2016 05:10:00 2.9 C 88 % 1.11 C
2656 21-04-2016 05:15:00 2.8 C 89 % 1.17 C
2657 21-04-2016 05:20:00 2.8 C 89 % 1.17 C
2658 21-04-2016 05:25:00 2.8 C 89 % 1.17 C
2659 21-04-2016 05:30:00 2.7 C 89 % 1.07 C
2660 21-04-2016 05:35:00 2.6 C 89 % 0.97 C
2661 21-04-2016 05:40:00 2.6 C 89 % 0.97 C
2662 21-04-2016 05:45:00 2.4 C 90 % 0.93 C
2663 21-04-2016 05:50:00 2.4 C 90 % 0.93 C
2664 21-04-2016 05:55:00 2.3 C 90 % 0.83 C
2665 21-04-2016 06:00:00 2.3 C 90 % 0.83 C
2666 21-04-2016 06:05:00 2.3 C 90 % 0.83 C
2667 21-04-2016 06:10:00 2.3 C 90 % 0.83 C
2668 21-04-2016 06:15:00 2.2 C 90 % 0.73 C
2669 21-04-2016 06:20:00 2.2 C 90 % 0.73 C
2670 21-04-2016 06:25:00 2.2 C 91 % 0.89 C
2671 21-04-2016 06:30:00 2.2 C 91 % 0.89 C
2672 21-04-2016 06:35:00 2.2 C 91 % 0.89 C
2673 21-04-2016 06:40:00 2.2 C 91 % 0.89 C
2674 21-04-2016 06:45:00 2.2 C 91 % 0.89 C
2675 21-04-2016 06:50:00 2.2 C 91 % 0.89 C
Sensor: Nr:Datum:Temp:Feuchte:Taupunkt:
Aussen-T/F 2676 21-04-2016 06:55:00 2.3 C 91 % 0.99 C
2677 21-04-2016 07:00:00 2.3 C 91 % 0.99 C
2678 21-04-2016 07:05:00 2.3 C 91 % 0.99 C
2679 21-04-2016 07:10:00 2.3 C 92 % 1.14 C
2680 21-04-2016 07:15:00 2.4 C 92 % 1.24 C
2681 21-04-2016 07:20:00 2.4 C 92 % 1.24 C
2682 21-04-2016 07:25:00 2.4 C 92 % 1.24 C
2683 21-04-2016 07:30:00 2.4 C 92 % 1.24 C
2684 21-04-2016 07:35:00 2.4 C 92 % 1.24 C
2685 21-04-2016 07:40:00 2.4 C 92 % 1.24 C
2686 21-04-2016 07:45:00 2.4 C 92 % 1.24 C
2687 21-04-2016 07:50:00 2.5 C 92 % 1.34 C
2688 21-04-2016 07:55:00 2.6 C 92 % 1.43 C
2689 21-04-2016 08:00:00 2.6 C 92 % 1.43 C
2690 21-04-2016 08:05:00 2.6 C 92 % 1.43 C
2691 21-04-2016 08:10:00 2.7 C 93 % 1.68 C
2692 21-04-2016 08:15:00 2.8 C 92 % 1.63 C
2693 21-04-2016 08:20:00 2.8 C 93 % 1.78 C
2694 21-04-2016 08:25:00 2.9 C 93 % 1.88 C
2695 21-04-2016 08:30:00 3 C 93 % 1.98 C
2696 21-04-2016 08:35:00 3.1 C 93 % 2.08 C
2697 21-04-2016 08:40:00 3.2 C 93 % 2.18 C
2698 21-04-2016 08:45:00 3.3 C 93 % 2.28 C
2699 21-04-2016 08:50:00 3.4 C 93 % 2.38 C
2700 21-04-2016 08:55:00 3.6 C 93 % 2.58 C
Sensor: Nr:Datum:Temp:Feuchte:Taupunkt:
Aussen-T/F 2701 21-04-2016 09:00:00 3.7 C 93 % 2.68 C
2702 21-04-2016 09:05:00 3.9 C 93 % 2.87 C
2703 21-04-2016 09:10:00 4.1 C 92 % 2.92 C
2704 21-04-2016 09:15:00 4.3 C 92 % 3.12 C
2705 21-04-2016 09:20:00 4.4 C 92 % 3.22 C
2706 21-04-2016 09:25:00 4.6 C 92 % 3.42 C
2707 21-04-2016 09:30:00 4.8 C 92 % 3.61 C
2708 21-04-2016 09:35:00 5.1 C 92 % 3.91 C
2709 21-04-2016 09:40:00 5.5 C 90 % 3.99 C
2710 21-04-2016 09:45:00 5.8 C 89 % 4.13 C
2711 21-04-2016 09:50:00 6.2 C 89 % 4.53 C
2712 21-04-2016 09:55:00 6.5 C 87 % 4.5 C
2713 21-04-2016 10:00:00 6.8 C 85 % 4.46 C
2714 21-04-2016 10:05:00 7.1 C 85 % 4.75 C
2715 21-04-2016 10:10:00 7.4 C 84 % 4.88 C
2716 21-04-2016 10:15:00 7.7 C 83 % 5 C
2717 21-04-2016 10:20:00 8.2 C 83 % 5.49 C
2718 21-04-2016 10:25:00 8.6 C 81 % 5.53 C
2719 21-04-2016 10:30:00 9.1 C 77 % 5.29 C
2720 21-04-2016 10:35:00 9.5 C 77 % 5.68 C
2721 21-04-2016 10:40:00 9.8 C 76 % 5.78 C
2722 21-04-2016 10:45:00 10.2 C 73 % 5.58 C
2723 21-04-2016 10:50:00 10.5 C 73 % 5.87 C
2724 21-04-2016 10:55:00 10.8 C 70 % 5.56 C
2725 21-04-2016 11:00:00 11.1 C 69 % 5.64 C
Sensor: Nr:Datum:Temp:Feuchte:Taupunkt:
Aussen-T/F 2726 21-04-2016 11:05:00 11.5 C 65 % 5.16 C
2727 21-04-2016 11:10:00 11.9 C 65 % 5.54 C
2728 21-04-2016 11:15:00 12.4 C 62 % 5.33 C
2729 21-04-2016 11:20:00 12.8 C 59 % 5 C
2730 21-04-2016 11:25:00 13.2 C 58 % 5.13 C
2731 21-04-2016 11:30:00 13.5 C 59 % 5.65 C
2732 21-04-2016 11:35:00 13.7 C 57 % 5.35 C
2733 21-04-2016 11:40:00 13.9 C 56 % 5.28 C
2734 21-04-2016 11:45:00 14.2 C 55 % 5.3 C
2735 21-04-2016 11:50:00 14.5 C 54 % 5.31 C
2736 21-04-2016 11:55:00 14.8 C 51 % 4.77 C
2737 21-04-2016 12:00:00 15.1 C 49 % 4.48 C
2738 21-04-2016 12:05:00 15.2 C 49 % 4.57 C
2739 21-04-2016 12:10:00 15.4 C 48 % 4.46 C
2740 21-04-2016 12:15:00 15.6 C 48 % 4.64 C
2741 21-04-2016 12:20:00 15.7 C 45 % 3.81 C
2742 21-04-2016 12:25:00 15.8 C 46 % 4.22 C
2743 21-04-2016 12:30:00 15.9 C 46 % 4.31 C
2744 21-04-2016 12:35:00 16.1 C 45 % 4.18 C
2745 21-04-2016 12:40:00 16.2 C 46 % 4.58 C
2746 21-04-2016 12:45:00 16.3 C 46 % 4.67 C
2747 21-04-2016 12:50:00 16.4 C 45 % 4.45 C
2748 21-04-2016 12:55:00 16.6 C 45 % 4.63 C
2749 21-04-2016 13:00:00 16.7 C 45 % 4.72 C
2750 21-04-2016 13:05:00 16.8 C 44 % 4.49 C
Sensor: Nr:Datum:Temp:Feuchte:Taupunkt:
Aussen-T/F 2751 21-04-2016 13:10:00 17.1 C 45 % 5.08 C
2752 21-04-2016 13:15:00 17.2 C 44 % 4.85 C
2753 21-04-2016 13:20:00 17.2 C 44 % 4.85 C
2754 21-04-2016 13:25:00 17.3 C 44 % 4.94 C
2755 21-04-2016 13:30:00 17.4 C 44 % 5.03 C
2756 21-04-2016 13:35:00 17.5 C 44 % 5.13 C
2757 21-04-2016 13:40:00 17.6 C 44 % 5.22 C
2758 21-04-2016 13:45:00 17.7 C 43 % 4.98 C
2759 21-04-2016 13:50:00 17.8 C 43 % 5.07 C
2760 21-04-2016 13:55:00 17.9 C 41 % 4.48 C
2761 21-04-2016 14:00:00 18.1 C 41 % 4.66 C
2762 21-04-2016 14:05:00 18.2 C 40 % 4.39 C
2763 21-04-2016 14:10:00 18.3 C 41 % 4.83 C
2764 21-04-2016 14:15:00 18.5 C 41 % 5.01 C
2765 21-04-2016 14:20:00 18.6 C 40 % 4.75 C
2766 21-04-2016 14:25:00 18.7 C 39 % 4.48 C
2767 21-04-2016 14:30:00 18.7 C 40 % 4.84 C
2768 21-04-2016 14:35:00 18.7 C 40 % 4.84 C
2769 21-04-2016 14:40:00 18.8 C 39 % 4.57 C
2770 21-04-2016 14:45:00 19 C 39 % 4.75 C
2771 21-04-2016 14:50:00 19.2 C 40 % 5.29 C
2772 21-04-2016 14:55:00 19.3 C 40 % 5.38 C
2773 21-04-2016 15:00:00 19.5 C 38 % 4.82 C
2774 21-04-2016 15:05:00 19.6 C 38 % 4.91 C
2775 21-04-2016 15:10:00 19.7 C 35 % 3.82 C
Sensor: Nr:Datum:Temp:Feuchte:Taupunkt:
Aussen-T/F 2776 21-04-2016 15:15:00 19.7 C 36 % 4.23 C
2777 21-04-2016 15:20:00 19.8 C 37 % 4.7 C
2778 21-04-2016 15:25:00 19.9 C 35 % 4 C
2779 21-04-2016 15:30:00 20.1 C 33 % 3.34 C
2780 21-04-2016 15:35:00 20.2 C 34 % 3.85 C
2781 21-04-2016 15:40:00 20.3 C 32 % 3.08 C
2782 21-04-2016 15:45:00 20.4 C 32 % 3.17 C
2783 21-04-2016 15:50:00 20.7 C 31 % 2.98 C
2784 21-04-2016 15:55:00 20.9 C 32 % 3.61 C
2785 21-04-2016 16:00:00 20.9 C 32 % 3.61 C
2786 21-04-2016 16:05:00 20.9 C 31 % 3.16 C
2787 21-04-2016 16:10:00 21.1 C 33 % 4.22 C
2788 21-04-2016 16:15:00 21.3 C 31 % 3.5 C
2789 21-04-2016 16:20:00 21.6 C 31 % 3.76 C
2790 21-04-2016 16:25:00 21.6 C 31 % 3.76 C
2791 21-04-2016 16:30:00 21.6 C 32 % 4.21 C
2792 21-04-2016 16:35:00 21.7 C 33 % 4.74 C
2793 21-04-2016 16:40:00 21.7 C 33 % 4.74 C
2794 21-04-2016 16:45:00 21.8 C 32 % 4.39 C
2795 21-04-2016 16:50:00 22 C 32 % 4.56 C
2796 21-04-2016 16:55:00 22.2 C 30 % 3.82 C
2797 21-04-2016 17:00:00 22 C 31 % 4.11 C
2798 21-04-2016 17:05:00 22.1 C 31 % 4.2 C
2799 21-04-2016 17:10:00 22.3 C 30 % 3.9 C
2800 21-04-2016 17:15:00 22.6 C 30 % 4.16 C
Sensor: Nr:Datum:Temp:Feuchte:Taupunkt:
Aussen-T/F 2801 21-04-2016 17:20:00 22.5 C 29 % 3.6 C
2802 21-04-2016 17:25:00 22.4 C 32 % 4.91 C
2803 21-04-2016 17:30:00 22.7 C 30 % 4.25 C
2804 21-04-2016 17:35:00 22.7 C 30 % 4.25 C
2805 21-04-2016 17:40:00 22.7 C 31 % 4.72 C
2806 21-04-2016 17:45:00 22.7 C 29 % 3.77 C
2807 21-04-2016 17:50:00 22.7 C 31 % 4.72 C
2808 21-04-2016 17:55:00 22.4 C 30 % 3.99 C
2809 21-04-2016 18:00:00 22.4 C 32 % 4.91 C
2810 21-04-2016 18:05:00 22.6 C 31 % 4.63 C
2811 21-04-2016 18:10:00 22.6 C 31 % 4.63 C
2812 21-04-2016 18:15:00 22.8 C 31 % 4.8 C
2813 21-04-2016 18:20:00 22.9 C 32 % 5.35 C
2814 21-04-2016 18:25:00 23 C 30 % 4.51 C
2815 21-04-2016 18:30:00 23.2 C 29 % 4.2 C
2816 21-04-2016 18:35:00 23.1 C 30 % 4.59 C
2817 21-04-2016 18:40:00 22.9 C 30 % 4.42 C
2818 21-04-2016 18:45:00 22.8 C 31 % 4.8 C
2819 21-04-2016 18:50:00 22.7 C 31 % 4.72 C
2820 21-04-2016 18:55:00 22.8 C 32 % 5.26 C
2821 21-04-2016 19:00:00 22.8 C 31 % 4.8 C
2822 21-04-2016 19:05:00 22.6 C 31 % 4.63 C
2823 21-04-2016 19:10:00 22.3 C 31 % 4.37 C
2824 21-04-2016 19:15:00 21.9 C 33 % 4.92 C
2825 21-04-2016 19:20:00 21.7 C 34 % 5.17 C
Sensor: Nr:Datum:Temp:Feuchte:Taupunkt:
Aussen-T/F 2826 21-04-2016 19:25:00 21.4 C 34 % 4.91 C
2827 21-04-2016 19:30:00 21 C 34 % 4.55 C
2828 21-04-2016 19:35:00 20.6 C 42 % 7.25 C
2829 21-04-2016 19:40:00 19.9 C 46 % 7.95 C
2830 21-04-2016 19:45:00 18.9 C 49 % 7.96 C
2831 21-04-2016 19:50:00 18.2 C 49 % 7.32 C
2832 21-04-2016 19:55:00 17.6 C 50 % 7.06 C
2833 21-04-2016 20:00:00 17.2 C 50 % 6.7 C
2834 21-04-2016 20:05:00 16.9 C 50 % 6.42 C
2835 21-04-2016 20:10:00 16.7 C 51 % 6.52 C
2836 21-04-2016 20:15:00 16.4 C 52 % 6.53 C
2837 21-04-2016 20:20:00 16.3 C 52 % 6.44 C
2838 21-04-2016 20:25:00 16.1 C 52 % 6.25 C
2839 21-04-2016 20:30:00 15.9 C 53 % 6.34 C
2840 21-04-2016 20:35:00 15.7 C 53 % 6.16 C
2841 21-04-2016 20:40:00 15.5 C 53 % 5.97 C
2842 21-04-2016 20:45:00 15.3 C 53 % 5.79 C
2843 21-04-2016 20:50:00 15.2 C 54 % 5.96 C
2844 21-04-2016 20:55:00 15.1 C 54 % 5.87 C
2845 21-04-2016 21:00:00 15 C 54 % 5.78 C
2846 21-04-2016 21:05:00 14.9 C 55 % 5.95 C
2847 21-04-2016 21:10:00 14.7 C 56 % 6.02 C
2848 21-04-2016 21:15:00 14.6 C 57 % 6.19 C
2849 21-04-2016 21:20:00 14.3 C 57 % 5.91 C
2850 21-04-2016 21:25:00 14.2 C 57 % 5.81 C
Sensor: Nr:Datum:Temp:Feuchte:Taupunkt:
Aussen-T/F 2851 21-04-2016 21:30:00 14.1 C 59 % 6.22 C
2852 21-04-2016 21:35:00 13.8 C 59 % 5.94 C
2853 21-04-2016 21:40:00 13.6 C 60 % 5.99 C
2854 21-04-2016 21:45:00 13.4 C 60 % 5.8 C
2855 21-04-2016 21:50:00 13.3 C 62 % 6.18 C
2856 21-04-2016 21:55:00 13.1 C 63 % 6.22 C
2857 21-04-2016 22:00:00 12.9 C 63 % 6.04 C
2858 21-04-2016 22:05:00 12.8 C 63 % 5.94 C
2859 21-04-2016 22:10:00 12.7 C 63 % 5.85 C
2860 21-04-2016 22:15:00 12.7 C 64 % 6.07 C
2861 21-04-2016 22:20:00 12.6 C 63 % 5.75 C
2862 21-04-2016 22:25:00 12.6 C 65 % 6.2 C
2863 21-04-2016 22:30:00 12.3 C 64 % 5.69 C
2864 21-04-2016 22:35:00 12.3 C 65 % 5.92 C
2865 21-04-2016 22:40:00 12.3 C 62 % 5.24 C
2866 21-04-2016 22:45:00 12.3 C 64 % 5.69 C
2867 21-04-2016 22:50:00 12.2 C 65 % 5.82 C
2868 21-04-2016 22:55:00 12 C 68 % 6.29 C
2869 21-04-2016 23:00:00 11.8 C 65 % 5.44 C
2870 21-04-2016 23:05:00 11.8 C 67 % 5.88 C
2871 21-04-2016 23:10:00 11.8 C 69 % 6.31 C
2872 21-04-2016 23:15:00 11.6 C 69 % 6.11 C
2873 21-04-2016 23:20:00 11.3 C 69 % 5.83 C
2874 21-04-2016 23:25:00 11.1 C 71 % 6.05 C
2875 21-04-2016 23:30:00 11 C 72 % 6.15 C
Sensor: Nr:Datum:Temp:Feuchte:Taupunkt:
Aussen-T/F 2876 21-04-2016 23:35:00 10.9 C 72 % 6.06 C
2877 21-04-2016 23:40:00 10.8 C 71 % 5.76 C
2878 21-04-2016 23:45:00 10.8 C 72 % 5.96 C
2879 21-04-2016 23:50:00 10.8 C 72 % 5.96 C
2880 21-04-2016 23:55:00 10.7 C 72 % 5.87 C
2881 22-04-2016 00:00:00 10.7 C 73 % 6.07 C
2882 22-04-2016 00:05:00 10.7 C 73 % 6.07 C
2883 22-04-2016 00:10:00 10.7 C 73 % 6.07 C
2884 22-04-2016 00:15:00 10.7 C 74 % 6.26 C
2885 22-04-2016 00:20:00 10.7 C 76 % 6.65 C
2886 22-04-2016 00:25:00 10.5 C 76 % 6.45 C
2887 22-04-2016 00:30:00 10.4 C 77 % 6.55 C
2888 22-04-2016 00:35:00 10.4 C 77 % 6.55 C
2889 22-04-2016 00:40:00 10.3 C 77 % 6.45 C
2890 22-04-2016 00:45:00 10.3 C 76 % 6.26 C
2891 22-04-2016 00:50:00 10.3 C 77 % 6.45 C
2892 22-04-2016 00:55:00 10.2 C 76 % 6.16 C
2893 22-04-2016 01:00:00 10.2 C 76 % 6.16 C
2894 22-04-2016 01:05:00 10.1 C 77 % 6.26 C
2895 22-04-2016 01:10:00 9.9 C 78 % 6.25 C
2896 22-04-2016 01:15:00 9.8 C 77 % 5.97 C
2897 22-04-2016 01:20:00 9.7 C 78 % 6.06 C
2898 22-04-2016 01:25:00 9.6 C 80 % 6.32 C
2899 22-04-2016 01:30:00 9.6 C 80 % 6.32 C
2900 22-04-2016 01:35:00 9.6 C 81 % 6.5 C
Sensor: Nr:Datum:Temp:Feuchte:Taupunkt:
Aussen-T/F 2901 22-04-2016 01:40:00 9.6 C 81 % 6.5 C
2902 22-04-2016 01:45:00 9.6 C 81 % 6.5 C
2903 22-04-2016 01:50:00 9.6 C 81 % 6.5 C
2904 22-04-2016 01:55:00 9.7 C 82 % 6.78 C
2905 22-04-2016 02:00:00 9.8 C 82 % 6.88 C
2906 22-04-2016 02:05:00 9.8 C 82 % 6.88 C
2907 22-04-2016 02:10:00 10 C 80 % 6.71 C
2908 22-04-2016 02:15:00 10.3 C 78 % 6.64 C
2909 22-04-2016 02:20:00 10.6 C 78 % 6.93 C
2910 22-04-2016 02:25:00 10.8 C 76 % 6.75 C
2911 22-04-2016 02:30:00 10.9 C 75 % 6.65 C
2912 22-04-2016 02:35:00 11.1 C 74 % 6.65 C
2913 22-04-2016 02:40:00 11.2 C 74 % 6.74 C
2914 22-04-2016 02:45:00 11.2 C 74 % 6.74 C
2915 22-04-2016 02:50:00 11.2 C 75 % 6.94 C
2916 22-04-2016 02:55:00 11.1 C 75 % 6.84 C
2917 22-04-2016 03:00:00 11 C 75 % 6.75 C
2918 22-04-2016 03:05:00 10.9 C 77 % 7.03 C
2919 22-04-2016 03:10:00 10.8 C 77 % 6.94 C
2920 22-04-2016 03:15:00 10.8 C 77 % 6.94 C
2921 22-04-2016 03:20:00 10.7 C 78 % 7.03 C
2922 22-04-2016 03:25:00 10.7 C 78 % 7.03 C
2923 22-04-2016 03:30:00 10.6 C 78 % 6.93 C
2924 22-04-2016 03:35:00 10.6 C 78 % 6.93 C
2925 22-04-2016 03:40:00 10.5 C 78 % 6.83 C
Sensor: Nr:Datum:Temp:Feuchte:Taupunkt:
Aussen-T/F 2926 22-04-2016 03:45:00 10.5 C 79 % 7.02 C
2927 22-04-2016 03:50:00 10.4 C 79 % 6.92 C
2928 22-04-2016 03:55:00 10.4 C 78 % 6.74 C
2929 22-04-2016 04:00:00 10.4 C 79 % 6.92 C
2930 22-04-2016 04:05:00 10.3 C 79 % 6.82 C
2931 22-04-2016 04:10:00 10.3 C 79 % 6.82 C
2932 22-04-2016 04:15:00 10.3 C 79 % 6.82 C
2933 22-04-2016 04:20:00 10.3 C 77 % 6.45 C
2934 22-04-2016 04:25:00 10.4 C 75 % 6.17 C
2935 22-04-2016 04:30:00 10.4 C 76 % 6.36 C
2936 22-04-2016 04:35:00 10.4 C 76 % 6.36 C
2937 22-04-2016 04:40:00 10.4 C 76 % 6.36 C
2938 22-04-2016 04:45:00 10.3 C 76 % 6.26 C
2939 22-04-2016 04:50:00 10.2 C 77 % 6.35 C
2940 22-04-2016 04:55:00 10.1 C 77 % 6.26 C
2941 22-04-2016 05:00:00 10.1 C 78 % 6.44 C
2942 22-04-2016 05:05:00 10 C 78 % 6.35 C
2943 22-04-2016 05:10:00 9.9 C 79 % 6.43 C
2944 22-04-2016 05:15:00 9.9 C 79 % 6.43 C
2945 22-04-2016 05:20:00 9.8 C 79 % 6.34 C
2946 22-04-2016 05:25:00 9.8 C 79 % 6.34 C
2947 22-04-2016 05:30:00 9.8 C 79 % 6.34 C
2948 22-04-2016 05:35:00 9.8 C 79 % 6.34 C
2949 22-04-2016 05:40:00 9.8 C 78 % 6.15 C
2950 22-04-2016 05:45:00 9.8 C 78 % 6.15 C
Sensor: Nr:Datum:Temp:Feuchte:Taupunkt:
Aussen-T/F 2951 22-04-2016 05:50:00 9.8 C 77 % 5.97 C
2952 22-04-2016 05:55:00 9.8 C 76 % 5.78 C
2953 22-04-2016 06:00:00 9.9 C 76 % 5.87 C
2954 22-04-2016 06:05:00 9.9 C 77 % 6.06 C
2955 22-04-2016 06:10:00 9.8 C 77 % 5.97 C
2956 22-04-2016 06:15:00 9.8 C 78 % 6.15 C
2957 22-04-2016 06:20:00 9.7 C 78 % 6.06 C
2958 22-04-2016 06:25:00 9.8 C 75 % 5.59 C
2959 22-04-2016 06:30:00 10 C 74 % 5.59 C
2960 22-04-2016 06:35:00 10.1 C 73 % 5.49 C
2961 22-04-2016 06:40:00 10.2 C 74 % 5.78 C
2962 22-04-2016 06:45:00 10.2 C 73 % 5.58 C
2963 22-04-2016 06:50:00 10.1 C 75 % 5.88 C
2964 22-04-2016 06:55:00 10 C 75 % 5.78 C
2965 22-04-2016 07:00:00 9.9 C 76 % 5.87 C
2966 22-04-2016 07:05:00 9.8 C 76 % 5.78 C
2967 22-04-2016 07:10:00 9.7 C 77 % 5.87 C
2968 22-04-2016 07:15:00 9.6 C 77 % 5.77 C
2969 22-04-2016 07:20:00 9.4 C 78 % 5.76 C
2970 22-04-2016 07:25:00 9.4 C 79 % 5.95 C
2971 22-04-2016 07:30:00 9.4 C 79 % 5.95 C
2972 22-04-2016 07:35:00 9.4 C 79 % 5.95 C
2973 22-04-2016 07:40:00 9.4 C 79 % 5.95 C
2974 22-04-2016 07:45:00 9.6 C 78 % 5.96 C
2975 22-04-2016 07:50:00 9.6 C 78 % 5.96 C
Sensor: Nr:Datum:Temp:Feuchte:Taupunkt:
Aussen-T/F 2976 22-04-2016 07:55:00 9.7 C 78 % 6.06 C
2977 22-04-2016 08:00:00 9.8 C 77 % 5.97 C
2978 22-04-2016 08:05:00 9.8 C 75 % 5.59 C
2979 22-04-2016 08:10:00 9.9 C 75 % 5.68 C
2980 22-04-2016 08:15:00 10.1 C 75 % 5.88 C
2981 22-04-2016 08:20:00 10.1 C 75 % 5.88 C
2982 22-04-2016 08:25:00 10.2 C 74 % 5.78 C
2983 22-04-2016 08:30:00 10.3 C 75 % 6.07 C
2984 22-04-2016 08:35:00 10.4 C 73 % 5.78 C
2985 22-04-2016 08:40:00 10.5 C 74 % 6.07 C
2986 22-04-2016 08:45:00 10.6 C 73 % 5.97 C
2987 22-04-2016 08:50:00 10.6 C 72 % 5.77 C
2988 22-04-2016 08:55:00 10.7 C 73 % 6.07 C
2989 22-04-2016 09:00:00 10.7 C 73 % 6.07 C
2990 22-04-2016 09:05:00 10.8 C 74 % 6.36 C
2991 22-04-2016 09:10:00 10.9 C 73 % 6.26 C
2992 22-04-2016 09:15:00 11 C 73 % 6.35 C
2993 22-04-2016 09:20:00 11.1 C 73 % 6.45 C
2994 22-04-2016 09:25:00 11.2 C 73 % 6.55 C
2995 22-04-2016 09:30:00 11.3 C 73 % 6.64 C
2996 22-04-2016 09:35:00 11.3 C 73 % 6.64 C
2997 22-04-2016 09:40:00 11.4 C 72 % 6.54 C
2998 22-04-2016 09:45:00 11.5 C 73 % 6.84 C
2999 22-04-2016 09:50:00 11.6 C 71 % 6.53 C
3000 22-04-2016 09:55:00 11.6 C 72 % 6.73 C
Sensor: Nr:Datum:Temp:Feuchte:Taupunkt:
Aussen-T/F 3001 22-04-2016 10:00:00 11.7 C 72 % 6.83 C
3002 22-04-2016 10:05:00 11.9 C 71 % 6.82 C
3003 22-04-2016 10:10:00 12.1 C 70 % 6.8 C
3004 22-04-2016 10:15:00 12.2 C 69 % 6.69 C
3005 22-04-2016 10:20:00 12.4 C 67 % 6.45 C
3006 22-04-2016 10:25:00 12.4 C 66 % 6.23 C
3007 22-04-2016 10:30:00 12.5 C 63 % 5.66 C
3008 22-04-2016 10:35:00 12.6 C 63 % 5.75 C
3009 22-04-2016 10:40:00 12.8 C 64 % 6.17 C
3010 22-04-2016 10:45:00 12.9 C 64 % 6.26 C
3011 22-04-2016 10:50:00 13.1 C 63 % 6.22 C
3012 22-04-2016 10:55:00 13.3 C 58 % 5.22 C
3013 22-04-2016 11:00:00 13.3 C 58 % 5.22 C
3014 22-04-2016 11:05:00 13.4 C 59 % 5.56 C
3015 22-04-2016 11:10:00 13.5 C 57 % 5.16 C
3016 22-04-2016 11:15:00 13.5 C 57 % 5.16 C
3017 22-04-2016 11:20:00 13.6 C 56 % 5 C
3018 22-04-2016 11:25:00 13.6 C 56 % 5 C
3019 22-04-2016 11:30:00 13.6 C 57 % 5.25 C
3020 22-04-2016 11:35:00 13.7 C 57 % 5.35 C
3021 22-04-2016 11:40:00 13.7 C 56 % 5.09 C
3022 22-04-2016 11:45:00 13.7 C 56 % 5.09 C
3023 22-04-2016 11:50:00 13.8 C 56 % 5.19 C
3024 22-04-2016 11:55:00 13.9 C 56 % 5.28 C
3025 22-04-2016 12:00:00 14 C 54 % 4.85 C
Sensor: Nr:Datum:Temp:Feuchte:Taupunkt:
Aussen-T/F 3026 22-04-2016 12:05:00 14 C 55 % 5.11 C
3027 22-04-2016 12:10:00 14.1 C 55 % 5.21 C
3028 22-04-2016 12:15:00 14.1 C 55 % 5.21 C
3029 22-04-2016 12:20:00 14.2 C 54 % 5.04 C
3030 22-04-2016 12:25:00 14.3 C 54 % 5.13 C
3031 22-04-2016 12:30:00 14.4 C 53 % 4.95 C
3032 22-04-2016 12:35:00 14.4 C 52 % 4.68 C
3033 22-04-2016 12:40:00 14.6 C 52 % 4.87 C
3034 22-04-2016 12:45:00 14.6 C 50 % 4.31 C
3035 22-04-2016 12:50:00 14.6 C 51 % 4.59 C
3036 22-04-2016 12:55:00 14.7 C 52 % 4.96 C
3037 22-04-2016 13:00:00 14.9 C 49 % 4.29 C
3038 22-04-2016 13:05:00 14.9 C 49 % 4.29 C
3039 22-04-2016 13:10:00 15 C 50 % 4.67 C
3040 22-04-2016 13:15:00 15.1 C 49 % 4.48 C
3041 22-04-2016 13:20:00 15.1 C 49 % 4.48 C
3042 22-04-2016 13:25:00 15 C 49 % 4.39 C
3043 22-04-2016 13:30:00 15.1 C 48 % 4.18 C
3044 22-04-2016 13:35:00 15.1 C 49 % 4.48 C
3045 22-04-2016 13:40:00 15.3 C 50 % 4.95 C
3046 22-04-2016 13:45:00 15.4 C 47 % 4.16 C
3047 22-04-2016 13:50:00 15.4 C 47 % 4.16 C
3048 22-04-2016 13:55:00 15.6 C 46 % 4.03 C
3049 22-04-2016 14:00:00 15.5 C 47 % 4.25 C
3050 22-04-2016 14:05:00 15.6 C 46 % 4.03 C
Sensor: Nr:Datum:Temp:Feuchte:Taupunkt:
Aussen-T/F 3051 22-04-2016 14:10:00 15.7 C 46 % 4.13 C
3052 22-04-2016 14:15:00 15.7 C 46 % 4.13 C
3053 22-04-2016 14:20:00 15.7 C 46 % 4.13 C
3054 22-04-2016 14:25:00 15.8 C 46 % 4.22 C
3055 22-04-2016 14:30:00 15.8 C 44 % 3.59 C
3056 22-04-2016 14:35:00 15.8 C 46 % 4.22 C
3057 22-04-2016 14:40:00 16 C 44 % 3.77 C
3058 22-04-2016 14:45:00 16.1 C 43 % 3.53 C
3059 22-04-2016 14:50:00 16.1 C 42 % 3.2 C
3060 22-04-2016 14:55:00 16.1 C 45 % 4.18 C
3061 22-04-2016 15:00:00 16.3 C 45 % 4.36 C
3062 22-04-2016 15:05:00 16.6 C 43 % 3.98 C
3063 22-04-2016 15:10:00 16.7 C 44 % 4.4 C
3064 22-04-2016 15:15:00 16.9 C 43 % 4.25 C
3065 22-04-2016 15:20:00 16.9 C 42 % 3.92 C
3066 22-04-2016 15:25:00 17.1 C 43 % 4.43 C
3067 22-04-2016 15:30:00 17.2 C 42 % 4.19 C
3068 22-04-2016 15:35:00 17.3 C 42 % 4.28 C
3069 22-04-2016 15:40:00 17.4 C 41 % 4.03 C
3070 22-04-2016 15:45:00 17.6 C 43 % 4.89 C
3071 22-04-2016 15:50:00 17.7 C 40 % 3.95 C
3072 22-04-2016 15:55:00 17.7 C 42 % 4.64 C
3073 22-04-2016 16:00:00 17.7 C 40 % 3.95 C
3074 22-04-2016 16:05:00 17.8 C 40 % 4.03 C
3075 22-04-2016 16:10:00 17.8 C 41 % 4.39 C
Sensor: Nr:Datum:Temp:Feuchte:Taupunkt:
Aussen-T/F 3076 22-04-2016 16:15:00 17.9 C 41 % 4.48 C
3077 22-04-2016 16:20:00 18.2 C 44 % 5.76 C
3078 22-04-2016 16:25:00 18.4 C 43 % 5.61 C
3079 22-04-2016 16:30:00 18.6 C 45 % 6.45 C
3080 22-04-2016 16:35:00 18.9 C 44 % 6.39 C
3081 22-04-2016 16:40:00 19.3 C 43 % 6.42 C
3082 22-04-2016 16:45:00 19.3 C 44 % 6.75 C
3083 22-04-2016 16:50:00 19.4 C 46 % 7.49 C
3084 22-04-2016 16:55:00 19.7 C 42 % 6.44 C
3085 22-04-2016 17:00:00 19.6 C 43 % 6.69 C
3086 22-04-2016 17:05:00 19.4 C 43 % 6.51 C
3087 22-04-2016 17:10:00 19.3 C 42 % 6.08 C
3088 22-04-2016 17:15:00 19.3 C 43 % 6.42 C
3089 22-04-2016 17:20:00 19.5 C 43 % 6.6 C
3090 22-04-2016 17:25:00 19.4 C 41 % 5.82 C
3091 22-04-2016 17:30:00 19.5 C 41 % 5.91 C
3092 22-04-2016 17:35:00 19.3 C 41 % 5.73 C
3093 22-04-2016 17:40:00 19 C 41 % 5.46 C
3094 22-04-2016 17:45:00 18.7 C 42 % 5.54 C
3095 22-04-2016 17:50:00 18.4 C 41 % 4.92 C
3096 22-04-2016 17:55:00 18.2 C 41 % 4.75 C
3097 22-04-2016 18:00:00 18.1 C 42 % 5 C
3098 22-04-2016 18:05:00 18.2 C 41 % 4.75 C
3099 22-04-2016 18:10:00 18.2 C 41 % 4.75 C
3100 22-04-2016 18:15:00 18.2 C 40 % 4.39 C
Sensor: Nr:Datum:Temp:Feuchte:Taupunkt:
Aussen-T/F 3101 22-04-2016 18:20:00 18.2 C 42 % 5.09 C
3102 22-04-2016 18:25:00 18.1 C 40 % 4.3 C
3103 22-04-2016 18:30:00 17.9 C 41 % 4.48 C
3104 22-04-2016 18:35:00 17.6 C 41 % 4.21 C
3105 22-04-2016 18:40:00 17.4 C 45 % 5.36 C
3106 22-04-2016 18:45:00 17.3 C 45 % 5.27 C
3107 22-04-2016 18:50:00 17.1 C 45 % 5.08 C
3108 22-04-2016 18:55:00 16.9 C 46 % 5.22 C
3109 22-04-2016 19:00:00 16.8 C 45 % 4.81 C
3110 22-04-2016 19:05:00 16.6 C 45 % 4.63 C
3111 22-04-2016 19:10:00 16.4 C 45 % 4.45 C
3112 22-04-2016 19:15:00 16.3 C 46 % 4.67 C
3113 22-04-2016 19:20:00 16.3 C 46 % 4.67 C
3114 22-04-2016 19:25:00 16.2 C 47 % 4.89 C
3115 22-04-2016 19:30:00 16 C 48 % 5.01 C
3116 22-04-2016 19:35:00 15.9 C 49 % 5.21 C
3117 22-04-2016 19:40:00 15.8 C 49 % 5.12 C
3118 22-04-2016 19:45:00 15.7 C 50 % 5.32 C
3119 22-04-2016 19:50:00 15.6 C 50 % 5.23 C
3120 22-04-2016 19:55:00 15.4 C 51 % 5.33 C
3121 22-04-2016 20:00:00 15.3 C 51 % 5.23 C
3122 22-04-2016 20:05:00 15.3 C 52 % 5.51 C
3123 22-04-2016 20:10:00 15.2 C 52 % 5.42 C
3124 22-04-2016 20:15:00 15.1 C 53 % 5.6 C
3125 22-04-2016 20:20:00 14.9 C 53 % 5.42 C
Sensor: Nr:Datum:Temp:Feuchte:Taupunkt:
Aussen-T/F 3126 22-04-2016 20:25:00 14.9 C 54 % 5.69 C
3127 22-04-2016 20:30:00 14.8 C 54 % 5.59 C
3128 22-04-2016 20:35:00 14.7 C 55 % 5.76 C
3129 22-04-2016 20:40:00 14.7 C 54 % 5.5 C
3130 22-04-2016 20:45:00 14.6 C 54 % 5.41 C
3131 22-04-2016 20:50:00 14.6 C 54 % 5.41 C
3132 22-04-2016 20:55:00 14.4 C 54 % 5.22 C
3133 22-04-2016 21:00:00 14.4 C 54 % 5.22 C
3134 22-04-2016 21:05:00 14.3 C 54 % 5.13 C
3135 22-04-2016 21:10:00 14.3 C 54 % 5.13 C
3136 22-04-2016 21:15:00 14.2 C 54 % 5.04 C
3137 22-04-2016 21:20:00 14.1 C 55 % 5.21 C
3138 22-04-2016 21:25:00 14.1 C 55 % 5.21 C
3139 22-04-2016 21:30:00 13.9 C 55 % 5.02 C
3140 22-04-2016 21:35:00 13.9 C 57 % 5.53 C
3141 22-04-2016 21:40:00 13.8 C 57 % 5.44 C
3142 22-04-2016 21:45:00 13.7 C 60 % 6.09 C
3143 22-04-2016 21:50:00 13.6 C 60 % 5.99 C
3144 22-04-2016 21:55:00 13.4 C 58 % 5.32 C
3145 22-04-2016 22:00:00 13.3 C 62 % 6.18 C
3146 22-04-2016 22:05:00 13.2 C 62 % 6.09 C
3147 22-04-2016 22:10:00 13.1 C 60 % 5.52 C
3148 22-04-2016 22:15:00 13 C 63 % 6.13 C
3149 22-04-2016 22:20:00 12.9 C 64 % 6.26 C
3150 22-04-2016 22:25:00 12.8 C 64 % 6.17 C
Sensor: Nr:Datum:Temp:Feuchte:Taupunkt:
Aussen-T/F 3151 22-04-2016 22:30:00 12.7 C 64 % 6.07 C
3152 22-04-2016 22:35:00 12.5 C 65 % 6.11 C
3153 22-04-2016 22:40:00 12.4 C 65 % 6.01 C
3154 22-04-2016 22:45:00 12.3 C 68 % 6.57 C
3155 22-04-2016 22:50:00 12.2 C 67 % 6.26 C
3156 22-04-2016 22:55:00 12.2 C 67 % 6.26 C
3157 22-04-2016 23:00:00 12.1 C 67 % 6.17 C
3158 22-04-2016 23:05:00 12.1 C 66 % 5.95 C
3159 22-04-2016 23:10:00 12.1 C 68 % 6.38 C
3160 22-04-2016 23:15:00 12.1 C 67 % 6.17 C
3161 22-04-2016 23:20:00 12 C 67 % 6.07 C
3162 22-04-2016 23:25:00 11.9 C 67 % 5.98 C
3163 22-04-2016 23:30:00 11.8 C 68 % 6.09 C
3164 22-04-2016 23:35:00 11.7 C 68 % 6 C
3165 22-04-2016 23:40:00 11.6 C 68 % 5.9 C
3166 22-04-2016 23:45:00 11.6 C 69 % 6.11 C
3167 22-04-2016 23:50:00 11.6 C 70 % 6.32 C
3168 22-04-2016 23:55:00 11.6 C 69 % 6.11 C
3169 23-04-2016 00:00:00 11.5 C 70 % 6.23 C
3170 23-04-2016 00:05:00 11.5 C 69 % 6.02 C
3171 23-04-2016 00:10:00 11.5 C 68 % 5.81 C
3172 23-04-2016 00:15:00 11.6 C 69 % 6.11 C
3173 23-04-2016 00:20:00 11.6 C 70 % 6.32 C
3174 23-04-2016 00:25:00 11.5 C 69 % 6.02 C
3175 23-04-2016 00:30:00 11.4 C 70 % 6.13 C
Sensor: Nr:Datum:Temp:Feuchte:Taupunkt:
Aussen-T/F 3176 23-04-2016 00:35:00 11.4 C 70 % 6.13 C
3177 23-04-2016 00:40:00 11.3 C 69 % 5.83 C
3178 23-04-2016 00:45:00 11.3 C 70 % 6.03 C
3179 23-04-2016 00:50:00 11.2 C 70 % 5.94 C
3180 23-04-2016 00:55:00 11.2 C 70 % 5.94 C
3181 23-04-2016 01:00:00 11.2 C 71 % 6.14 C
3182 23-04-2016 01:05:00 11.1 C 71 % 6.05 C
3183 23-04-2016 01:10:00 11 C 71 % 5.95 C
3184 23-04-2016 01:15:00 10.9 C 71 % 5.86 C
3185 23-04-2016 01:20:00 10.9 C 71 % 5.86 C
3186 23-04-2016 01:25:00 10.9 C 72 % 6.06 C
3187 23-04-2016 01:30:00 10.8 C 73 % 6.16 C
3188 23-04-2016 01:35:00 10.8 C 74 % 6.36 C
3189 23-04-2016 01:40:00 10.7 C 75 % 6.46 C
3190 23-04-2016 01:45:00 10.7 C 76 % 6.65 C
3191 23-04-2016 01:50:00 10.6 C 76 % 6.55 C
3192 23-04-2016 01:55:00 10.4 C 76 % 6.36 C
3193 23-04-2016 02:00:00 10.3 C 77 % 6.45 C
3194 23-04-2016 02:05:00 10.2 C 78 % 6.54 C
3195 23-04-2016 02:10:00 10.1 C 77 % 6.26 C
3196 23-04-2016 02:15:00 10.1 C 78 % 6.44 C
3197 23-04-2016 02:20:00 10 C 77 % 6.16 C
3198 23-04-2016 02:25:00 9.9 C 78 % 6.25 C
3199 23-04-2016 02:30:00 9.9 C 79 % 6.43 C
3200 23-04-2016 02:35:00 9.8 C 81 % 6.7 C
Sensor: Nr:Datum:Temp:Feuchte:Taupunkt:
Aussen-T/F 3201 23-04-2016 02:40:00 9.7 C 81 % 6.6 C
3202 23-04-2016 02:45:00 9.7 C 82 % 6.78 C
3203 23-04-2016 02:50:00 9.6 C 82 % 6.68 C
3204 23-04-2016 02:55:00 9.5 C 83 % 6.76 C
3205 23-04-2016 03:00:00 9.4 C 82 % 6.49 C
3206 23-04-2016 03:05:00 9.4 C 82 % 6.49 C
3207 23-04-2016 03:10:00 9.4 C 84 % 6.84 C
3208 23-04-2016 03:15:00 9.3 C 85 % 6.91 C
3209 23-04-2016 03:20:00 9.2 C 86 % 6.98 C
3210 23-04-2016 03:25:00 9.1 C 86 % 6.89 C
3211 23-04-2016 03:30:00 9 C 85 % 6.62 C
3212 23-04-2016 03:35:00 8.9 C 84 % 6.35 C
3213 23-04-2016 03:40:00 8.9 C 86 % 6.69 C
3214 23-04-2016 03:45:00 8.9 C 87 % 6.86 C
3215 23-04-2016 03:50:00 8.8 C 87 % 6.76 C
3216 23-04-2016 03:55:00 8.8 C 87 % 6.76 C
3217 23-04-2016 04:00:00 8.7 C 87 % 6.66 C
3218 23-04-2016 04:05:00 8.7 C 88 % 6.83 C
3219 23-04-2016 04:10:00 8.6 C 88 % 6.73 C
3220 23-04-2016 04:15:00 8.5 C 89 % 6.79 C
3221 23-04-2016 04:20:00 8.4 C 89 % 6.7 C
3222 23-04-2016 04:25:00 8.4 C 90 % 6.86 C
3223 23-04-2016 04:30:00 8.4 C 90 % 6.86 C
3224 23-04-2016 04:35:00 8.3 C 90 % 6.76 C
3225 23-04-2016 04:40:00 8.3 C 90 % 6.76 C
Sensor: Nr:Datum:Temp:Feuchte:Taupunkt:
Aussen-T/F 3226 23-04-2016 04:45:00 8.2 C 91 % 6.82 C
3227 23-04-2016 04:50:00 8.2 C 91 % 6.82 C
3228 23-04-2016 04:55:00 8.1 C 91 % 6.72 C
3229 23-04-2016 05:00:00 8 C 91 % 6.62 C
3230 23-04-2016 05:05:00 7.9 C 91 % 6.52 C
3231 23-04-2016 05:10:00 7.9 C 92 % 6.68 C
3232 23-04-2016 05:15:00 7.9 C 92 % 6.68 C
3233 23-04-2016 05:20:00 7.8 C 92 % 6.58 C
3234 23-04-2016 05:25:00 7.8 C 92 % 6.58 C
3235 23-04-2016 05:30:00 7.8 C 92 % 6.58 C
3236 23-04-2016 05:35:00 7.8 C 92 % 6.58 C
3237 23-04-2016 05:40:00 7.8 C 92 % 6.58 C
3238 23-04-2016 05:45:00 7.7 C 91 % 6.33 C
3239 23-04-2016 05:50:00 7.7 C 91 % 6.33 C
3240 23-04-2016 05:55:00 7.8 C 91 % 6.43 C
3241 23-04-2016 06:00:00 7.7 C 92 % 6.48 C
3242 23-04-2016 06:05:00 7.7 C 92 % 6.48 C
3243 23-04-2016 06:10:00 7.7 C 92 % 6.48 C
3244 23-04-2016 06:15:00 7.6 C 92 % 6.39 C
3245 23-04-2016 06:20:00 7.6 C 92 % 6.39 C
3246 23-04-2016 06:25:00 7.6 C 93 % 6.54 C
3247 23-04-2016 06:30:00 7.5 C 93 % 6.44 C
3248 23-04-2016 06:35:00 7.4 C 93 % 6.34 C
3249 23-04-2016 06:40:00 7.4 C 92 % 6.19 C
3250 23-04-2016 06:45:00 7.3 C 92 % 6.09 C
Sensor: Nr:Datum:Temp:Feuchte:Taupunkt:
Aussen-T/F 3251 23-04-2016 06:50:00 7.3 C 92 % 6.09 C
3252 23-04-2016 06:55:00 7.3 C 91 % 5.93 C
3253 23-04-2016 07:00:00 7.3 C 91 % 5.93 C
3254 23-04-2016 07:05:00 7.3 C 91 % 5.93 C
3255 23-04-2016 07:10:00 7.3 C 91 % 5.93 C
3256 23-04-2016 07:15:00 7.3 C 91 % 5.93 C
3257 23-04-2016 07:20:00 7.2 C 90 % 5.67 C
3258 23-04-2016 07:25:00 7.1 C 90 % 5.57 C
3259 23-04-2016 07:30:00 7.1 C 91 % 5.73 C
3260 23-04-2016 07:35:00 7.1 C 91 % 5.73 C
3261 23-04-2016 07:40:00 7.1 C 91 % 5.73 C
3262 23-04-2016 07:45:00 7.1 C 91 % 5.73 C
3263 23-04-2016 07:50:00 7 C 91 % 5.63 C
3264 23-04-2016 07:55:00 6.9 C 91 % 5.54 C
3265 23-04-2016 08:00:00 6.9 C 91 % 5.54 C
3266 23-04-2016 08:05:00 6.8 C 90 % 5.28 C
3267 23-04-2016 08:10:00 6.7 C 91 % 5.34 C
3268 23-04-2016 08:15:00 6.7 C 91 % 5.34 C
3269 23-04-2016 08:20:00 6.7 C 91 % 5.34 C
3270 23-04-2016 08:25:00 6.7 C 91 % 5.34 C
3271 23-04-2016 08:30:00 6.6 C 91 % 5.24 C
3272 23-04-2016 08:35:00 6.6 C 91 % 5.24 C
3273 23-04-2016 08:40:00 6.6 C 91 % 5.24 C
3274 23-04-2016 08:45:00 6.5 C 90 % 4.98 C
3275 23-04-2016 08:50:00 6.4 C 90 % 4.88 C
Sensor: Nr:Datum:Temp:Feuchte:Taupunkt:
Aussen-T/F 3276 23-04-2016 08:55:00 6.4 C 90 % 4.88 C
3277 23-04-2016 09:00:00 6.4 C 90 % 4.88 C
3278 23-04-2016 09:05:00 6.4 C 91 % 5.04 C
3279 23-04-2016 09:10:00 6.4 C 91 % 5.04 C
3280 23-04-2016 09:15:00 6.4 C 91 % 5.04 C
3281 23-04-2016 09:20:00 6.3 C 91 % 4.94 C
3282 23-04-2016 09:25:00 6.3 C 91 % 4.94 C
3283 23-04-2016 09:30:00 6.3 C 91 % 4.94 C
3284 23-04-2016 09:35:00 6.3 C 91 % 4.94 C
3285 23-04-2016 09:40:00 6.3 C 92 % 5.1 C
3286 23-04-2016 09:45:00 6.3 C 92 % 5.1 C
3287 23-04-2016 09:50:00 6.3 C 92 % 5.1 C
3288 23-04-2016 09:55:00 6.3 C 91 % 4.94 C
3289 23-04-2016 10:00:00 6.3 C 91 % 4.94 C
3290 23-04-2016 10:05:00 6.3 C 92 % 5.1 C
3291 23-04-2016 10:10:00 6.3 C 92 % 5.1 C
3292 23-04-2016 10:15:00 6.3 C 92 % 5.1 C
3293 23-04-2016 10:20:00 6.3 C 92 % 5.1 C
3294 23-04-2016 10:25:00 6.3 C 92 % 5.1 C
3295 23-04-2016 10:30:00 6.2 C 92 % 5 C
3296 23-04-2016 10:35:00 6.3 C 92 % 5.1 C
3297 23-04-2016 10:40:00 6.3 C 92 % 5.1 C
3298 23-04-2016 10:45:00 6.3 C 92 % 5.1 C
3299 23-04-2016 10:50:00 6.3 C 93 % 5.25 C
3300 23-04-2016 10:55:00 6.4 C 92 % 5.2 C
Sensor: Nr:Datum:Temp:Feuchte:Taupunkt:
Aussen-T/F 3301 23-04-2016 11:00:00 6.4 C 92 % 5.2 C
3302 23-04-2016 11:05:00 6.4 C 92 % 5.2 C
3303 23-04-2016 11:10:00 6.4 C 91 % 5.04 C
3304 23-04-2016 11:15:00 6.4 C 90 % 4.88 C
3305 23-04-2016 11:20:00 6.4 C 91 % 5.04 C
3306 23-04-2016 11:25:00 6.4 C 91 % 5.04 C
3307 23-04-2016 11:30:00 6.5 C 91 % 5.14 C
3308 23-04-2016 11:35:00 6.4 C 89 % 4.72 C
3309 23-04-2016 11:40:00 6.4 C 89 % 4.72 C
3310 23-04-2016 11:45:00 6.4 C 90 % 4.88 C
3311 23-04-2016 11:50:00 6.4 C 89 % 4.72 C
3312 23-04-2016 11:55:00 6.3 C 89 % 4.62 C
3313 23-04-2016 12:00:00 6.4 C 90 % 4.88 C
3314 23-04-2016 12:05:00 6.4 C 89 % 4.72 C
3315 23-04-2016 12:10:00 6.5 C 88 % 4.66 C
3316 23-04-2016 12:15:00 6.6 C 88 % 4.76 C
3317 23-04-2016 12:20:00 6.6 C 87 % 4.6 C
3318 23-04-2016 12:25:00 6.7 C 88 % 4.86 C
3319 23-04-2016 12:30:00 6.9 C 88 % 5.05 C
3320 23-04-2016 12:35:00 6.9 C 87 % 4.89 C
3321 23-04-2016 12:40:00 6.9 C 86 % 4.72 C
3322 23-04-2016 12:45:00 6.9 C 86 % 4.72 C
3323 23-04-2016 12:50:00 6.8 C 85 % 4.46 C
3324 23-04-2016 12:55:00 6.8 C 87 % 4.79 C
3325 23-04-2016 13:00:00 6.9 C 87 % 4.89 C
Sensor: Nr:Datum:Temp:Feuchte:Taupunkt:
Aussen-T/F 3326 23-04-2016 13:05:00 7.2 C 87 % 5.19 C
3327 23-04-2016 13:10:00 7.3 C 84 % 4.78 C
3328 23-04-2016 13:15:00 7.4 C 83 % 4.71 C
3329 23-04-2016 13:20:00 7.2 C 79 % 3.81 C
3330 23-04-2016 13:25:00 7.1 C 79 % 3.71 C
3331 23-04-2016 13:30:00 7.2 C 76 % 3.26 C
3332 23-04-2016 13:35:00 7.3 C 77 % 3.54 C
3333 23-04-2016 13:40:00 7.4 C 79 % 4 C
3334 23-04-2016 13:45:00 7.5 C 75 % 3.36 C
3335 23-04-2016 13:50:00 7.6 C 77 % 3.83 C
3336 23-04-2016 13:55:00 7.8 C 77 % 4.03 C
3337 23-04-2016 14:00:00 7.9 C 76 % 3.94 C
3338 23-04-2016 14:05:00 7.9 C 77 % 4.12 C
3339 23-04-2016 14:10:00 7.9 C 76 % 3.94 C
3340 23-04-2016 14:15:00 7.8 C 78 % 4.21 C
3341 23-04-2016 14:20:00 7.8 C 78 % 4.21 C
3342 23-04-2016 14:25:00 7.9 C 75 % 3.75 C
3343 23-04-2016 14:30:00 8.1 C 75 % 3.94 C
3344 23-04-2016 14:35:00 8.3 C 71 % 3.36 C
3345 23-04-2016 14:40:00 8.5 C 69 % 3.15 C
3346 23-04-2016 14:45:00 8.7 C 70 % 3.54 C
3347 23-04-2016 14:50:00 8.7 C 68 % 3.13 C
3348 23-04-2016 14:55:00 8.9 C 65 % 2.69 C
3349 23-04-2016 15:00:00 9.3 C 64 % 2.85 C
3350 23-04-2016 15:05:00 9.3 C 59 % 1.71 C
Sensor: Nr:Datum:Temp:Feuchte:Taupunkt:
Aussen-T/F 3351 23-04-2016 15:10:00 9.1 C 61 % 1.99 C
3352 23-04-2016 15:15:00 9 C 62 % 2.12 C
3353 23-04-2016 15:20:00 8.9 C 62 % 2.03 C
3354 23-04-2016 15:25:00 8.9 C 60 % 1.57 C
3355 23-04-2016 15:30:00 9 C 59 % 1.43 C
3356 23-04-2016 15:35:00 9.2 C 59 % 1.62 C
3357 23-04-2016 15:40:00 9.6 C 59 % 1.99 C
3358 23-04-2016 15:45:00 9.6 C 59 % 1.99 C
3359 23-04-2016 15:50:00 9.4 C 59 % 1.81 C
3360 23-04-2016 15:55:00 9.2 C 59 % 1.62 C
3361 23-04-2016 16:00:00 8.9 C 60 % 1.57 C
3362 23-04-2016 16:05:00 8.9 C 60 % 1.57 C
3363 23-04-2016 16:10:00 8.9 C 60 % 1.57 C
3364 23-04-2016 16:15:00 8.9 C 61 % 1.8 C
3365 23-04-2016 16:20:00 9.1 C 59 % 1.52 C
3366 23-04-2016 16:25:00 9 C 60 % 1.66 C
3367 23-04-2016 16:30:00 8.8 C 58 % 1 C
3368 23-04-2016 16:35:00 8.7 C 59 % 1.15 C
3369 23-04-2016 16:40:00 8.6 C 57 % 0.58 C
3370 23-04-2016 16:45:00 8.6 C 60 % 1.29 C
3371 23-04-2016 16:50:00 8.6 C 61 % 1.52 C
3372 23-04-2016 16:55:00 8.7 C 60 % 1.38 C
3373 23-04-2016 17:00:00 8.8 C 63 % 2.16 C
3374 23-04-2016 17:05:00 8.8 C 61 % 1.71 C
3375 23-04-2016 17:10:00 9.1 C 62 % 2.22 C
Sensor: Nr:Datum:Temp:Feuchte:Taupunkt:
Aussen-T/F 3376 23-04-2016 17:15:00 9.4 C 60 % 2.04 C
3377 23-04-2016 17:20:00 9.8 C 59 % 2.18 C
3378 23-04-2016 17:25:00 10.1 C 57 % 1.98 C
3379 23-04-2016 17:30:00 10.5 C 57 % 2.35 C
3380 23-04-2016 17:35:00 10.8 C 57 % 2.63 C
3381 23-04-2016 17:40:00 10.8 C 53 % 1.62 C
3382 23-04-2016 17:45:00 10.7 C 54 % 1.78 C
3383 23-04-2016 17:50:00 10.2 C 51 % 0.53 C
3384 23-04-2016 17:55:00 9.9 C 52 % 0.52 C
3385 23-04-2016 18:00:00 9.8 C 52 % 0.43 C
3386 23-04-2016 18:05:00 10 C 50 % 0.07 C
3387 23-04-2016 18:10:00 10.1 C 51 % 0.44 C
3388 23-04-2016 18:15:00 10 C 50 % 0.07 C
3389 23-04-2016 18:20:00 9.8 C 51 % 0.16 C
3390 23-04-2016 18:25:00 9.9 C 52 % 0.52 C
3391 23-04-2016 18:30:00 10.1 C 54 % 1.23 C
3392 23-04-2016 18:35:00 10.3 C 52 % 0.89 C
3393 23-04-2016 18:40:00 10.6 C 50 % 0.62 C
3394 23-04-2016 18:45:00 10.7 C 52 % 1.26 C
3395 23-04-2016 18:50:00 10.3 C 52 % 0.89 C
3396 23-04-2016 18:55:00 10 C 51 % 0.34 C
3397 23-04-2016 19:00:00 9.6 C 51 % -0.03 C
3398 23-04-2016 19:05:00 9.4 C 53 % 0.32 C
3399 23-04-2016 19:10:00 9.3 C 54 % 0.48 C
3400 23-04-2016 19:15:00 9.3 C 55 % 0.74 C
Sensor: Nr:Datum:Temp:Feuchte:Taupunkt:
Aussen-T/F 3401 23-04-2016 19:20:00 8.7 C 59 % 1.15 C
3402 23-04-2016 19:25:00 8.2 C 63 % 1.59 C
3403 23-04-2016 19:30:00 7.9 C 65 % 1.74 C
3404 23-04-2016 19:35:00 7.7 C 65 % 1.55 C
3405 23-04-2016 19:40:00 7.5 C 67 % 1.78 C
3406 23-04-2016 19:45:00 7.4 C 67 % 1.69 C
3407 23-04-2016 19:50:00 7.5 C 68 % 1.99 C
3408 23-04-2016 19:55:00 7.4 C 67 % 1.69 C
3409 23-04-2016 20:00:00 7.4 C 68 % 1.89 C
3410 23-04-2016 20:05:00 7.3 C 69 % 2 C
3411 23-04-2016 20:10:00 7.3 C 69 % 2 C
3412 23-04-2016 20:15:00 7.2 C 70 % 2.11 C
3413 23-04-2016 20:20:00 7.2 C 68 % 1.7 C
3414 23-04-2016 20:25:00 7.2 C 68 % 1.7 C
3415 23-04-2016 20:30:00 7.2 C 69 % 1.9 C
3416 23-04-2016 20:35:00 7.2 C 69 % 1.9 C
3417 23-04-2016 20:40:00 7.1 C 70 % 2.01 C
3418 23-04-2016 20:45:00 7.1 C 71 % 2.21 C
3419 23-04-2016 20:50:00 6.8 C 73 % 2.31 C
3420 23-04-2016 20:55:00 6.5 C 75 % 2.4 C
3421 23-04-2016 21:00:00 6.3 C 76 % 2.39 C
3422 23-04-2016 21:05:00 6.2 C 77 % 2.48 C
3423 23-04-2016 21:10:00 6.1 C 78 % 2.56 C
3424 23-04-2016 21:15:00 6 C 78 % 2.46 C
3425 23-04-2016 21:20:00 5.9 C 78 % 2.37 C
Sensor: Nr:Datum:Temp:Feuchte:Taupunkt:
Aussen-T/F 3426 23-04-2016 21:25:00 5.8 C 79 % 2.45 C
3427 23-04-2016 21:30:00 5.7 C 79 % 2.35 C
3428 23-04-2016 21:35:00 5.7 C 79 % 2.35 C
3429 23-04-2016 21:40:00 5.6 C 80 % 2.43 C
3430 23-04-2016 21:45:00 5.6 C 81 % 2.6 C
3431 23-04-2016 21:50:00 5.5 C 81 % 2.51 C
3432 23-04-2016 21:55:00 5.4 C 82 % 2.58 C
3433 23-04-2016 22:00:00 5.4 C 83 % 2.75 C
3434 23-04-2016 22:05:00 5.3 C 81 % 2.31 C
3435 23-04-2016 22:10:00 5.4 C 81 % 2.41 C
3436 23-04-2016 22:15:00 5.4 C 82 % 2.58 C
3437 23-04-2016 22:20:00 5.5 C 83 % 2.85 C
3438 23-04-2016 22:25:00 5.4 C 84 % 2.92 C
3439 23-04-2016 22:30:00 5.3 C 84 % 2.82 C
3440 23-04-2016 22:35:00 5.2 C 84 % 2.72 C
3441 23-04-2016 22:40:00 5 C 84 % 2.53 C
3442 23-04-2016 22:45:00 4.8 C 84 % 2.33 C
3443 23-04-2016 22:50:00 4.8 C 84 % 2.33 C
3444 23-04-2016 22:55:00 4.7 C 83 % 2.07 C
3445 23-04-2016 23:00:00 4.7 C 83 % 2.07 C
3446 23-04-2016 23:05:00 4.7 C 83 % 2.07 C
3447 23-04-2016 23:10:00 4.6 C 82 % 1.8 C
3448 23-04-2016 23:15:00 4.6 C 82 % 1.8 C
3449 23-04-2016 23:20:00 4.6 C 79 % 1.28 C
3450 23-04-2016 23:25:00 4.6 C 80 % 1.46 C
Sensor: Nr:Datum:Temp:Feuchte:Taupunkt:
Aussen-T/F 3451 23-04-2016 23:30:00 4.7 C 79 % 1.38 C
3452 23-04-2016 23:35:00 4.7 C 79 % 1.38 C
3453 23-04-2016 23:40:00 4.7 C 78 % 1.2 C
3454 23-04-2016 23:45:00 4.7 C 79 % 1.38 C
3455 23-04-2016 23:50:00 4.7 C 79 % 1.38 C
3456 23-04-2016 23:55:00 4.7 C 78 % 1.2 C
3457 24-04-2016 00:00:00 4.7 C 79 % 1.38 C
3458 24-04-2016 00:05:00 4.6 C 78 % 1.1 C
3459 24-04-2016 00:10:00 4.6 C 78 % 1.1 C
3460 24-04-2016 00:15:00 4.6 C 78 % 1.1 C
3461 24-04-2016 00:20:00 4.6 C 77 % 0.92 C
3462 24-04-2016 00:25:00 4.7 C 78 % 1.2 C
3463 24-04-2016 00:30:00 4.7 C 78 % 1.2 C
3464 24-04-2016 00:35:00 4.7 C 77 % 1.02 C
3465 24-04-2016 00:40:00 4.8 C 77 % 1.12 C
3466 24-04-2016 00:45:00 4.8 C 78 % 1.3 C
3467 24-04-2016 00:50:00 4.8 C 77 % 1.12 C
3468 24-04-2016 00:55:00 4.8 C 78 % 1.3 C
3469 24-04-2016 01:00:00 4.8 C 77 % 1.12 C
3470 24-04-2016 01:05:00 4.8 C 77 % 1.12 C
3471 24-04-2016 01:10:00 4.8 C 77 % 1.12 C
3472 24-04-2016 01:15:00 4.9 C 78 % 1.39 C
3473 24-04-2016 01:20:00 4.8 C 78 % 1.3 C
3474 24-04-2016 01:25:00 4.8 C 78 % 1.3 C
3475 24-04-2016 01:30:00 4.8 C 78 % 1.3 C
Sensor: Nr:Datum:Temp:Feuchte:Taupunkt:
Aussen-T/F 3476 24-04-2016 01:35:00 4.8 C 78 % 1.3 C
3477 24-04-2016 01:40:00 4.8 C 78 % 1.3 C
3478 24-04-2016 01:45:00 4.8 C 79 % 1.47 C
3479 24-04-2016 01:50:00 4.8 C 79 % 1.47 C
3480 24-04-2016 01:55:00 4.8 C 78 % 1.3 C
3481 24-04-2016 02:00:00 4.8 C 78 % 1.3 C
3482 24-04-2016 02:05:00 4.7 C 78 % 1.2 C
3483 24-04-2016 02:10:00 4.7 C 78 % 1.2 C
3484 24-04-2016 02:15:00 4.7 C 78 % 1.2 C
3485 24-04-2016 02:20:00 4.6 C 79 % 1.28 C
3486 24-04-2016 02:25:00 4.5 C 79 % 1.18 C
3487 24-04-2016 02:30:00 4.4 C 79 % 1.09 C
3488 24-04-2016 02:35:00 4.3 C 80 % 1.16 C
3489 24-04-2016 02:40:00 4.3 C 79 % 0.99 C
3490 24-04-2016 02:45:00 4.3 C 81 % 1.34 C
3491 24-04-2016 02:50:00 4.2 C 81 % 1.24 C
3492 24-04-2016 02:55:00 4.2 C 82 % 1.41 C
3493 24-04-2016 03:00:00 4.1 C 82 % 1.31 C
3494 24-04-2016 03:05:00 4 C 82 % 1.21 C
3495 24-04-2016 03:10:00 4 C 82 % 1.21 C
3496 24-04-2016 03:15:00 4 C 83 % 1.38 C
3497 24-04-2016 03:20:00 4 C 83 % 1.38 C
3498 24-04-2016 03:25:00 4 C 83 % 1.38 C
3499 24-04-2016 03:30:00 4 C 82 % 1.21 C
3500 24-04-2016 03:35:00 4.1 C 82 % 1.31 C
Sensor: Nr:Datum:Temp:Feuchte:Taupunkt:
Aussen-T/F 3501 24-04-2016 03:40:00 4.2 C 82 % 1.41 C
3502 24-04-2016 03:45:00 4.2 C 82 % 1.41 C
3503 24-04-2016 03:50:00 4.2 C 82 % 1.41 C
3504 24-04-2016 03:55:00 4.2 C 82 % 1.41 C
3505 24-04-2016 04:00:00 4.2 C 82 % 1.41 C
3506 24-04-2016 04:05:00 4.2 C 81 % 1.24 C
3507 24-04-2016 04:10:00 4.2 C 82 % 1.41 C
3508 24-04-2016 04:15:00 4.1 C 83 % 1.48 C
3509 24-04-2016 04:20:00 4 C 83 % 1.38 C
3510 24-04-2016 04:25:00 3.9 C 82 % 1.12 C
3511 24-04-2016 04:30:00 3.9 C 83 % 1.28 C
3512 24-04-2016 04:35:00 3.8 C 83 % 1.19 C
3513 24-04-2016 04:40:00 3.7 C 84 % 1.25 C
3514 24-04-2016 04:45:00 3.7 C 84 % 1.25 C
3515 24-04-2016 04:50:00 3.6 C 84 % 1.16 C
3516 24-04-2016 04:55:00 3.4 C 84 % 0.96 C
3517 24-04-2016 05:00:00 3.3 C 84 % 0.86 C
3518 24-04-2016 05:05:00 3.2 C 85 % 0.93 C
3519 24-04-2016 05:10:00 3.2 C 85 % 0.93 C
3520 24-04-2016 05:15:00 3.1 C 85 % 0.83 C
3521 24-04-2016 05:20:00 3.1 C 85 % 0.83 C
3522 24-04-2016 05:25:00 2.9 C 85 % 0.63 C
3523 24-04-2016 05:30:00 2.8 C 85 % 0.54 C
3524 24-04-2016 05:35:00 2.8 C 86 % 0.7 C
3525 24-04-2016 05:40:00 2.7 C 86 % 0.6 C
Sensor: Nr:Datum:Temp:Feuchte:Taupunkt:
Aussen-T/F 3526 24-04-2016 05:45:00 2.7 C 87 % 0.76 C
3527 24-04-2016 05:50:00 2.7 C 88 % 0.92 C
3528 24-04-2016 05:55:00 2.7 C 88 % 0.92 C
3529 24-04-2016 06:00:00 2.7 C 88 % 0.92 C
3530 24-04-2016 06:05:00 2.7 C 88 % 0.92 C
3531 24-04-2016 06:10:00 2.6 C 88 % 0.82 C
3532 24-04-2016 06:15:00 2.6 C 88 % 0.82 C
3533 24-04-2016 06:20:00 2.5 C 88 % 0.72 C
3534 24-04-2016 06:25:00 2.5 C 88 % 0.72 C
3535 24-04-2016 06:30:00 2.6 C 89 % 0.97 C
3536 24-04-2016 06:35:00 2.7 C 89 % 1.07 C
3537 24-04-2016 06:40:00 2.7 C 88 % 0.92 C
3538 24-04-2016 06:45:00 2.8 C 89 % 1.17 C
3539 24-04-2016 06:50:00 2.8 C 89 % 1.17 C
3540 24-04-2016 06:55:00 2.8 C 89 % 1.17 C
3541 24-04-2016 07:00:00 2.9 C 89 % 1.27 C
3542 24-04-2016 07:05:00 2.9 C 90 % 1.43 C
3543 24-04-2016 07:10:00 2.9 C 90 % 1.43 C
3544 24-04-2016 07:15:00 2.9 C 90 % 1.43 C
3545 24-04-2016 07:20:00 3 C 90 % 1.52 C
3546 24-04-2016 07:25:00 3 C 90 % 1.52 C
3547 24-04-2016 07:30:00 3 C 90 % 1.52 C
3548 24-04-2016 07:35:00 3 C 90 % 1.52 C
3549 24-04-2016 07:40:00 3.1 C 91 % 1.78 C
3550 24-04-2016 07:45:00 3.1 C 91 % 1.78 C
Sensor: Nr:Datum:Temp:Feuchte:Taupunkt:
Aussen-T/F 3551 24-04-2016 07:50:00 3.2 C 91 % 1.88 C
3552 24-04-2016 07:55:00 3.3 C 90 % 1.82 C
3553 24-04-2016 08:00:00 3.3 C 90 % 1.82 C
3554 24-04-2016 08:05:00 3.4 C 90 % 1.92 C
3555 24-04-2016 08:10:00 3.5 C 89 % 1.86 C
3556 24-04-2016 08:15:00 3.6 C 89 % 1.96 C
3557 24-04-2016 08:20:00 3.7 C 88 % 1.9 C
3558 24-04-2016 08:25:00 3.8 C 87 % 1.84 C
3559 24-04-2016 08:30:00 3.9 C 88 % 2.1 C
3560 24-04-2016 08:35:00 4 C 87 % 2.04 C
3561 24-04-2016 08:40:00 4.1 C 86 % 1.97 C
3562 24-04-2016 08:45:00 4.2 C 86 % 2.07 C
3563 24-04-2016 08:50:00 4.3 C 86 % 2.17 C
3564 24-04-2016 08:55:00 4.5 C 87 % 2.53 C
3565 24-04-2016 09:00:00 4.6 C 85 % 2.3 C
3566 24-04-2016 09:05:00 4.6 C 83 % 1.97 C
3567 24-04-2016 09:10:00 4.7 C 83 % 2.07 C
3568 24-04-2016 09:15:00 4.8 C 83 % 2.16 C
3569 24-04-2016 09:20:00 4.7 C 81 % 1.73 C
3570 24-04-2016 09:25:00 4.7 C 82 % 1.9 C
3571 24-04-2016 09:30:00 4.8 C 82 % 1.99 C
3572 24-04-2016 09:35:00 4.8 C 81 % 1.82 C
3573 24-04-2016 09:40:00 4.7 C 80 % 1.55 C
3574 24-04-2016 09:45:00 4.7 C 82 % 1.9 C
3575 24-04-2016 09:50:00 4.8 C 82 % 1.99 C
Sensor: Nr:Datum:Temp:Feuchte:Taupunkt:
Aussen-T/F 3576 24-04-2016 09:55:00 5 C 80 % 1.84 C
3577 24-04-2016 10:00:00 5.2 C 80 % 2.04 C
3578 24-04-2016 10:05:00 5.5 C 80 % 2.33 C
3579 24-04-2016 10:10:00 5.6 C 78 % 2.07 C
3580 24-04-2016 10:15:00 5.7 C 77 % 1.99 C
3581 24-04-2016 10:20:00 5.8 C 73 % 1.34 C
3582 24-04-2016 10:25:00 5.8 C 73 % 1.34 C
3583 24-04-2016 10:30:00 5.9 C 71 % 1.06 C
3584 24-04-2016 10:35:00 6.1 C 70 % 1.05 C
3585 24-04-2016 10:40:00 6.3 C 69 % 1.04 C
3586 24-04-2016 10:45:00 6.3 C 68 % 0.84 C
3587 24-04-2016 10:50:00 6 C 72 % 1.35 C
3588 24-04-2016 10:55:00 5.7 C 76 % 1.81 C
3589 24-04-2016 11:00:00 5.4 C 78 % 1.88 C
3590 24-04-2016 11:05:00 5.5 C 77 % 1.8 C
3591 24-04-2016 11:10:00 5.6 C 76 % 1.71 C
3592 24-04-2016 11:15:00 5.8 C 76 % 1.91 C
3593 24-04-2016 11:20:00 5.9 C 76 % 2 C
3594 24-04-2016 11:25:00 6 C 76 % 2.1 C
3595 24-04-2016 11:30:00 6.1 C 76 % 2.2 C
3596 24-04-2016 11:35:00 6.2 C 75 % 2.11 C
3597 24-04-2016 11:40:00 6.3 C 74 % 2.02 C
3598 24-04-2016 11:45:00 6.5 C 74 % 2.21 C
3599 24-04-2016 11:50:00 6.7 C 73 % 2.21 C
3600 24-04-2016 11:55:00 6.8 C 71 % 1.92 C
Sensor: Nr:Datum:Temp:Feuchte:Taupunkt:
Aussen-T/F 3601 24-04-2016 12:00:00 6.9 C 70 % 1.82 C
3602 24-04-2016 12:05:00 6.7 C 63 % 0.17 C
3603 24-04-2016 12:10:00 6.8 C 64 % 0.48 C
3604 24-04-2016 12:15:00 6.9 C 68 % 1.41 C
3605 24-04-2016 12:20:00 7.2 C 67 % 1.49 C
3606 24-04-2016 12:25:00 7.4 C 65 % 1.26 C
3607 24-04-2016 12:30:00 7.5 C 64 % 1.14 C
3608 24-04-2016 12:35:00 7.1 C 71 % 2.21 C
3609 24-04-2016 12:40:00 6.5 C 73 % 2.02 C
3610 24-04-2016 12:45:00 6.2 C 77 % 2.48 C
3611 24-04-2016 12:50:00 6.1 C 80 % 2.92 C
3612 24-04-2016 12:55:00 5.8 C 82 % 2.97 C
3613 24-04-2016 13:00:00 5.7 C 84 % 3.21 C
3614 24-04-2016 13:05:00 5.3 C 83 % 2.65 C
3615 24-04-2016 13:10:00 4.9 C 81 % 1.92 C
3616 24-04-2016 13:15:00 4.8 C 83 % 2.16 C
3617 24-04-2016 13:20:00 4.8 C 83 % 2.16 C
3618 24-04-2016 13:25:00 4.9 C 83 % 2.26 C
3619 24-04-2016 13:30:00 5.1 C 84 % 2.63 C
3620 24-04-2016 13:35:00 5.4 C 85 % 3.09 C
3621 24-04-2016 13:40:00 5.7 C 84 % 3.21 C
3622 24-04-2016 13:45:00 5.9 C 80 % 2.72 C
3623 24-04-2016 13:50:00 6.1 C 79 % 2.74 C
3624 24-04-2016 13:55:00 6.3 C 82 % 3.46 C
3625 24-04-2016 14:00:00 6.6 C 81 % 3.58 C
Sensor: Nr:Datum:Temp:Feuchte:Taupunkt:
Aussen-T/F 3626 24-04-2016 14:05:00 6.9 C 81 % 3.87 C
3627 24-04-2016 14:10:00 7.1 C 74 % 2.79 C
3628 24-04-2016 14:15:00 6.8 C 77 % 3.06 C
3629 24-04-2016 14:20:00 6.4 C 77 % 2.67 C
3630 24-04-2016 14:25:00 6.4 C 78 % 2.85 C
3631 24-04-2016 14:30:00 6.4 C 77 % 2.67 C
3632 24-04-2016 14:35:00 6.6 C 77 % 2.86 C
3633 24-04-2016 14:40:00 6.9 C 77 % 3.16 C
3634 24-04-2016 14:45:00 7.2 C 76 % 3.26 C
3635 24-04-2016 14:50:00 7.3 C 73 % 2.79 C
3636 24-04-2016 14:55:00 7.3 C 70 % 2.2 C
3637 24-04-2016 15:00:00 7.4 C 70 % 2.3 C
3638 24-04-2016 15:05:00 7.6 C 70 % 2.49 C
3639 24-04-2016 15:10:00 7.6 C 68 % 2.08 C
3640 24-04-2016 15:15:00 7.6 C 67 % 1.88 C
3641 24-04-2016 15:20:00 7.7 C 67 % 1.97 C
3642 24-04-2016 15:25:00 7.8 C 67 % 2.07 C
3643 24-04-2016 15:30:00 7.8 C 68 % 2.27 C
3644 24-04-2016 15:35:00 7.9 C 69 % 2.57 C
3645 24-04-2016 15:40:00 8.3 C 70 % 3.16 C
3646 24-04-2016 15:45:00 8.5 C 70 % 3.35 C
3647 24-04-2016 15:50:00 8.9 C 69 % 3.53 C
3648 24-04-2016 15:55:00 9.4 C 64 % 2.95 C
3649 24-04-2016 16:00:00 9.5 C 62 % 2.59 C
3650 24-04-2016 16:05:00 9.6 C 60 % 2.23 C
Sensor: Nr:Datum:Temp:Feuchte:Taupunkt:
Aussen-T/F 3651 24-04-2016 16:10:00 9.6 C 60 % 2.23 C
3652 24-04-2016 16:15:00 9.8 C 59 % 2.18 C
3653 24-04-2016 16:20:00 10.2 C 58 % 2.32 C
3654 24-04-2016 16:25:00 10.1 C 51 % 0.44 C
3655 24-04-2016 16:30:00 9.5 C 53 % 0.41 C
3656 24-04-2016 16:35:00 9.2 C 54 % 0.39 C
3657 24-04-2016 16:40:00 9.1 C 54 % 0.3 C
3658 24-04-2016 16:45:00 7.8 C 67 % 2.07 C
3659 24-04-2016 16:50:00 6.7 C 73 % 2.21 C
3660 24-04-2016 16:55:00 6.3 C 75 % 2.2 C
3661 24-04-2016 17:00:00 6.3 C 77 % 2.57 C
3662 24-04-2016 17:05:00 6.4 C 77 % 2.67 C
3663 24-04-2016 17:10:00 6.5 C 75 % 2.4 C
3664 24-04-2016 17:15:00 6.2 C 75 % 2.11 C
3665 24-04-2016 17:20:00 5.8 C 79 % 2.45 C
3666 24-04-2016 17:25:00 5.4 C 77 % 1.7 C
3667 24-04-2016 17:30:00 5.1 C 80 % 1.94 C
3668 24-04-2016 17:35:00 5 C 82 % 2.19 C
3669 24-04-2016 17:40:00 5 C 82 % 2.19 C
3670 24-04-2016 17:45:00 5.4 C 83 % 2.75 C
3671 24-04-2016 17:50:00 6.3 C 80 % 3.11 C
3672 24-04-2016 17:55:00 7.1 C 72 % 2.4 C
3673 24-04-2016 18:00:00 7.7 C 73 % 3.18 C
3674 24-04-2016 18:05:00 8.3 C 69 % 2.96 C
3675 24-04-2016 18:10:00 8.4 C 66 % 2.43 C
Sensor: Nr:Datum:Temp:Feuchte:Taupunkt:
Aussen-T/F 3676 24-04-2016 18:15:00 8.6 C 68 % 3.04 C
3677 24-04-2016 18:20:00 9 C 68 % 3.42 C
3678 24-04-2016 18:25:00 9.3 C 67 % 3.5 C
3679 24-04-2016 18:30:00 9.3 C 67 % 3.5 C
3680 24-04-2016 18:35:00 9.3 C 65 % 3.07 C
3681 24-04-2016 18:40:00 9.4 C 64 % 2.95 C
3682 24-04-2016 18:45:00 9.3 C 62 % 2.4 C
3683 24-04-2016 18:50:00 9 C 63 % 2.35 C
3684 24-04-2016 18:55:00 8.6 C 63 % 1.97 C
3685 24-04-2016 19:00:00 8.5 C 65 % 2.31 C
3686 24-04-2016 19:05:00 8.4 C 65 % 2.21 C
3687 24-04-2016 19:10:00 8.3 C 65 % 2.12 C
3688 24-04-2016 19:15:00 8.2 C 66 % 2.24 C
3689 24-04-2016 19:20:00 8.1 C 66 % 2.14 C
3690 24-04-2016 19:25:00 7.9 C 65 % 1.74 C
3691 24-04-2016 19:30:00 7.8 C 63 % 1.21 C
3692 24-04-2016 19:35:00 7.6 C 64 % 1.24 C
3693 24-04-2016 19:40:00 7.3 C 63 % 0.74 C
3694 24-04-2016 19:45:00 7.1 C 65 % 0.98 C
3695 24-04-2016 19:50:00 7 C 65 % 0.88 C
3696 24-04-2016 19:55:00 6.8 C 65 % 0.69 C
3697 24-04-2016 20:00:00 6.7 C 66 % 0.81 C
3698 24-04-2016 20:05:00 6.4 C 66 % 0.52 C
3699 24-04-2016 20:10:00 6.2 C 67 % 0.54 C
3700 24-04-2016 20:15:00 6.1 C 69 % 0.85 C
Sensor: Nr:Datum:Temp:Feuchte:Taupunkt:
Aussen-T/F 3701 24-04-2016 20:20:00 5.9 C 69 % 0.66 C
3702 24-04-2016 20:25:00 5.8 C 70 % 0.76 C
3703 24-04-2016 20:30:00 5.7 C 70 % 0.67 C
3704 24-04-2016 20:35:00 5.7 C 71 % 0.86 C
3705 24-04-2016 20:40:00 5.6 C 75 % 1.53 C
3706 24-04-2016 20:45:00 5.2 C 78 % 1.69 C
3707 24-04-2016 20:50:00 4.8 C 81 % 1.82 C
3708 24-04-2016 20:55:00 4.7 C 81 % 1.73 C
3709 24-04-2016 21:00:00 4.6 C 82 % 1.8 C
3710 24-04-2016 21:05:00 4.5 C 81 % 1.53 C
3711 24-04-2016 21:10:00 4.4 C 82 % 1.6 C
3712 24-04-2016 21:15:00 4.3 C 82 % 1.51 C
3713 24-04-2016 21:20:00 4.3 C 83 % 1.67 C
3714 24-04-2016 21:25:00 4.2 C 83 % 1.58 C
3715 24-04-2016 21:30:00 4.2 C 83 % 1.58 C
3716 24-04-2016 21:35:00 4.2 C 83 % 1.58 C
3717 24-04-2016 21:40:00 4.3 C 83 % 1.67 C
3718 24-04-2016 21:45:00 4.2 C 85 % 1.91 C
3719 24-04-2016 21:50:00 4.1 C 86 % 1.97 C
3720 24-04-2016 21:55:00 3.9 C 86 % 1.78 C
3721 24-04-2016 22:00:00 3.7 C 86 % 1.58 C
3722 24-04-2016 22:05:00 3.4 C 87 % 1.45 C
3723 24-04-2016 22:10:00 3.3 C 88 % 1.51 C
3724 24-04-2016 22:15:00 3.2 C 89 % 1.57 C
3725 24-04-2016 22:20:00 3.2 C 90 % 1.72 C
Sensor: Nr:Datum:Temp:Feuchte:Taupunkt:
Aussen-T/F 3726 24-04-2016 22:25:00 3.3 C 90 % 1.82 C
3727 24-04-2016 22:30:00 3.3 C 90 % 1.82 C
3728 24-04-2016 22:35:00 3.3 C 90 % 1.82 C
3729 24-04-2016 22:40:00 3.2 C 90 % 1.72 C
3730 24-04-2016 22:45:00 3.2 C 90 % 1.72 C
3731 24-04-2016 22:50:00 3.1 C 90 % 1.62 C
3732 24-04-2016 22:55:00 3.1 C 90 % 1.62 C
3733 24-04-2016 23:00:00 3.1 C 90 % 1.62 C
3734 24-04-2016 23:05:00 3.1 C 90 % 1.62 C
3735 24-04-2016 23:10:00 3.1 C 90 % 1.62 C
3736 24-04-2016 23:15:00 3.1 C 90 % 1.62 C
3737 24-04-2016 23:20:00 3.2 C 89 % 1.57 C
3738 24-04-2016 23:25:00 3.2 C 89 % 1.57 C
3739 24-04-2016 23:30:00 3.3 C 89 % 1.67 C
3740 24-04-2016 23:35:00 3.3 C 89 % 1.67 C
3741 24-04-2016 23:40:00 3.1 C 89 % 1.47 C
3742 24-04-2016 23:45:00 2.9 C 89 % 1.27 C
3743 24-04-2016 23:50:00 2.7 C 90 % 1.23 C
3744 24-04-2016 23:55:00 2.6 C 90 % 1.13 C
3745 25-04-2016 00:00:00 2.5 C 91 % 1.18 C
3746 25-04-2016 00:05:00 2.4 C 91 % 1.08 C
3747 25-04-2016 00:10:00 2.3 C 91 % 0.99 C
3748 25-04-2016 00:15:00 2.3 C 92 % 1.14 C
3749 25-04-2016 00:20:00 2.2 C 92 % 1.04 C
3750 25-04-2016 00:25:00 2.2 C 92 % 1.04 C
Sensor: Nr:Datum:Temp:Feuchte:Taupunkt:
Aussen-T/F 3751 25-04-2016 00:30:00 2.2 C 93 % 1.19 C
3752 25-04-2016 00:35:00 2.2 C 93 % 1.19 C
3753 25-04-2016 00:40:00 2.2 C 93 % 1.19 C
3754 25-04-2016 00:45:00 2.3 C 93 % 1.29 C
3755 25-04-2016 00:50:00 2.3 C 93 % 1.29 C
3756 25-04-2016 00:55:00 2.3 C 94 % 1.44 C
3757 25-04-2016 01:00:00 2.3 C 94 % 1.44 C
3758 25-04-2016 01:05:00 2.3 C 94 % 1.44 C
3759 25-04-2016 01:10:00 2.3 C 94 % 1.44 C
3760 25-04-2016 01:15:00 2.3 C 94 % 1.44 C
3761 25-04-2016 01:20:00 2.3 C 94 % 1.44 C
3762 25-04-2016 01:25:00 2.4 C 94 % 1.54 C
3763 25-04-2016 01:30:00 2.4 C 94 % 1.54 C
3764 25-04-2016 01:35:00 2.4 C 94 % 1.54 C
3765 25-04-2016 01:40:00 2.4 C 94 % 1.54 C
3766 25-04-2016 01:45:00 2.4 C 94 % 1.54 C
3767 25-04-2016 01:50:00 2.4 C 94 % 1.54 C
3768 25-04-2016 01:55:00 2.4 C 94 % 1.54 C
3769 25-04-2016 02:00:00 2.3 C 94 % 1.44 C
3770 25-04-2016 02:05:00 2.3 C 94 % 1.44 C
3771 25-04-2016 02:10:00 2.3 C 94 % 1.44 C
3772 25-04-2016 02:15:00 2.2 C 94 % 1.34 C
3773 25-04-2016 02:20:00 2.2 C 94 % 1.34 C
3774 25-04-2016 02:25:00 2.1 C 94 % 1.24 C
3775 25-04-2016 02:30:00 1.9 C 94 % 1.04 C
Sensor: Nr:Datum:Temp:Feuchte:Taupunkt:
Aussen-T/F 3776 25-04-2016 02:35:00 1.9 C 94 % 1.04 C
3777 25-04-2016 02:40:00 1.8 C 94 % 0.94 C
3778 25-04-2016 02:45:00 1.8 C 94 % 0.94 C
3779 25-04-2016 02:50:00 1.8 C 94 % 0.94 C
3780 25-04-2016 02:55:00 1.8 C 94 % 0.94 C
3781 25-04-2016 03:00:00 1.7 C 94 % 0.84 C
3782 25-04-2016 03:05:00 1.6 C 94 % 0.74 C
3783 25-04-2016 03:10:00 1.6 C 94 % 0.74 C
3784 25-04-2016 03:15:00 1.4 C 94 % 0.54 C
3785 25-04-2016 03:20:00 1.3 C 94 % 0.44 C
3786 25-04-2016 03:25:00 1.2 C 94 % 0.34 C
3787 25-04-2016 03:30:00 1.2 C 94 % 0.34 C
3788 25-04-2016 03:35:00 1.2 C 94 % 0.34 C
3789 25-04-2016 03:40:00 1.2 C 94 % 0.34 C
3790 25-04-2016 03:45:00 1.2 C 94 % 0.34 C
3791 25-04-2016 03:50:00 1.2 C 94 % 0.34 C
3792 25-04-2016 03:55:00 1.2 C 95 % 0.49 C
3793 25-04-2016 04:00:00 1.2 C 95 % 0.49 C
3794 25-04-2016 04:05:00 1.2 C 95 % 0.49 C
3795 25-04-2016 04:10:00 1.1 C 95 % 0.39 C
3796 25-04-2016 04:15:00 1.1 C 95 % 0.39 C
3797 25-04-2016 04:20:00 1.1 C 95 % 0.39 C
3798 25-04-2016 04:25:00 1.1 C 95 % 0.39 C
3799 25-04-2016 04:30:00 1 C 95 % 0.29 C
3800 25-04-2016 04:35:00 0.9 C 95 % 0.19 C
Sensor: Nr:Datum:Temp:Feuchte:Taupunkt:
Aussen-T/F 3801 25-04-2016 04:40:00 0.9 C 95 % 0.19 C
3802 25-04-2016 04:45:00 0.9 C 95 % 0.19 C
3803 25-04-2016 04:50:00 0.9 C 95 % 0.19 C
3804 25-04-2016 04:55:00 0.9 C 95 % 0.19 C
3805 25-04-2016 05:00:00 0.9 C 95 % 0.19 C
3806 25-04-2016 05:05:00 0.9 C 95 % 0.19 C
3807 25-04-2016 05:10:00 0.9 C 95 % 0.19 C
3808 25-04-2016 05:15:00 1 C 95 % 0.29 C
3809 25-04-2016 05:20:00 1.1 C 95 % 0.39 C
3810 25-04-2016 05:25:00 1.2 C 95 % 0.49 C
3811 25-04-2016 05:30:00 1.2 C 95 % 0.49 C
3812 25-04-2016 05:35:00 1.3 C 95 % 0.59 C
3813 25-04-2016 05:40:00 1.3 C 95 % 0.59 C
3814 25-04-2016 05:45:00 1.2 C 95 % 0.49 C
3815 25-04-2016 05:50:00 1.2 C 95 % 0.49 C
3816 25-04-2016 05:55:00 1.1 C 95 % 0.39 C
3817 25-04-2016 06:00:00 1.1 C 95 % 0.39 C
3818 25-04-2016 06:05:00 1.1 C 95 % 0.39 C
3819 25-04-2016 06:10:00 1.1 C 95 % 0.39 C
3820 25-04-2016 06:15:00 1.1 C 95 % 0.39 C
3821 25-04-2016 06:20:00 1.1 C 95 % 0.39 C
3822 25-04-2016 06:25:00 1.2 C 95 % 0.49 C
3823 25-04-2016 06:30:00 1.2 C 95 % 0.49 C
3824 25-04-2016 06:35:00 1.3 C 95 % 0.59 C
3825 25-04-2016 06:40:00 1.3 C 95 % 0.59 C
Sensor: Nr:Datum:Temp:Feuchte:Taupunkt:
Aussen-T/F 3826 25-04-2016 06:45:00 1.3 C 95 % 0.59 C
3827 25-04-2016 06:50:00 1.4 C 95 % 0.69 C
3828 25-04-2016 06:55:00 1.5 C 94 % 0.64 C
3829 25-04-2016 07:00:00 1.5 C 94 % 0.64 C
3830 25-04-2016 07:05:00 1.6 C 94 % 0.74 C
3831 25-04-2016 07:10:00 1.6 C 93 % 0.59 C
3832 25-04-2016 07:15:00 1.6 C 93 % 0.59 C
3833 25-04-2016 07:20:00 1.6 C 93 % 0.59 C
3834 25-04-2016 07:25:00 1.6 C 92 % 0.44 C
3835 25-04-2016 07:30:00 1.6 C 92 % 0.44 C
3836 25-04-2016 07:35:00 1.6 C 92 % 0.44 C
3837 25-04-2016 07:40:00 1.7 C 92 % 0.54 C
3838 25-04-2016 07:45:00 1.7 C 92 % 0.54 C
3839 25-04-2016 07:50:00 1.8 C 91 % 0.49 C
3840 25-04-2016 07:55:00 1.8 C 91 % 0.49 C
3841 25-04-2016 08:00:00 1.9 C 91 % 0.59 C
3842 25-04-2016 08:05:00 2.1 C 91 % 0.79 C
3843 25-04-2016 08:10:00 2.2 C 90 % 0.73 C
3844 25-04-2016 08:15:00 2.4 C 90 % 0.93 C
3845 25-04-2016 08:20:00 2.6 C 90 % 1.13 C
3846 25-04-2016 08:25:00 2.7 C 89 % 1.07 C
3847 25-04-2016 08:30:00 2.9 C 89 % 1.27 C
3848 25-04-2016 08:35:00 3.1 C 89 % 1.47 C
3849 25-04-2016 08:40:00 3.2 C 89 % 1.57 C
3850 25-04-2016 08:45:00 3.2 C 88 % 1.41 C
Sensor: Nr:Datum:Temp:Feuchte:Taupunkt:
Aussen-T/F 3851 25-04-2016 08:50:00 3.3 C 88 % 1.51 C
3852 25-04-2016 08:55:00 3.4 C 88 % 1.61 C
3853 25-04-2016 09:00:00 3.6 C 88 % 1.8 C
3854 25-04-2016 09:05:00 3.7 C 88 % 1.9 C
3855 25-04-2016 09:10:00 3.8 C 88 % 2 C
3856 25-04-2016 09:15:00 4 C 88 % 2.2 C
3857 25-04-2016 09:20:00 4.1 C 86 % 1.97 C
3858 25-04-2016 09:25:00 4.2 C 85 % 1.91 C
3859 25-04-2016 09:30:00 4.3 C 86 % 2.17 C
3860 25-04-2016 09:35:00 4.4 C 85 % 2.11 C
3861 25-04-2016 09:40:00 4.6 C 84 % 2.14 C
3862 25-04-2016 09:45:00 4.6 C 85 % 2.3 C
3863 25-04-2016 09:50:00 4.7 C 84 % 2.23 C
3864 25-04-2016 09:55:00 4.7 C 84 % 2.23 C
3865 25-04-2016 10:00:00 4.9 C 84 % 2.43 C
3866 25-04-2016 10:05:00 5.1 C 84 % 2.63 C
3867 25-04-2016 10:10:00 5.2 C 83 % 2.56 C
3868 25-04-2016 10:15:00 5.3 C 82 % 2.48 C
3869 25-04-2016 10:20:00 5.3 C 82 % 2.48 C
3870 25-04-2016 10:25:00 5.4 C 81 % 2.41 C
3871 25-04-2016 10:30:00 5.4 C 80 % 2.23 C
3872 25-04-2016 10:35:00 5.6 C 81 % 2.6 C
3873 25-04-2016 10:40:00 5.8 C 79 % 2.45 C
3874 25-04-2016 10:45:00 5.9 C 79 % 2.54 C
3875 25-04-2016 10:50:00 6.1 C 78 % 2.56 C
Sensor: Nr:Datum:Temp:Feuchte:Taupunkt:
Aussen-T/F 3876 25-04-2016 10:55:00 6.3 C 76 % 2.39 C
3877 25-04-2016 11:00:00 6.4 C 75 % 2.3 C
3878 25-04-2016 11:05:00 6.3 C 74 % 2.02 C
3879 25-04-2016 11:10:00 6.4 C 75 % 2.3 C
3880 25-04-2016 11:15:00 6.6 C 75 % 2.49 C
3881 25-04-2016 11:20:00 6.8 C 74 % 2.5 C
3882 25-04-2016 11:25:00 6.9 C 74 % 2.6 C
3883 25-04-2016 11:30:00 7 C 72 % 2.31 C
3884 25-04-2016 11:35:00 7.1 C 71 % 2.21 C
3885 25-04-2016 11:40:00 7.1 C 71 % 2.21 C
3886 25-04-2016 11:45:00 7.2 C 71 % 2.3 C
3887 25-04-2016 11:50:00 7.2 C 72 % 2.5 C
3888 25-04-2016 11:55:00 7.2 C 71 % 2.3 C
3889 25-04-2016 12:00:00 7.3 C 72 % 2.6 C
3890 25-04-2016 12:05:00 7.4 C 71 % 2.5 C
3891 25-04-2016 12:10:00 7.5 C 70 % 2.39 C
3892 25-04-2016 12:15:00 7.4 C 69 % 2.1 C
3893 25-04-2016 12:20:00 7.4 C 71 % 2.5 C
3894 25-04-2016 12:25:00 7.6 C 69 % 2.29 C
3895 25-04-2016 12:30:00 7.8 C 70 % 2.68 C
3896 25-04-2016 12:35:00 7.9 C 70 % 2.78 C
3897 25-04-2016 12:40:00 7.8 C 69 % 2.48 C
3898 25-04-2016 12:45:00 7.6 C 69 % 2.29 C
3899 25-04-2016 12:50:00 7.7 C 70 % 2.58 C
3900 25-04-2016 12:55:00 7.7 C 69 %